Provisional Data: Little Pine Creek near Waterville, PA


Please select a monitoring station.
Please select start date.
Please select start date.

Toggle Unit: C/F Toggle Unit: C/F
Sample Time Temperature (C) Temperature (F) Specific Conductivity (mS/cm) pH   Turbidity (NTU+) DO (mg/L)
3/7/2021 12:00:00 AM 1.68 35.024 0.115 6.94 2.36 13.97
3/7/2021 12:15:00 AM 1.68 35.024 0.115 6.94 2.42 13.97
3/7/2021 12:30:00 AM 1.68 35.024 0.115 6.94 2.41 13.97
3/7/2021 12:45:00 AM 1.68 35.024 0.115 6.94 2.38 13.97
3/7/2021 1:00:00 AM 1.68 35.024 0.115 6.94 2.34 13.96
3/7/2021 1:15:00 AM 1.68 35.024 0.115 6.94 2.39 13.96
3/7/2021 1:30:00 AM 1.67 35.006 0.115 6.92 2.35 13.96
3/7/2021 1:45:00 AM 1.67 35.006 0.115 6.94 2.38 13.97
3/7/2021 2:00:00 AM 1.67 35.006 0.115 6.95 2.37 13.97
3/7/2021 2:15:00 AM 1.67 35.006 0.115 6.95 2.42 13.97
3/7/2021 2:30:00 AM 1.66 34.988 0.115 6.94 2.4 13.97
3/7/2021 2:45:00 AM 1.65 34.97 0.115 6.95 2.38 13.97
3/7/2021 3:00:00 AM 1.64 34.952 0.115 6.94 2.33 13.97
3/7/2021 3:15:00 AM 1.64 34.952 0.115 6.95 2.4 13.97
3/7/2021 3:30:00 AM 1.63 34.934 0.115 6.94 2.4 13.97
3/7/2021 3:45:00 AM 1.63 34.934 0.115 6.95 2.41 13.97
3/7/2021 4:00:00 AM 1.62 34.916 0.115 6.95 2.45 13.97
3/7/2021 4:15:00 AM 1.61 34.898 0.115 6.93 2.38 13.97
3/7/2021 4:30:00 AM 1.6 34.88 0.115 6.94 2.37 13.97
3/7/2021 4:45:00 AM 1.59 34.862 0.115 6.95 2.38 13.97
3/7/2021 5:00:00 AM 1.58 34.844 0.115 6.94 2.5 13.98
3/7/2021 5:15:00 AM 1.57 34.826 0.115 6.95 2.36 13.98
3/7/2021 5:30:00 AM 1.56 34.808 0.115 6.95 2.44 13.99
3/7/2021 5:45:00 AM 1.55 34.79 0.115 6.95 2.37 13.99
3/7/2021 6:00:00 AM 1.54 34.772 0.115 6.94 2.46 13.99
3/7/2021 6:15:00 AM 1.53 34.754 0.115 6.95 2.41 14
3/7/2021 6:30:00 AM 1.53 34.754 0.115 6.94 2.35 14
3/7/2021 6:45:00 AM 1.52 34.736 0.115 6.94 2.34 14.01
3/7/2021 7:00:00 AM 1.52 34.736 0.115 6.95 2.33 14.03
3/7/2021 7:15:00 AM 1.51 34.718 0.115 6.95 2.34 14.05
3/7/2021 7:30:00 AM 1.51 34.718 0.115 6.96 2.29 14.06
3/7/2021 7:45:00 AM 1.52 34.736 0.115 6.96 2.29 14.08
3/7/2021 8:00:00 AM 1.54 34.772 0.115 6.96 2.34 14.1
3/7/2021 8:15:00 AM 1.56 34.808 0.115 6.97 2.27 14.11
3/7/2021 8:30:00 AM 1.6 34.88 0.115 6.97 2.26 14.13
3/7/2021 8:45:00 AM 1.65 34.97 0.115 6.98 2.25 14.14
3/7/2021 9:00:00 AM 1.69 35.042 0.115 6.99 2.26 14.15
3/7/2021 9:15:00 AM 1.75 35.15 0.114 6.99 2.21 14.16
3/7/2021 9:30:00 AM 1.81 35.258 0.114 6.99 2.33 14.17
3/7/2021 9:45:00 AM 1.88 35.384 0.114 7 2.25 14.17
3/7/2021 10:00:00 AM 1.96 35.528 0.114 7 2.23 14.16
3/7/2021 10:15:00 AM 2.07 35.726 0.114 7.01 2.24 14.15
3/7/2021 10:30:00 AM 2.18 35.924 0.114 7.01 2.28 14.14
3/7/2021 10:45:00 AM 2.31 36.158 0.114 7.01 2.22 14.13
3/7/2021 11:00:00 AM 2.45 36.41 0.114 7.02 2.2 14.11
3/7/2021 11:15:00 AM 2.62 36.716 0.113 7.03 2.28 14.08
3/7/2021 11:30:00 AM 2.8 37.04 0.114 7.03 2.18 14.05
3/7/2021 11:45:00 AM 2.97 37.346 0.114 7.03 2.18 14.03
3/7/2021 12:00:00 PM 3.14 37.652 0.113 7.01 2.23 14.01
3/7/2021 12:15:00 PM 3.3 37.94 0.113 7.03 2.22 13.98
3/7/2021 12:30:00 PM 3.46 38.228 0.113 7.02 2.16 13.95
3/7/2021 12:45:00 PM 3.6 38.48 0.113 7.03 2.34 13.92
3/7/2021 1:00:00 PM 3.73 38.714 0.113 7.03 2.21 13.89
3/7/2021 1:15:00 PM 3.85 38.93 0.113 7.03 2.27 13.87
3/7/2021 1:30:00 PM 3.94 39.092 0.113 7 2.27 13.84
3/7/2021 1:45:00 PM 3.99 39.182 0.113 7.03 2.31 13.83
3/7/2021 2:00:00 PM 4.01 39.218 0.113 7.02 2.19 13.81
3/7/2021 2:15:00 PM 3.99 39.182 0.113 7.02 2.28 13.8
3/7/2021 2:30:00 PM 3.93 39.074 0.113 7.01 2.27 13.8
3/7/2021 2:45:00 PM 3.82 38.876 0.113 7.01 2.28 13.8
3/7/2021 3:00:00 PM 3.7 38.66 0.113 7 2.21 13.81
3/7/2021 3:15:00 PM 3.53 38.354 0.113 7 2.3 13.82
3/7/2021 3:30:00 PM 3.33 37.994 0.113 6.99 2.26 13.83
3/7/2021 3:45:00 PM 3.16 37.688 0.113 6.98 2.28 13.84
3/7/2021 4:00:00 PM 3.04 37.472 0.113 6.98 2.34 13.85
3/7/2021 4:15:00 PM 2.92 37.256 0.113 6.98 2.25 13.85
3/7/2021 4:30:00 PM 2.8 37.04 0.113 6.98 2.25 13.86
3/7/2021 4:45:00 PM 2.69 36.842 0.113 6.95 2.35 13.87
3/7/2021 5:00:00 PM 2.56 36.608 0.113 6.98 2.26 13.89
3/7/2021 5:15:00 PM 2.46 36.428 0.113 6.96 2.21 13.91
3/7/2021 5:30:00 PM 2.35 36.23 0.113 6.97 2.39 13.93
3/7/2021 5:45:00 PM 2.25 36.05 0.114 6.97 2.29 13.94
3/7/2021 6:00:00 PM 2.15 35.87 0.113 6.96 2.29 13.96
3/7/2021 6:15:00 PM 2.05 35.69 0.113 6.96 2.27 13.96
3/7/2021 6:30:00 PM 1.96 35.528 0.113 6.95 2.31 13.97
3/7/2021 6:45:00 PM 1.87 35.366 0.113 6.95 2.28 13.99
3/7/2021 7:00:00 PM 1.78 35.204 0.114 6.94 2.27 14.01
3/7/2021 7:15:00 PM 1.7 35.06 0.114 6.95 2.3 14.02
3/7/2021 7:30:00 PM 1.64 34.952 0.114 6.94 2.25 14.03
3/7/2021 7:45:00 PM 1.58 34.844 0.114 6.94 2.3 14.05
3/7/2021 8:00:00 PM 1.52 34.736 0.114 6.94 2.32 14.06
3/7/2021 8:15:00 PM 1.47 34.646 0.114 6.94 2.34 14.07
3/7/2021 8:30:00 PM 1.43 34.574 0.114 6.94 2.21 14.08
3/7/2021 8:45:00 PM 1.4 34.52 0.113 6.94 2.23 14.09
3/7/2021 9:00:00 PM 1.36 34.448 0.114 6.94 2.33 14.1
3/7/2021 9:15:00 PM 1.33 34.394 0.114 6.94 2.25 14.11
3/7/2021 9:30:00 PM 1.31 34.358 0.114 6.94 2.26 14.12
3/7/2021 9:45:00 PM 1.29 34.322 0.114 6.93 2.26 14.13
3/7/2021 10:00:00 PM 1.27 34.286 0.114 6.94 2.29 14.14
3/7/2021 10:15:00 PM 1.26 34.268 0.114 6.94 2.29 14.14
3/7/2021 10:30:00 PM 1.26 34.268 0.114 6.94 2.29 14.14
3/7/2021 10:45:00 PM 1.25 34.25 0.114 6.94 2.27 14.14
3/7/2021 11:00:00 PM 1.25 34.25 0.114 6.94 2.25 14.14
3/7/2021 11:15:00 PM 1.25 34.25 0.114 6.94 2.2 14.14
3/7/2021 11:30:00 PM 1.24 34.232 0.113 6.94 2.27 14.14
3/7/2021 11:45:00 PM 1.24 34.232 0.114 6.94 2.3 14.14
3/8/2021 12:00:00 AM 1.25 34.25 0.114 6.94 2.37 14.13
3/8/2021 12:15:00 AM 1.25 34.25 0.114 6.94 2.31 14.13
3/8/2021 12:30:00 AM 1.26 34.268 0.114 6.94 2.29 14.12
3/8/2021 12:45:00 AM 1.27 34.286 0.113 6.93 2.32 14.12
3/8/2021 1:00:00 AM 1.28 34.304 0.114 6.94 2.35 14.11
3/8/2021 1:15:00 AM 1.3 34.34 0.114 6.94 2.38 14.1
3/8/2021 1:30:00 AM 1.31 34.358 0.114 6.95 2.31 14.1
3/8/2021 1:45:00 AM 1.32 34.376 0.114 6.94 2.34 14.09
3/8/2021 2:00:00 AM 1.34 34.412 0.114 6.94 2.37 14.08
3/8/2021 2:15:00 AM 1.35 34.43 0.114 6.94 2.24 14.07
3/8/2021 2:30:00 AM 1.37 34.466 0.113 6.94 2.42 14.07
3/8/2021 2:45:00 AM 1.39 34.502 0.113 6.95 2.38 14.06
3/8/2021 3:00:00 AM 1.41 34.538 0.114 6.95 2.43 14.05
3/8/2021 3:15:00 AM 1.43 34.574 0.114 6.94 2.33 14.04
3/8/2021 3:30:00 AM 1.45 34.61 0.113 6.94 2.41 14.03
3/8/2021 3:45:00 AM 1.48 34.664 0.113 6.93 2.39 14.02
3/8/2021 4:00:00 AM 1.5 34.7 0.114 6.95 2.34 14.02
3/8/2021 4:15:00 AM 1.52 34.736 0.113 6.94 2.34 14.01
3/8/2021 4:30:00 AM 1.54 34.772 0.113 6.94 2.33 14
3/8/2021 4:45:00 AM 1.56 34.808 0.114 6.95 2.34 13.99
3/8/2021 5:00:00 AM 1.58 34.844 0.113 6.94 2.36 13.99
3/8/2021 5:15:00 AM 1.59 34.862 0.113 6.95 2.3 13.99
3/8/2021 5:30:00 AM 1.6 34.88 0.114 6.94 2.36 13.98
3/8/2021 5:45:00 AM 1.61 34.898 0.113 6.94 2.4 13.98
3/8/2021 6:00:00 AM 1.61 34.898 0.113 6.89 2.34 13.97
3/8/2021 6:15:00 AM 1.62 34.916 0.113 6.94 2.42 13.97
3/8/2021 6:30:00 AM 1.63 34.934 0.113 6.95 2.41 13.97
3/8/2021 6:45:00 AM 1.64 34.952 0.113 6.94 2.37 13.98
3/8/2021 7:00:00 AM 1.66 34.988 0.113 6.95 2.32 13.98
3/8/2021 7:15:00 AM 1.68 35.024 0.113 6.95 2.34 13.99
3/8/2021 7:30:00 AM 1.7 35.06 0.113 6.95 2.26 14.01
3/8/2021 7:45:00 AM 1.73 35.114 0.113 6.97 2.43 14.03
3/8/2021 8:00:00 AM 1.77 35.186 0.113 6.97 2.31 14.04
3/8/2021 8:15:00 AM 1.8 35.24 0.113 6.97 2.29 14.05
3/8/2021 8:30:00 AM 1.86 35.348 0.113 6.98 2.28 14.05
3/8/2021 8:45:00 AM 1.92 35.456 0.113 6.98 2.24 14.06
3/8/2021 9:00:00 AM 1.98 35.564 0.113 6.99 2.28 14.06
3/8/2021 9:15:00 AM 2.04 35.672 0.113 6.99 2.24 14.07
3/8/2021 9:30:00 AM 2.11 35.798 0.113 6.99 2.25 14.07
3/8/2021 9:45:00 AM 2.18 35.924 0.113 7 2.28 14.07
3/8/2021 10:00:00 AM 2.27 36.086 0.113 7 2.29 14.07
3/8/2021 10:15:00 AM 2.37 36.266 0.113 7.01 2.24 14.06
3/8/2021 10:30:00 AM 2.5 36.5 0.113 7 2.23 14.05
3/8/2021 10:45:00 AM 2.63 36.734 0.112 7.02 2.25 14.03
3/8/2021 11:00:00 AM 2.78 37.004 0.113 7.02 2.19 14.01
3/8/2021 11:15:00 AM 2.96 37.328 0.113 7.02 2.22 14
3/8/2021 11:30:00 AM 3.15 37.67 0.112 7.02 2.18 13.97
3/8/2021 11:45:00 AM 3.33 37.994 0.112 7.03 2.26 13.95
3/8/2021 12:00:00 PM 3.41 38.138 0.112 7.02 2.19 13.93
3/8/2021 12:15:00 PM 3.47 38.246 0.112 7.03 2.19 13.91
3/8/2021 12:30:00 PM 3.51 38.318 0.112 7.02 2.16 13.89
3/8/2021 12:45:00 PM 3.49 38.282 0.112 7.02 2.19 13.87
3/8/2021 1:00:00 PM 3.42 38.156 0.112 7.01 2.25 13.85
3/8/2021 1:15:00 PM 3.39 38.102 0.112 7.01 2.19 13.84
3/8/2021 1:30:00 PM 3.34 38.012 0.112 7.01 2.21 13.85
3/8/2021 1:45:00 PM 3.31 37.958 0.112 6.98 2.24 13.85
3/8/2021 2:00:00 PM 3.33 37.994 0.112 7.02 2.3 13.86
3/8/2021 2:15:00 PM 3.36 38.048 0.112 7 2.28 13.86
3/8/2021 2:30:00 PM 3.35 38.03 0.112 7.02 2.23 13.86
3/8/2021 2:45:00 PM 3.34 38.012 0.112 7 2.19 13.86
3/8/2021 3:00:00 PM 3.33 37.994 0.112 7.02 2.27 13.87
3/8/2021 3:15:00 PM 3.3 37.94 0.112 7.01 2.31 13.88
3/8/2021 3:30:00 PM 3.26 37.868 0.111 7.01 2.25 13.88
3/8/2021 3:45:00 PM 3.22 37.796 0.111 7.01 2.21 13.89
3/8/2021 4:00:00 PM 3.15 37.67 0.111 7.01 2.27 13.9
3/8/2021 4:15:00 PM 3.05 37.49 0.111 6.99 2.25 13.89
3/8/2021 4:30:00 PM 2.97 37.346 0.111 7 2.24 13.89
3/8/2021 4:45:00 PM 2.91 37.238 0.111 7 2.21 13.89
3/8/2021 5:00:00 PM 2.83 37.094 0.111 6.99 2.3 13.88
3/8/2021 5:15:00 PM 2.76 36.968 0.111 6.99 2.24 13.88
3/8/2021 5:30:00 PM 2.67 36.806 0.112 6.98 2.21 13.88
3/8/2021 5:45:00 PM 2.58 36.644 0.111 6.98 2.24 13.87
3/8/2021 6:00:00 PM 2.49 36.482 0.111 6.98 2.28 13.87
3/8/2021 6:15:00 PM 2.41 36.338 0.112 6.97 2.23 13.86
3/8/2021 6:30:00 PM 2.33 36.194 0.112 6.96 2.19 13.86
3/8/2021 6:45:00 PM 2.25 36.05 0.112 6.96 2.26 13.86
3/8/2021 7:00:00 PM 2.17 35.906 0.112 6.96 2.21 13.87
3/8/2021 7:15:00 PM 2.09 35.762 0.112 6.92 2.24 13.88
3/8/2021 7:30:00 PM 2.02 35.636 0.112 6.95 2.17 13.89
3/8/2021 7:45:00 PM 1.95 35.51 0.112 6.95 2.18 13.9
3/8/2021 8:00:00 PM 1.89 35.402 0.112 6.95 2.22 13.92
3/8/2021 8:15:00 PM 1.83 35.294 0.113 6.94 2.24 13.93
3/8/2021 8:30:00 PM 1.79 35.222 0.113 6.94 2.26 13.94
3/8/2021 8:45:00 PM 1.75 35.15 0.113 6.93 2.21 13.95
3/8/2021 9:00:00 PM 1.71 35.078 0.113 6.95 2.21 13.96
3/8/2021 9:15:00 PM 1.69 35.042 0.113 6.94 2.21 13.97
3/8/2021 9:30:00 PM 1.66 34.988 0.114 6.94 2.36 13.97
3/8/2021 9:45:00 PM 1.64 34.952 0.113 6.94 2.18 13.97
3/8/2021 10:00:00 PM 1.63 34.934 0.114 6.94 2.25 13.98
3/8/2021 10:15:00 PM 1.62 34.916 0.114 6.95 2.23 13.98
3/8/2021 10:30:00 PM 1.62 34.916 0.114 6.94 2.21 13.98
3/8/2021 10:45:00 PM 1.62 34.916 0.114 6.95 2.24 13.99
3/8/2021 11:00:00 PM 1.62 34.916 0.114 6.95 2.25 13.98
3/8/2021 11:15:00 PM 1.65 34.97 0.114 6.94 2.26 13.98
3/8/2021 11:30:00 PM 1.68 35.024 0.114 6.95 2.26 13.97
3/8/2021 11:45:00 PM 1.71 35.078 0.114 6.95 2.22 13.97
3/9/2021 12:00:00 AM 1.74 35.132 0.114 6.95 2.27 13.96
3/9/2021 12:15:00 AM 1.76 35.168 0.114 6.95 2.33 13.95
3/9/2021 12:30:00 AM 1.77 35.186 0.114 6.93 2.21 13.95
3/9/2021 12:45:00 AM 1.78 35.204 0.114 6.94 2.22 13.94
3/9/2021 1:00:00 AM 1.79 35.222 0.114 6.95 2.3 13.94
3/9/2021 1:15:00 AM 1.79 35.222 0.114 6.94 2.36 13.93
3/9/2021 1:30:00 AM 1.8 35.24 0.114 6.95 2.34 13.93
3/9/2021 1:45:00 AM 1.81 35.258 0.114 6.93 2.41 13.92
3/9/2021 2:00:00 AM 1.81 35.258 0.114 6.94 2.34 13.92
3/9/2021 2:15:00 AM 1.82 35.276 0.114 6.94 2.29 13.91
3/9/2021 2:30:00 AM 1.84 35.312 0.114 6.94 2.36 13.91
3/9/2021 2:45:00 AM 1.83 35.294 0.114 6.94 2.34 13.9
3/9/2021 3:00:00 AM 1.83 35.294 0.114 6.94 2.41 13.9
3/9/2021 3:15:00 AM 1.83 35.294 0.114 6.94 2.31 13.9
3/9/2021 3:30:00 AM 1.83 35.294 0.114 6.94 2.34 13.89
3/9/2021 3:45:00 AM 1.83 35.294 0.114 6.93 2.48 13.89
3/9/2021 4:00:00 AM 1.83 35.294 0.114 6.94 2.4 13.88
3/9/2021 4:15:00 AM 1.84 35.312 0.114 6.94 2.39 13.88
3/9/2021 4:30:00 AM 1.85 35.33 0.114 6.94 2.34 13.88
3/9/2021 4:45:00 AM 1.85 35.33 0.114 6.94 2.25 13.87
3/9/2021 5:00:00 AM 1.86 35.348 0.114 6.94 2.33 13.87
3/9/2021 5:15:00 AM 1.86 35.348 0.114 6.94 2.44 13.87
3/9/2021 5:30:00 AM 1.86 35.348 0.114 6.94 2.54 13.87
3/9/2021 5:45:00 AM 1.86 35.348 0.114 6.94 2.41 13.87
3/9/2021 6:00:00 AM 1.86 35.348 0.115 6.94 2.35 13.88
3/9/2021 6:15:00 AM 1.86 35.348 0.115 6.94 2.58 13.87
3/9/2021 6:30:00 AM 1.86 35.348 0.115 6.94 2.33 13.87
3/9/2021 6:45:00 AM 1.87 35.366 0.115 6.95 2.31 13.88
3/9/2021 7:00:00 AM 1.89 35.402 0.115 6.94 2.32 13.89
3/9/2021 7:15:00 AM 1.91 35.438 0.114 6.95 2.33 13.91
3/9/2021 7:30:00 AM 1.92 35.456 0.115 6.95 2.27 13.92
3/9/2021 7:45:00 AM 1.95 35.51 0.114 6.96 2.36 13.94
3/9/2021 8:00:00 AM 1.98 35.564 0.115 6.97 2.46 13.96
3/9/2021 8:15:00 AM 2.02 35.636 0.115 6.97 2.35 13.97
3/9/2021 8:30:00 AM 2.07 35.726 0.115 6.98 2.38 13.99
3/9/2021 8:45:00 AM 2.13 35.834 0.115 6.98 2.33 14
3/9/2021 9:00:00 AM 2.2 35.96 0.115 6.99 2.31 14
3/9/2021 9:15:00 AM 2.26 36.068 0.115 6.98 2.35 14.01
3/9/2021 9:30:00 AM 2.34 36.212 0.115 7 2.39 14.01
3/9/2021 9:45:00 AM 2.42 36.356 0.115 7 2.24 14.01
3/9/2021 10:00:00 AM 2.51 36.518 0.115 7 2.29 14.01
3/9/2021 10:15:00 AM 2.61 36.698 0.115 7.01 2.34 14
3/9/2021 10:30:00 AM 2.73 36.914 0.115 7.01 2.2 13.99
3/9/2021 10:45:00 AM 2.88 37.184 0.115 7.01 2.23 13.98
3/9/2021 11:00:00 AM 3.06 37.508 0.115 7.02 2.23 13.97
3/9/2021 11:15:00 AM 3.25 37.85 0.114 7.03 2.15 13.95
3/9/2021 11:30:00 AM 3.42 38.156 0.115 7.03 2.14 13.92
3/9/2021 11:45:00 AM 3.57 38.426 0.115 7.03 2.16 13.9
3/9/2021 12:00:00 PM 3.75 38.75 0.115 7.03 2.2 13.86
3/9/2021 12:15:00 PM 3.94 39.092 0.114 7.04 2.11 13.83
3/9/2021 12:30:00 PM 4.16 39.488 0.114 7.03 2.14 13.79
3/9/2021 12:45:00 PM 4.35 39.83 0.114 7.04 2.14 13.76
3/9/2021 1:00:00 PM 4.53 40.154 0.114 7.03 2.12 13.73
3/9/2021 1:15:00 PM 4.65 40.37 0.114 7.04 2.12 13.7
3/9/2021 1:30:00 PM 4.75 40.55 0.114 7.04 2.18 13.67
3/9/2021 1:45:00 PM 4.84 40.712 0.114 7.04 2.12 13.64
3/9/2021 2:00:00 PM 4.86 40.748 0.114 7.03 2.22 13.63
3/9/2021 2:15:00 PM 4.85 40.73 0.113 7.03 2.16 13.61
3/9/2021 2:30:00 PM 4.79 40.622 0.114 7.03 2.14 13.61
3/9/2021 2:45:00 PM 4.69 40.442 0.114 7.02 2.14 13.61
3/9/2021 3:00:00 PM 4.6 40.28 0.113 7.02 2.11 13.61
3/9/2021 3:15:00 PM 4.45 40.01 0.113 7.02 2.11 13.62
3/9/2021 3:30:00 PM 4.28 39.704 0.113 7 2.16 13.62
3/9/2021 3:45:00 PM 4.11 39.398 0.113 7.01 2.09 13.63
3/9/2021 4:00:00 PM 3.99 39.182 0.113 7.01 2.09 13.63
3/9/2021 4:15:00 PM 3.85 38.93 0.113 7.01 2.14 13.64
3/9/2021 4:30:00 PM 3.72 38.696 0.113 7 2.21 13.65
3/9/2021 4:45:00 PM 3.59 38.462 0.113 7 2.23 13.66
3/9/2021 5:00:00 PM 3.45 38.21 0.113 6.99 2.16 13.68
3/9/2021 5:15:00 PM 3.32 37.976 0.113 6.99 2.21 13.69
3/9/2021 5:30:00 PM 3.2 37.76 0.113 6.99 2.15 13.7
3/9/2021 5:45:00 PM 3.08 37.544 0.113 6.98 2.17 13.7
3/9/2021 6:00:00 PM 2.97 37.346 0.113 6.97 2.24 13.71
3/9/2021 6:15:00 PM 2.86 37.148 0.113 6.97 2.17 13.71
3/9/2021 6:30:00 PM 2.76 36.968 0.113 6.97 2.13 13.71
3/9/2021 6:45:00 PM 2.65 36.77 0.113 6.96 2.18 13.73
3/9/2021 7:00:00 PM 2.56 36.608 0.113 6.96 2.2 13.74
3/9/2021 7:15:00 PM 2.47 36.446 0.113 6.92 2.2 13.76
3/9/2021 7:30:00 PM 2.39 36.302 0.113 6.96 2.18 13.77
3/9/2021 7:45:00 PM 2.33 36.194 0.113 6.95 2.18 13.79
3/9/2021 8:00:00 PM 2.27 36.086 0.113 6.95 2.38 13.8
3/9/2021 8:15:00 PM 2.22 35.996 0.113 6.95 2.13 13.81
3/9/2021 8:30:00 PM 2.17 35.906 0.113 6.95 2.23 13.82
3/9/2021 8:45:00 PM 2.13 35.834 0.113 6.95 2.19 13.83
3/9/2021 9:00:00 PM 2.1 35.78 0.113 6.95 2.16 13.84
3/9/2021 9:15:00 PM 2.07 35.726 0.113 6.95 2.2 13.85
3/9/2021 9:30:00 PM 2.04 35.672 0.113 6.95 2.21 13.85
3/9/2021 9:45:00 PM 2.02 35.636 0.113 6.95 2.13 13.86
3/9/2021 10:00:00 PM 2 35.6 0.113 6.95 2.24 13.87
3/9/2021 10:15:00 PM 1.99 35.582 0.113 6.95 2.18 13.88
3/9/2021 10:30:00 PM 1.97 35.546 0.113 6.95 2.28 13.88
3/9/2021 10:45:00 PM 1.96 35.528 0.113 6.95 2.21 13.89
3/9/2021 11:00:00 PM 1.95 35.51 0.113 6.95 2.13 13.89
3/9/2021 11:15:00 PM 1.95 35.51 0.113 6.95 2.2 13.89
3/9/2021 11:30:00 PM 1.95 35.51 0.113 6.94 2.29 13.89
3/9/2021 11:45:00 PM 1.94 35.492 0.113 6.95 2.19 13.89
3/10/2021 12:00:00 AM 1.95 35.51 0.113 6.95 2.23 13.89
3/10/2021 12:15:00 AM 1.95 35.51 0.113 6.95 2.26 13.89
3/10/2021 12:30:00 AM 1.96 35.528 0.114 6.95 2.13 13.89
3/10/2021 12:45:00 AM 1.98 35.564 0.114 6.96 2.27 13.88
3/10/2021 1:00:00 AM 2 35.6 0.114 6.96 2.27 13.87
3/10/2021 1:15:00 AM 2.03 35.654 0.114 6.96 2.31 13.86
3/10/2021 1:30:00 AM 2.06 35.708 0.114 6.96 2.26 13.86
3/10/2021 1:45:00 AM 2.09 35.762 0.114 6.96 2.31 13.85
3/10/2021 2:00:00 AM 2.12 35.816 0.114 6.96 2.28 13.84
3/10/2021 2:15:00 AM 2.16 35.888 0.114 6.96 2.28 13.83
3/10/2021 2:30:00 AM 2.19 35.942 0.115 6.96 2.37 13.82
3/10/2021 2:45:00 AM 2.21 35.978 0.115 6.96 2.29 13.82
3/10/2021 3:00:00 AM 2.25 36.05 0.115 6.96 2.24 13.81
3/10/2021 3:15:00 AM 2.27 36.086 0.115 6.96 2.23 13.81
3/10/2021 3:30:00 AM 2.3 36.14 0.115 6.96 2.27 13.8
3/10/2021 3:45:00 AM 2.34 36.212 0.115 6.96 2.37 13.79
3/10/2021 4:00:00 AM 2.38 36.284 0.115 6.97 2.38 13.78
3/10/2021 4:15:00 AM 2.42 36.356 0.115 6.97 2.38 13.76
3/10/2021 4:30:00 AM 2.45 36.41 0.115 6.97 2.74 13.76
3/10/2021 4:45:00 AM 2.49 36.482 0.116 6.97 2.32 13.74
3/10/2021 5:00:00 AM 2.52 36.536 0.115 6.97 2.26 13.74
3/10/2021 5:15:00 AM 2.55 36.59 0.116 6.97 2.3 13.73
3/10/2021 5:30:00 AM 2.57 36.626 0.116 6.94 2.28 13.72
3/10/2021 5:45:00 AM 2.6 36.68 0.116 6.97 2.28 13.72
3/10/2021 6:00:00 AM 2.62 36.716 0.116 6.97 2.33 13.71
3/10/2021 6:15:00 AM 2.65 36.77 0.116 6.97 2.2 13.7
3/10/2021 6:30:00 AM 2.67 36.806 0.116 6.98 2.33 13.69
3/10/2021 6:45:00 AM 2.7 36.86 0.116 6.97 2.26 13.69
3/10/2021 7:00:00 AM 2.74 36.932 0.116 6.98 2.27 13.69
3/10/2021 7:15:00 AM 2.78 37.004 0.116 6.98 2.33 13.7
3/10/2021 7:30:00 AM 2.81 37.058 0.116 6.98 2.31 13.71
3/10/2021 7:45:00 AM 2.85 37.13 0.116 6.99 2.29 13.71
3/10/2021 8:00:00 AM 2.9 37.22 0.116 6.99 2.22 13.72
3/10/2021 8:15:00 AM 2.95 37.31 0.116 7 2.31 13.72
3/10/2021 8:30:00 AM 3.02 37.436 0.116 7 2.23 13.73
3/10/2021 8:45:00 AM 3.09 37.562 0.116 7.01 2.24 13.74
3/10/2021 9:00:00 AM 3.16 37.688 0.116 7.01 2.24 13.75
3/10/2021 9:15:00 AM 3.23 37.814 0.116 7.02 2.25 13.75
3/10/2021 9:30:00 AM 3.31 37.958 0.116 7 2.24 13.75
3/10/2021 9:45:00 AM 3.4 38.12 0.116 7.03 2.21 13.74
3/10/2021 10:00:00 AM 3.51 38.318 0.116 7.03 2.21 13.73
3/10/2021 10:15:00 AM 3.64 38.552 0.116 7.04 2.17 13.71
3/10/2021 10:30:00 AM 3.79 38.822 0.116 7.05 2.18 13.7
3/10/2021 10:45:00 AM 3.94 39.092 0.116 7.05 2.22 13.67
3/10/2021 11:00:00 AM 4.12 39.416 0.116 7.06 2.33 13.65
3/10/2021 11:15:00 AM 4.31 39.758 0.116 7.06 2.22 13.62
3/10/2021 11:30:00 AM 4.49 40.082 0.116 7.06 2.25 13.59
3/10/2021 11:45:00 AM 4.68 40.424 0.116 7.07 2.23 13.56
3/10/2021 12:00:00 PM 4.87 40.766 0.116 7.06 2.35 13.53
3/10/2021 12:15:00 PM 5.05 41.09 0.116 7.06 2.23 13.49
3/10/2021 12:30:00 PM 5.22 41.396 0.116 7.06 2.2 13.46
3/10/2021 12:45:00 PM 5.39 41.702 0.116 7.06 2.25 13.42
3/10/2021 1:00:00 PM 5.53 41.954 0.116 7.07 2.2 13.39
3/10/2021 1:15:00 PM 5.66 42.188 0.116 7.06 2.23 13.37
3/10/2021 1:30:00 PM 5.77 42.386 0.116 7.06 2.22 13.34
3/10/2021 1:45:00 PM 5.83 42.494 0.116 7.06 2.28 13.32
3/10/2021 2:00:00 PM 5.85 42.53 0.116 7.05 2.22 13.3
3/10/2021 2:15:00 PM 5.85 42.53 0.116 7.05 2.32 13.29
3/10/2021 2:30:00 PM 5.8 42.44 0.116 7.04 2.52 13.27
3/10/2021 2:45:00 PM 5.72 42.296 0.117 7.02 2.28 13.27
3/10/2021 3:00:00 PM 5.62 42.116 0.117 7.04 2.27 13.27
3/10/2021 3:15:00 PM 5.49 41.882 0.117 7.03 2.26 13.27
3/10/2021 3:30:00 PM 5.31 41.558 0.117 7.03 2.32 13.27
3/10/2021 3:45:00 PM 5.14 41.252 0.118 6.98 2.29 13.28
3/10/2021 4:00:00 PM 5.02 41.036 0.118 7.03 2.23 13.3
3/10/2021 4:15:00 PM 4.88 40.784 0.118 7.03 2.22 13.32
3/10/2021 4:30:00 PM 4.75 40.55 0.118 7.02 2.39 13.35
3/10/2021 4:45:00 PM 4.61 40.298 0.118 7.03 2.29 13.37
3/10/2021 5:00:00 PM 4.47 40.046 0.118 7.02 2.44 13.39
3/10/2021 5:15:00 PM 4.34 39.812 0.119 7.02 2.26 13.42
3/10/2021 5:30:00 PM 4.22 39.596 0.119 7.01 2.26 13.43
3/10/2021 5:45:00 PM 4.1 39.38 0.119 7.01 2.25 13.44
3/10/2021 6:00:00 PM 3.99 39.182 0.119 7.01 2.34 13.44
3/10/2021 6:15:00 PM 3.87 38.966 0.119 6.99 2.39 13.44
3/10/2021 6:30:00 PM 3.76 38.768 0.119 6.99 2.39 13.44
3/10/2021 6:45:00 PM 3.65 38.57 0.119 6.99 2.34 13.45
3/10/2021 7:00:00 PM 3.56 38.408 0.119 6.98 2.42 13.46
3/10/2021 7:15:00 PM 3.48 38.264 0.119 6.98 2.33 13.47
3/10/2021 7:30:00 PM 3.41 38.138 0.119 6.98 2.44 13.48
3/10/2021 7:45:00 PM 3.34 38.012 0.119 6.98 2.46 13.49
3/10/2021 8:00:00 PM 3.28 37.904 0.119 6.97 2.49 13.49
3/10/2021 8:15:00 PM 3.23 37.814 0.118 6.97 2.4 13.5
3/10/2021 8:30:00 PM 3.18 37.724 0.118 6.97 2.41 13.51
3/10/2021 8:45:00 PM 3.13 37.634 0.118 6.97 2.45 13.52
3/10/2021 9:00:00 PM 3.09 37.562 0.118 6.97 2.39 13.53
3/10/2021 9:15:00 PM 3.06 37.508 0.118 6.96 2.54 13.54
3/10/2021 9:30:00 PM 3.04 37.472 0.118 6.97 2.48 13.55
3/10/2021 9:45:00 PM 3.01 37.418 0.118 6.97 2.47 13.55
3/10/2021 10:00:00 PM 2.99 37.382 0.118 6.96 2.4 13.56
3/10/2021 10:15:00 PM 2.97 37.346 0.118 6.97 2.57 13.57
3/10/2021 10:30:00 PM 2.96 37.328 0.118 6.98 2.52 13.58
3/10/2021 10:45:00 PM 2.95 37.31 0.118 6.97 2.59 13.59
3/10/2021 11:00:00 PM 2.94 37.292 0.118 6.97 2.61 13.59
3/10/2021 11:15:00 PM 2.94 37.292 0.118 6.97 2.58 13.6
3/10/2021 11:30:00 PM 2.94 37.292 0.118 6.97 2.78 13.6
3/10/2021 11:45:00 PM 2.95 37.31 0.119 6.98 3.59 13.61
3/11/2021 12:00:00 AM 2.96 37.328 0.119 6.98 2.81 13.62
3/11/2021 12:15:00 AM 2.98 37.364 0.119 6.98 2.81 13.62
3/11/2021 12:30:00 AM 2.99 37.382 0.12 6.98 2.96 13.63
3/11/2021 12:45:00 AM 3 37.4 0.12 6.98 3.08 13.63
3/11/2021 1:00:00 AM 3.02 37.436 0.12 6.98 3.13 13.64
3/11/2021 1:15:00 AM 3.04 37.472 0.12 6.98 3.45 13.64
3/11/2021 1:30:00 AM 3.09 37.562 0.12 6.99 3.4 13.64
3/11/2021 1:45:00 AM 3.14 37.652 0.12 6.98 3.91 13.63
3/11/2021 2:00:00 AM 3.2 37.76 0.119 6.99 3.73 13.62
3/11/2021 2:15:00 AM 3.27 37.886 0.119 6.99 3.49 13.61
3/11/2021 2:30:00 AM 3.34 38.012 0.119 7 3.86 13.6
3/11/2021 2:45:00 AM 3.4 38.12 0.119 7 3.68 13.59
3/11/2021 3:00:00 AM 3.46 38.228 0.119 7 3.82 13.58
3/11/2021 3:15:00 AM 3.49 38.282 0.119 7 3.77 13.57
3/11/2021 3:30:00 AM 3.52 38.336 0.118 7 3.89 13.57
3/11/2021 3:45:00 AM 3.53 38.354 0.118 7 4.06 13.58
3/11/2021 4:00:00 AM 3.55 38.39 0.118 7 3.73 13.58
3/11/2021 4:15:00 AM 3.58 38.444 0.118 7 3.92 13.57
3/11/2021 4:30:00 AM 3.63 38.534 0.118 7 3.73 13.56
3/11/2021 4:45:00 AM 3.67 38.606 0.118 7.01 3.72 13.54
3/11/2021 5:00:00 AM 3.71 38.678 0.117 7.01 3.7 13.52
3/11/2021 5:15:00 AM 3.75 38.75 0.117 7.01 3.79 13.51
3/11/2021 5:30:00 AM 3.8 38.84 0.117 7.01 3.54 13.5
3/11/2021 5:45:00 AM 3.84 38.912 0.116 7.01 3.48 13.48
3/11/2021 6:00:00 AM 3.89 39.002 0.116 7.02 3.66 13.47
3/11/2021 6:15:00 AM 3.93 39.074 0.116 7.01 3.52 13.44
3/11/2021 6:30:00 AM 3.98 39.164 0.116 7.01 4.25 13.43
3/11/2021 6:45:00 AM 4.03 39.254 0.116 7.01 3.95 13.4
3/11/2021 7:00:00 AM 4.07 39.326 0.117 7.01 4.24 13.38
3/11/2021 7:15:00 AM 4.11 39.398 0.116 7.01 4.38 13.38
3/11/2021 7:30:00 AM 4.13 39.434 0.116 7 4.64 13.37
3/11/2021 7:45:00 AM 4.13 39.434 0.116 7.01 4.74 13.37
3/11/2021 8:00:00 AM 4.14 39.452 0.116 7.01 4.62 13.37
3/11/2021 8:15:00 AM 4.16 39.488 0.116 7.01 4.68 13.38
3/11/2021 8:30:00 AM 4.2 39.56 0.116 7.02 4.78 13.39
3/11/2021 8:45:00 AM 4.23 39.614 0.115 6.99 4.26 13.4
3/11/2021 9:00:00 AM 4.24 39.632 0.116 7.03 4.74 13.42
3/11/2021 9:15:00 AM 4.26 39.668 0.115 7.03 5.03 13.43
3/11/2021 9:30:00 AM 4.29 39.722 0.115 7.04 4.83 13.45
3/11/2021 9:45:00 AM 4.32 39.776 0.115 7.04 5.48 13.47
3/11/2021 10:00:00 AM 4.31 39.758 0.115 7.04 5.84 13.49
3/11/2021 10:15:00 AM 4.32 39.776 0.115 7.05 6.29 13.5
3/11/2021 10:30:00 AM 4.34 39.812 0.114 7.05 5.33 13.48
3/11/2021 10:45:00 AM 4.31 39.758 0.114 7.05 5.74 13.48
3/11/2021 11:00:00 AM 4.23 39.614 0.113 7.04 5.98 13.49
3/11/2021 11:15:00 AM 4.19 39.542 0.113 7.04 5.99 13.49
3/11/2021 11:30:00 AM 4.18 39.524 0.113 7.04 6.23 13.49
3/11/2021 11:45:00 AM 4.16 39.488 0.113 7.04 6 13.5
3/11/2021 12:00:00 PM 4.14 39.452 0.112 7.04 6.38 13.52
3/11/2021 12:15:00 PM 4.12 39.416 0.112 7.04 7.09 13.55
3/11/2021 12:30:00 PM 4.09 39.362 0.112 7.04 6.75 13.55
3/11/2021 12:45:00 PM 4.06 39.308 0.112 7.04 6.99 13.55
3/11/2021 1:00:00 PM 4.05 39.29 0.111 7.04 6.62 13.55
3/11/2021 1:15:00 PM 4.05 39.29 0.111 7.03 6.93 13.55
3/11/2021 1:30:00 PM 4.07 39.326 0.111 7.03 6.93 13.54
3/11/2021 1:45:00 PM 4.1 39.38 0.111 7.04 7.01 13.54
3/11/2021 2:00:00 PM 4.1 39.38 0.111 7.03 6.65 13.54
3/11/2021 2:15:00 PM 4.11 39.398 0.11 7.03 6.97 13.53
3/11/2021 2:30:00 PM 4.11 39.398 0.11 7.03 7.24 13.53
3/11/2021 2:45:00 PM 4.09 39.362 0.11 7.03 6.56 13.52
3/11/2021 3:00:00 PM 4.08 39.344 0.11 7.03 6.53 13.52
3/11/2021 3:15:00 PM 4.04 39.272 0.109 7.02 5.99 13.52
3/11/2021 3:30:00 PM 4 39.2 0.109 7.02 6.54 13.51
3/11/2021 3:45:00 PM 3.97 39.146 0.109 7.02 6.47 13.51
3/11/2021 4:00:00 PM 3.94 39.092 0.108 7.01 7.71 13.51
3/11/2021 4:15:00 PM 3.91 39.038 0.108 7.02 7.98 13.53
3/11/2021 4:30:00 PM 3.86 38.948 0.107 7.02 8.42 13.54
3/11/2021 4:45:00 PM 3.84 38.912 0.107 7.02 7.84 13.55
3/11/2021 5:00:00 PM 3.82 38.876 0.107 7.01 7.47 13.56
3/11/2021 5:15:00 PM 3.79 38.822 0.106 7.01 6.86 13.55
3/11/2021 5:30:00 PM 3.77 38.786 0.106 7.01 6.99 13.55
3/11/2021 5:45:00 PM 3.77 38.786 0.105 7 7.59 13.54
3/11/2021 6:00:00 PM 3.77 38.786 0.105 7 6.92 13.54
3/11/2021 6:15:00 PM 3.75 38.75 0.105 7 7.56 13.53
3/11/2021 6:30:00 PM 3.74 38.732 0.105 7.01 8.61 13.52
3/11/2021 6:45:00 PM 3.72 38.696 0.104 6.99 7.65 13.52
3/11/2021 7:00:00 PM 3.7 38.66 0.103 6.99 8.63 13.52
3/11/2021 7:15:00 PM 3.7 38.66 0.103 6.99 7.64 13.51
3/11/2021 7:30:00 PM 3.7 38.66 0.103 6.99 7.61 13.51
3/11/2021 7:45:00 PM 3.71 38.678 0.102 6.99 7.81 13.51
3/11/2021 8:00:00 PM 3.73 38.714 0.102 6.99 8.84 13.51
3/11/2021 8:15:00 PM 3.75 38.75 0.102 6.98 8.73 13.5
3/11/2021 8:30:00 PM 3.8 38.84 0.101 6.99 9.1 13.49
3/11/2021 8:45:00 PM 3.85 38.93 0.101 6.98 9.51 13.49
3/11/2021 9:00:00 PM 3.88 38.984 0.1 6.99 9.89 13.49
3/11/2021 9:15:00 PM 3.9 39.02 0.101 6.98 13.31 13.49
3/11/2021 9:30:00 PM 3.95 39.11 0.1 6.97 10.11 13.48
3/11/2021 9:45:00 PM 4 39.2 0.1 6.99 10.09 13.48
3/11/2021 10:00:00 PM 4.05 39.29 0.1 6.97 10.35 13.46
3/11/2021 10:15:00 PM 4.13 39.434 0.099 6.98 10.43 13.44
3/11/2021 10:30:00 PM 4.21 39.578 0.098 7 11.65 13.42
3/11/2021 10:45:00 PM 4.28 39.704 0.098 6.98 11.76 13.39
3/11/2021 11:00:00 PM 4.35 39.83 0.097 6.98 12.62 13.37
3/11/2021 11:15:00 PM 4.39 39.902 0.097 6.96 15.2 13.36
3/11/2021 11:30:00 PM 4.43 39.974 0.096 6.96 15.04 13.33
3/11/2021 11:45:00 PM 4.45 40.01 0.095 6.96 19.91 13.3
3/12/2021 12:00:00 AM 4.5 40.1 0.095 6.96 16.17 13.28
3/12/2021 12:15:00 AM 4.52 40.136 0.094 6.95 17.99 13.27
3/12/2021 12:30:00 AM 4.52 40.136 0.093 6.94 19.05 13.27
3/12/2021 12:45:00 AM 4.51 40.118 0.093 6.93 18.67 13.27
3/12/2021 1:00:00 AM 4.49 40.082 0.092 6.89 21.37 13.28
3/12/2021 1:15:00 AM 4.45 40.01 0.091 6.95 22.49 13.3
3/12/2021 1:30:00 AM 4.41 39.938 0.09 6.94 21.52 13.36
3/12/2021 1:45:00 AM 4.35 39.83 0.092 6.95 20.9 13.43
3/12/2021 2:00:00 AM 4.32 39.776 0.092 6.92 20.39 13.46
3/12/2021 2:15:00 AM 4.29 39.722 0.091 6.93 20.52 13.49
3/12/2021 2:30:00 AM 4.26 39.668 0.089 6.87 16.25 13.49
3/12/2021 2:45:00 AM 4.24 39.632 0.088 6.92 20.9 13.5
3/12/2021 3:00:00 AM 4.22 39.596 0.087 6.91 23.8 13.52
3/12/2021 3:15:00 AM 4.19 39.542 0.086 6.92 27.91 13.53
3/12/2021 3:30:00 AM 4.16 39.488 0.085 6.92 23.16 13.54
3/12/2021 3:45:00 AM 4.14 39.452 0.085 6.9 23.87 13.55
3/12/2021 4:00:00 AM 4.12 39.416 0.084 6.91 25.72 13.54
3/12/2021 4:15:00 AM 4.1 39.38 0.084 6.9 23.6 13.54
3/12/2021 4:30:00 AM 4.09 39.362 0.083 6.91 22.96 13.55
3/12/2021 4:45:00 AM 4.07 39.326 0.083 6.91 23.81 13.55
3/12/2021 5:00:00 AM 4.06 39.308 0.082 6.91 20.69 13.56
3/12/2021 5:15:00 AM 4.05 39.29 0.083 6.9 21.53 13.55
3/12/2021 5:30:00 AM 4.04 39.272 0.083 6.9 22.44 13.56
3/12/2021 5:45:00 AM 4.01 39.218 0.082 6.9 22.62 13.57
3/12/2021 6:00:00 AM 3.98 39.164 0.081 6.9 21.57 13.57
3/12/2021 6:15:00 AM 3.96 39.128 0.081 6.87 21.34 13.57
3/12/2021 6:30:00 AM 3.95 39.11 0.081 6.88 22.9 13.57
3/12/2021 6:45:00 AM 3.94 39.092 0.081 6.87 23.33 13.58
3/12/2021 7:00:00 AM 3.93 39.074 0.08 6.88 20.84 13.58
3/12/2021 7:15:00 AM 3.93 39.074 0.08 6.89 19.49 13.58
3/12/2021 7:30:00 AM 3.92 39.056 0.08 6.87 19.33 13.58
3/12/2021 7:45:00 AM 3.9 39.02 0.08 6.88 19.58 13.58
3/12/2021 8:00:00 AM 3.89 39.002 0.08 6.85 19.87 13.59
3/12/2021 8:15:00 AM 3.89 39.002 0.079 6.86 21.5 13.6
3/12/2021 8:30:00 AM 3.9 39.02 0.078 6.85 19.32 13.6
3/12/2021 8:45:00 AM 3.9 39.02 0.078 6.85 19.64 13.6
3/12/2021 9:00:00 AM 3.9 39.02 0.077 6.85 19.53 13.61
3/12/2021 9:15:00 AM 3.92 39.056 0.077 6.86 19.54 13.62
3/12/2021 9:30:00 AM 3.95 39.11 0.076 6.86 19.35 13.61
3/12/2021 9:45:00 AM 3.99 39.182 0.076 6.85 18.73 13.61
3/12/2021 10:00:00 AM 4.02 39.236 0.076 6.87 20.18 13.61
3/12/2021 10:15:00 AM 4.08 39.344 0.077 6.87 19.1 13.6
3/12/2021 10:30:00 AM 4.15 39.47 0.079 6.88 18.65 13.59
3/12/2021 10:45:00 AM 4.22 39.596 0.08 6.89 18.32 13.57
3/12/2021 11:00:00 AM 4.26 39.668 0.079 6.9 17.77 13.57
3/12/2021 11:15:00 AM 4.28 39.704 0.077 6.89 18.97 13.58
3/12/2021 11:30:00 AM 4.31 39.758 0.076 6.89 18.94 13.59
3/12/2021 11:45:00 AM 4.35 39.83 0.076 6.89 18.28 13.58
3/12/2021 12:00:00 PM 4.42 39.956 0.077 6.89 19.03 13.57
3/12/2021 12:15:00 PM 4.46 40.028 0.076 6.89 17.57 13.57
3/12/2021 12:30:00 PM 4.49 40.082 0.075 6.88 18.13 13.57
3/12/2021 12:45:00 PM 4.51 40.118 0.075 6.87 17.39 13.57
3/12/2021 1:00:00 PM 4.55 40.19 0.076 6.88 16.82 13.55
3/12/2021 1:15:00 PM 4.58 40.244 0.077 6.9 16.61 13.54
3/12/2021 1:30:00 PM 4.6 40.28 0.076 6.88 16.45 13.54
3/12/2021 1:45:00 PM 4.63 40.334 0.074 6.89 16.25 13.54
3/12/2021 2:00:00 PM 4.65 40.37 0.074 6.89 17.91 13.52
3/12/2021 2:15:00 PM 4.67 40.406 0.073 6.86 16.08 13.51
3/12/2021 2:30:00 PM 4.7 40.46 0.072 6.87 16.07 13.49
3/12/2021 2:45:00 PM 4.73 40.514 0.072 6.87 15.01 13.47
3/12/2021 3:00:00 PM 4.72 40.496 0.072 6.86 15.36 13.46
3/12/2021 3:15:00 PM 4.69 40.442 0.072 6.84 14.83 13.45
3/12/2021 3:30:00 PM 4.7 40.46 0.071 6.85 15.51 13.43
3/12/2021 3:45:00 PM 4.71 40.478 0.071 6.86 14.23 13.41
3/12/2021 4:00:00 PM 4.73 40.514 0.07 6.8 14.55 13.39
3/12/2021 4:15:00 PM 4.74 40.532 0.07 6.86 14.56 13.37
3/12/2021 4:30:00 PM 4.73 40.514 0.071 6.84 13.69 13.36
3/12/2021 4:45:00 PM 4.71 40.478 0.071 6.84 13.39 13.35
3/12/2021 5:00:00 PM 4.73 40.514 0.071 6.84 13.6 13.34
3/12/2021 5:15:00 PM 4.75 40.55 0.07 6.85 13.32 13.32
3/12/2021 5:30:00 PM 4.78 40.604 0.07 6.85 12.77 13.3
3/12/2021 5:45:00 PM 4.82 40.676 0.07 6.84 13.02 13.29
3/12/2021 6:00:00 PM 4.88 40.784 0.069 6.83 12.46 13.26
3/12/2021 6:15:00 PM 4.96 40.928 0.069 6.83 11.82 13.23
3/12/2021 6:30:00 PM 5.04 41.072 0.068 6.83 11.95 13.2
3/12/2021 6:45:00 PM 5.12 41.216 0.068 6.84 13.21 13.17
3/12/2021 7:00:00 PM 5.12 41.216 0.068 6.83 12.22 13.17
3/12/2021 7:15:00 PM 5.09 41.162 0.068 6.83 12.7 13.17
3/12/2021 7:30:00 PM 5.12 41.216 0.068 6.82 12.48 13.17
3/12/2021 7:45:00 PM 5.17 41.306 0.068 6.82 12.24 13.15
3/12/2021 8:00:00 PM 5.18 41.324 0.068 6.81 12.07 13.15
3/12/2021 8:15:00 PM 5.19 41.342 0.068 6.81 11.81 13.15
3/12/2021 8:30:00 PM 5.24 41.432 0.068 6.81 12.73 13.14
3/12/2021 8:45:00 PM 5.31 41.558 0.067 6.81 12.42 13.12
3/12/2021 9:00:00 PM 5.34 41.612 0.067 6.8 12.24 13.12
3/12/2021 9:15:00 PM 5.26 41.468 0.067 6.8 11.94 13.14
3/12/2021 9:30:00 PM 5.22 41.396 0.068 6.81 12.09 13.15
3/12/2021 9:45:00 PM 5.25 41.45 0.067 6.81 11.98 13.14
3/12/2021 10:00:00 PM 5.27 41.486 0.067 6.8 12.31 13.13
3/12/2021 10:15:00 PM 5.27 41.486 0.067 6.79 12.15 13.13
3/12/2021 10:30:00 PM 5.27 41.486 0.067 6.8 11.72 13.13
3/12/2021 10:45:00 PM 5.26 41.468 0.066 6.8 11.98 13.12
3/12/2021 11:00:00 PM 5.28 41.504 0.066 6.8 11.85 13.11
3/12/2021 11:15:00 PM 5.29 41.522 0.066 6.8 11.7 13.11
3/12/2021 11:30:00 PM 5.28 41.504 0.066 6.78 11.56 13.11
3/12/2021 11:45:00 PM 5.27 41.486 0.066 6.79 11.65 13.1
3/13/2021 12:00:00 AM 5.28 41.504 0.065 6.78 11.64 13.09
3/13/2021 12:15:00 AM 5.28 41.504 0.065 6.78 11.58 13.08
3/13/2021 12:30:00 AM 5.27 41.486 0.065 6.78 11.45 13.08
3/13/2021 12:45:00 AM 5.28 41.504 0.064 6.77 11.38 13.07
3/13/2021 1:00:00 AM 5.29 41.522 0.064 6.78 11.73 13.07
3/13/2021 1:15:00 AM 5.28 41.504 0.064 6.77 11.6 13.08
3/13/2021 1:30:00 AM 5.25 41.45 0.064 6.76 11.46 13.09
3/13/2021 1:45:00 AM 5.22 41.396 0.064 6.76 11.37 13.09
3/13/2021 2:00:00 AM 5.21 41.378 0.064 6.76 11.34 13.1
3/13/2021 2:15:00 AM 5.19 41.342 0.063 6.76 11.8 13.11
3/13/2021 2:30:00 AM 5.14 41.252 0.064 6.76 11.01 13.12
3/13/2021 2:45:00 AM 5.1 41.18 0.063 6.76 11.91 13.13
3/13/2021 3:00:00 AM 5.08 41.144 0.063 6.76 11.45 13.14
3/13/2021 3:15:00 AM 5.04 41.072 0.063 6.75 11.77 13.15
3/13/2021 3:30:00 AM 4.96 40.928 0.063 6.74 11.51 13.18
3/13/2021 3:45:00 AM 4.88 40.784 0.063 6.74 11.31 13.21
3/13/2021 4:00:00 AM 4.85 40.73 0.063 6.75 11.3 13.21
3/13/2021 4:15:00 AM 4.85 40.73 0.063 6.76 11.08 13.22
3/13/2021 4:30:00 AM 4.81 40.658 0.062 6.76 11.5 13.23
3/13/2021 4:45:00 AM 4.75 40.55 0.062 6.75 11.6 13.26
3/13/2021 5:00:00 AM 4.68 40.424 0.062 6.72 11.56 13.28
3/13/2021 5:15:00 AM 4.66 40.388 0.062 6.76 11.14 13.28
3/13/2021 5:30:00 AM 4.66 40.388 0.062 6.76 11.01 13.29
3/13/2021 5:45:00 AM 4.61 40.298 0.062 6.75 10.96 13.31
3/13/2021 6:00:00 AM 4.55 40.19 0.062 6.75 11.15 13.34
3/13/2021 6:15:00 AM 4.47 40.046 0.061 6.74 10.89 13.38
3/13/2021 6:30:00 AM 4.41 39.938 0.061 6.74 10.84 13.4
3/13/2021 6:45:00 AM 4.37 39.866 0.061 6.75 10.85 13.43
3/13/2021 7:00:00 AM 4.39 39.902 0.061 6.75 10.63 13.42
3/13/2021 7:15:00 AM 4.41 39.938 0.061 6.75 10.41 13.42
3/13/2021 7:30:00 AM 4.37 39.866 0.061 6.76 10.58 13.44
3/13/2021 7:45:00 AM 4.31 39.758 0.061 6.75 10.37 13.47
3/13/2021 8:00:00 AM 4.27 39.686 0.061 6.74 10.23 13.49
3/13/2021 8:15:00 AM 4.25 39.65 0.061 6.76 10.06 13.5
3/13/2021 8:30:00 AM 4.22 39.596 0.061 6.75 10.21 13.52
3/13/2021 8:45:00 AM 4.16 39.488 0.061 6.75 9.96 13.55
3/13/2021 9:00:00 AM 4.12 39.416 0.061 6.75 10.01 13.57
3/13/2021 9:15:00 AM 4.11 39.398 0.061 6.75 9.99 13.59
3/13/2021 9:30:00 AM 4.11 39.398 0.061 6.76 9.27 13.6
3/13/2021 9:45:00 AM 4.1 39.38 0.061 6.76 9.52 13.61
3/13/2021 10:00:00 AM 4.09 39.362 0.061 6.76 9.41 13.63
3/13/2021 10:15:00 AM 4.07 39.326 0.061 6.75 9.27 13.66
3/13/2021 10:30:00 AM 4.09 39.362 0.061 6.75 8.95 13.66
3/13/2021 10:45:00 AM 4.14 39.452 0.061 6.76 9.22 13.65
3/13/2021 11:00:00 AM 4.17 39.506 0.061 6.77 8.8 13.65
3/13/2021 11:15:00 AM 4.19 39.542 0.061 6.77 8.65 13.66
3/13/2021 11:30:00 AM 4.19 39.542 0.06 6.76 8.56 13.68
3/13/2021 11:45:00 AM 4.18 39.524 0.06 6.73 8.39 13.69
3/13/2021 12:00:00 PM 4.17 39.506 0.06 6.76 8.12 13.71
3/13/2021 12:15:00 PM 4.19 39.542 0.06 6.77 7.95 13.71
3/13/2021 12:30:00 PM 4.21 39.578 0.06 6.77 7.79 13.71
3/13/2021 12:45:00 PM 4.23 39.614 0.06 6.77 8.24 13.72
3/13/2021 1:00:00 PM 4.24 39.632 0.06 6.76 7.72 13.72
3/13/2021 1:15:00 PM 4.27 39.686 0.06 6.77 7.68 13.72
3/13/2021 1:30:00 PM 4.36 39.848 0.06 6.78 8.02 13.68
3/13/2021 1:45:00 PM 4.46 40.028 0.06 6.79 8.02 13.64
3/13/2021 2:00:00 PM 4.49 40.082 0.06 6.78 7.88 13.63
3/13/2021 2:15:00 PM 4.45 40.01 0.06 6.78 7.55 13.64
3/13/2021 2:30:00 PM 4.4 39.92 0.06 6.76 7.49 13.66
3/13/2021 2:45:00 PM 4.35 39.83 0.06 6.76 7.49 13.67
3/13/2021 3:00:00 PM 4.31 39.758 0.06 6.76 7.58 13.67
3/13/2021 3:15:00 PM 4.29 39.722 0.06 6.77 6.94 13.66
3/13/2021 3:30:00 PM 4.26 39.668 0.06 6.76 6.97 13.66
3/13/2021 3:45:00 PM 4.22 39.596 0.06 6.76 6.9 13.65
3/13/2021 4:00:00 PM 4.23 39.614 0.06 6.76 7.02 13.64
3/13/2021 4:15:00 PM 4.24 39.632 0.06 6.76 6.83 13.63
3/13/2021 4:30:00 PM 4.24 39.632 0.06 6.75 6.94 13.61
3/13/2021 4:45:00 PM 4.25 39.65 0.06 6.76 7.18 13.59
3/13/2021 5:00:00 PM 4.26 39.668 0.06 6.75 7.12 13.58
3/13/2021 5:15:00 PM 4.3 39.74 0.06 6.76 6.91 13.57
3/13/2021 5:30:00 PM 4.33 39.794 0.06 6.76 6.89 13.55
3/13/2021 5:45:00 PM 4.34 39.812 0.06 6.75 6.66 13.55
3/13/2021 6:00:00 PM 4.35 39.83 0.06 6.75 6.73 13.54
3/13/2021 6:15:00 PM 4.39 39.902 0.06 6.75 6.65 13.52
3/13/2021 6:30:00 PM 4.43 39.974 0.06 6.74 6.85 13.5
3/13/2021 6:45:00 PM 4.4 39.92 0.06 6.73 6.62 13.5
3/13/2021 7:00:00 PM 4.37 39.866 0.06 6.74 6.8 13.5
3/13/2021 7:15:00 PM 4.39 39.902 0.06 6.74 6.56 13.5
3/13/2021 7:30:00 PM 4.45 40.01 0.06 6.73 6.28 13.48
3/13/2021 7:45:00 PM 4.53 40.154 0.06 6.76 6.4 13.45
3/13/2021 8:00:00 PM 4.61 40.298 0.06 6.76 6.07 13.42
3/13/2021 8:15:00 PM 4.69 40.442 0.06 6.77 6.31 13.4
3/13/2021 8:30:00 PM 4.76 40.568 0.06 6.74 6.06 13.37
3/13/2021 8:45:00 PM 4.77 40.586 0.06 6.76 6.17 13.37
3/13/2021 9:00:00 PM 4.76 40.568 0.06 6.76 5.79 13.37
3/13/2021 9:15:00 PM 4.76 40.568 0.06 6.76 5.93 13.36
3/13/2021 9:30:00 PM 4.76 40.568 0.06 6.75 5.75 13.35
3/13/2021 9:45:00 PM 4.76 40.568 0.06 6.75 6.21 13.34
3/13/2021 10:00:00 PM 4.73 40.514 0.06 6.74 5.84 13.34
3/13/2021 10:15:00 PM 4.71 40.478 0.06 6.74 6.13 13.32
3/13/2021 10:30:00 PM 4.72 40.496 0.06 6.75 6.16 13.29
3/13/2021 10:45:00 PM 4.72 40.496 0.06 6.75 5.77 13.25
3/13/2021 11:00:00 PM 4.73 40.514 0.06 6.75 5.85 13.23
3/13/2021 11:15:00 PM 4.72 40.496 0.06 6.75 5.8 13.21
3/13/2021 11:30:00 PM 4.71 40.478 0.06 6.74 5.87 13.21
3/13/2021 11:45:00 PM 4.67 40.406 0.06 6.73 5.85 13.22
3/14/2021 12:00:00 AM 4.64 40.352 0.06 6.74 5.78 13.22
3/14/2021 12:15:00 AM 4.62 40.316 0.061 6.74 5.63 13.23
3/14/2021 12:30:00 AM 4.59 40.262 0.06 6.74 5.54 13.24
3/14/2021 12:45:00 AM 4.55 40.19 0.06 6.74 5.89 13.25
3/14/2021 1:00:00 AM 4.51 40.118 0.06 6.73 5.62 13.26
3/14/2021 1:15:00 AM 4.47 40.046 0.06 6.7 5.61 13.27
3/14/2021 1:30:00 AM 4.45 40.01 0.06 6.72 5.57 13.27
3/14/2021 1:45:00 AM 4.42 39.956 0.06 6.73 5.56 13.28
3/14/2021 3:00:00 AM 4.28 39.704 0.061 6.74 5.4 13.3
3/14/2021 3:15:00 AM 4.23 39.614 0.061 6.74 5.41 13.32
3/14/2021 3:30:00 AM 4.17 39.506 0.061 6.74 5.23 13.33
3/14/2021 3:45:00 AM 4.13 39.434 0.061 6.73 5.58 13.34
3/14/2021 4:00:00 AM 4.09 39.362 0.061 6.74 5.38 13.34
3/14/2021 5:15:00 AM 4.07 39.326 0.061 6.72 5.28 13.35
3/14/2021 5:30:00 AM 4.07 39.326 0.061 6.72 5.32 13.34
3/14/2021 5:45:00 AM 4.05 39.29 0.061 6.74 5.13 13.35
3/14/2021 6:00:00 AM 4.02 39.236 0.061 6.73 5.31 13.36
3/14/2021 6:15:00 AM 4 39.2 0.061 6.73 5.27 13.36
3/14/2021 6:30:00 AM 3.99 39.182 0.061 6.72 5.24 13.36
3/14/2021 6:45:00 AM 4.01 39.218 0.061 6.74 5.32 13.36
3/14/2021 7:00:00 AM 4.05 39.29 0.061 6.74 5.28 13.36
3/14/2021 7:15:00 AM 4.04 39.272 0.061 6.74 5.32 13.36
3/14/2021 7:30:00 AM 3.99 39.182 0.061 6.73 5.26 13.36
3/14/2021 7:45:00 AM 3.93 39.074 0.061 6.71 5.14 13.38
3/14/2021 8:00:00 AM 3.86 38.948 0.061 6.72 5.06 13.41
3/14/2021 8:15:00 AM 3.78 38.804 0.061 6.72 5.12 13.45
3/14/2021 8:30:00 AM 3.74 38.732 0.061 6.72 5.11 13.47
3/14/2021 8:45:00 AM 3.74 38.732 0.061 6.73 5.15 13.48
3/14/2021 9:00:00 AM 3.73 38.714 0.062 6.74 4.91 13.5
3/14/2021 9:15:00 AM 3.7 38.66 0.061 6.73 4.83 13.52
3/14/2021 9:30:00 AM 3.67 38.606 0.062 6.74 4.95 13.54
3/14/2021 9:45:00 AM 3.66 38.588 0.062 6.74 4.81 13.56
3/14/2021 10:00:00 AM 3.67 38.606 0.062 6.75 4.96 13.57
3/14/2021 10:15:00 AM 3.72 38.696 0.062 6.76 4.9 13.59
3/14/2021 10:30:00 AM 3.76 38.768 0.061 6.77 5.04 13.59
3/14/2021 10:45:00 AM 3.78 38.804 0.062 6.69 4.81 13.6
3/14/2021 11:00:00 AM 3.8 38.84 0.062 6.77 4.9 13.61
3/14/2021 11:15:00 AM 3.84 38.912 0.062 6.77 4.88 13.62
3/14/2021 11:30:00 AM 3.88 38.984 0.062 6.78 4.82 13.63
3/14/2021 11:45:00 AM 3.92 39.056 0.062 6.78 4.64 13.64
3/14/2021 12:00:00 PM 3.97 39.146 0.062 6.76 4.88 13.64
3/14/2021 12:15:00 PM 4.02 39.236 0.062 6.79 4.84 13.63
3/14/2021 12:30:00 PM 4.11 39.398 0.062 6.79 4.78 13.61
3/14/2021 12:45:00 PM 4.22 39.596 0.062 6.8 4.63 13.6
3/14/2021 1:00:00 PM 4.29 39.722 0.062 6.78 4.74 13.57
3/14/2021 1:15:00 PM 4.41 39.938 0.062 6.8 4.72 13.56
3/14/2021 1:30:00 PM 4.5 40.1 0.062 6.81 4.78 13.55
3/14/2021 1:45:00 PM 4.57 40.226 0.062 6.79 4.76 13.54
3/14/2021 2:00:00 PM 4.61 40.298 0.062 6.8 4.71 13.52
3/14/2021 2:15:00 PM 4.58 40.244 0.062 6.78 5.06 13.5
3/14/2021 2:30:00 PM 4.57 40.226 0.062 6.78 4.82 13.49
3/14/2021 2:45:00 PM 4.6 40.28 0.062 6.78 5.01 13.5
3/14/2021 3:00:00 PM 4.65 40.37 0.062 6.81 4.83 13.51
3/14/2021 3:15:00 PM 4.73 40.514 0.062 6.81 4.89 13.49
3/14/2021 3:30:00 PM 4.76 40.568 0.062 6.8 5.23 13.48
3/14/2021 3:45:00 PM 4.75 40.55 0.062 6.78 4.96 13.46
3/14/2021 4:00:00 PM 4.7 40.46 0.062 6.8 5.13 13.46
3/14/2021 4:15:00 PM 4.62 40.316 0.062 6.79 4.96 13.45
3/14/2021 4:30:00 PM 4.57 40.226 0.062 6.79 5.16 13.44
3/14/2021 4:45:00 PM 4.49 40.082 0.062 6.78 4.98 13.44
3/14/2021 5:00:00 PM 4.47 40.046 0.062 6.79 5.15 13.46
3/14/2021 5:15:00 PM 4.44 39.992 0.062 6.78 4.94 13.47
3/14/2021 5:30:00 PM 4.4 39.92 0.062 6.79 5.01 13.47
3/14/2021 5:45:00 PM 4.37 39.866 0.062 6.79 5.11 13.47
3/14/2021 6:00:00 PM 4.35 39.83 0.062 6.78 4.97 13.44
3/14/2021 6:15:00 PM 4.34 39.812 0.062 6.71 5.03 13.41
3/14/2021 6:30:00 PM 4.33 39.794 0.062 6.79 5.24 13.39
3/14/2021 6:45:00 PM 4.29 39.722 0.062 6.78 5.18 13.38
3/14/2021 7:00:00 PM 4.24 39.632 0.062 6.77 5.11 13.38
3/14/2021 7:15:00 PM 4.22 39.596 0.062 6.77 5.35 13.37
3/14/2021 7:30:00 PM 4.24 39.632 0.062 6.78 5.56 13.35
3/14/2021 7:45:00 PM 4.28 39.704 0.063 6.77 5.4 13.33
3/14/2021 8:00:00 PM 4.33 39.794 0.063 6.78 5.21 13.31
3/14/2021 8:15:00 PM 4.41 39.938 0.063 6.79 5.14 13.28
3/14/2021 8:30:00 PM 4.48 40.064 0.062 6.79 4.94 13.26
3/14/2021 8:45:00 PM 4.52 40.136 0.063 6.78 5.17 13.24
3/14/2021 9:00:00 PM 4.55 40.19 0.063 6.78 4.99 13.23
3/14/2021 9:15:00 PM 4.58 40.244 0.063 6.79 4.8 13.22
3/14/2021 9:30:00 PM 4.6 40.28 0.063 6.78 4.81 13.22
3/14/2021 9:45:00 PM 4.63 40.334 0.063 6.79 4.91 13.21
3/14/2021 10:00:00 PM 4.67 40.406 0.064 6.79 4.6 13.2
3/14/2021 10:15:00 PM 4.71 40.478 0.064 6.79 4.77 13.18
3/14/2021 10:30:00 PM 4.73 40.514 0.064 6.78 4.59 13.18
3/14/2021 10:45:00 PM 4.74 40.532 0.064 6.8 4.41 13.17
3/14/2021 11:00:00 PM 4.74 40.532 0.064 6.79 4.59 13.17
3/14/2021 11:15:00 PM 4.74 40.532 0.064 6.78 4.57 13.17
3/14/2021 11:30:00 PM 4.73 40.514 0.064 6.78 4.42 13.17
3/14/2021 11:45:00 PM 4.71 40.478 0.064 6.77 4.42 13.18
3/15/2021 12:00:00 AM 4.7 40.46 0.064 6.79 4.36 13.18
3/15/2021 12:15:00 AM 4.71 40.478 0.064 6.8 4.71 13.18
3/15/2021 12:30:00 AM 4.71 40.478 0.064 6.79 4.71 13.18
3/15/2021 12:45:00 AM 4.7 40.46 0.064 6.77 4.48 13.18
3/15/2021 1:00:00 AM 4.69 40.442 0.064 6.79 4.51 13.18
3/15/2021 1:15:00 AM 4.67 40.406 0.064 6.78 4.6 13.19
3/15/2021 1:30:00 AM 4.62 40.316 0.064 6.78 4.47 13.2
3/15/2021 1:45:00 AM 4.58 40.244 0.064 6.78 4.41 13.21
3/15/2021 2:00:00 AM 4.53 40.154 0.064 6.78 4.44 13.23
3/15/2021 2:15:00 AM 4.49 40.082 0.064 6.77 4.45 13.24
3/15/2021 2:30:00 AM 4.47 40.046 0.064 6.78 4.41 13.25
3/15/2021 2:45:00 AM 4.44 39.992 0.064 6.77 4.36 13.26
3/15/2021 3:00:00 AM 4.4 39.92 0.064 6.77 4.38 13.27
3/15/2021 3:15:00 AM 4.35 39.83 0.064 6.77 4.4 13.29
3/15/2021 3:30:00 AM 4.3 39.74 0.065 6.78 4.39 13.3
3/15/2021 3:45:00 AM 4.25 39.65 0.065 6.77 4.31 13.32
3/15/2021 4:00:00 AM 4.21 39.578 0.065 6.77 4.36 13.33
3/15/2021 4:15:00 AM 4.19 39.542 0.065 6.78 4.33 13.33
3/15/2021 4:30:00 AM 4.16 39.488 0.065 6.77 4.32 13.34
3/15/2021 4:45:00 AM 4.1 39.38 0.065 6.76 4.34 13.36
3/15/2021 5:00:00 AM 4 39.2 0.065 6.76 4.31 13.39
3/15/2021 5:15:00 AM 3.91 39.038 0.065 6.75 4.34 13.42
3/15/2021 5:30:00 AM 3.82 38.876 0.065 6.76 4.2 13.45
3/15/2021 5:45:00 AM 3.77 38.786 0.065 6.75 4.22 13.47
3/15/2021 6:00:00 AM 3.75 38.75 0.065 6.77 4.32 13.47
3/15/2021 6:15:00 AM 3.74 38.732 0.065 6.74 4.23 13.47
3/15/2021 6:30:00 AM 3.72 38.696 0.065 6.77 4.22 13.48
3/15/2021 6:45:00 AM 3.66 38.588 0.066 6.76 4.18 13.5
3/15/2021 7:00:00 AM 3.59 38.462 0.066 6.77 4.14 13.53
3/15/2021 7:15:00 AM 3.5 38.3 0.066 6.75 4.1 13.57
3/15/2021 7:30:00 AM 3.42 38.156 0.066 6.76 4.23 13.6
3/15/2021 7:45:00 AM 3.32 37.976 0.066 6.75 4.13 13.65
3/15/2021 8:00:00 AM 3.25 37.85 0.066 6.73 4.08 13.68
3/15/2021 8:15:00 AM 3.19 37.742 0.066 6.77 4.03 13.71
3/15/2021 8:30:00 AM 3.13 37.634 0.066 6.77 3.94 13.75
3/15/2021 8:45:00 AM 3.07 37.526 0.066 6.77 4.1 13.78
3/15/2021 9:00:00 AM 3.02 37.436 0.066 6.78 3.89 13.81
3/15/2021 9:15:00 AM 2.99 37.382 0.067 6.78 4 13.84
3/15/2021 9:30:00 AM 2.97 37.346 0.067 6.79 4.18 13.87
3/15/2021 9:45:00 AM 2.94 37.292 0.066 6.8 3.92 13.89
3/15/2021 10:00:00 AM 2.93 37.274 0.067 6.79 3.98 13.91
3/15/2021 10:15:00 AM 2.95 37.31 0.066 6.78 4 13.92
3/15/2021 10:30:00 AM 2.99 37.382 0.067 6.82 3.98 13.93
3/15/2021 10:45:00 AM 3.03 37.454 0.066 6.81 3.99 13.94
3/15/2021 11:00:00 AM 3.08 37.544 0.066 6.82 4.02 13.94
3/15/2021 11:15:00 AM 3.13 37.634 0.066 6.82 3.83 13.94
3/15/2021 11:30:00 AM 3.18 37.724 0.066 6.82 3.96 13.95
3/15/2021 11:45:00 AM 3.23 37.814 0.066 6.82 3.98 13.96
3/15/2021 12:00:00 PM 3.29 37.922 0.066 6.83 3.76 13.96
3/15/2021 12:15:00 PM 3.37 38.066 0.067 6.79 3.83 13.96
3/15/2021 12:30:00 PM 3.45 38.21 0.067 6.83 3.68 13.95
3/15/2021 12:45:00 PM 3.54 38.372 0.067 6.84 3.85 13.94
3/15/2021 1:00:00 PM 3.64 38.552 0.066 6.83 3.77 13.92
3/15/2021 1:15:00 PM 3.74 38.732 0.066 6.85 3.89 13.89
3/15/2021 1:30:00 PM 3.84 38.912 0.066 6.84 3.96 13.88
3/15/2021 1:45:00 PM 3.94 39.092 0.067 6.84 3.93 13.86
3/15/2021 2:00:00 PM 4 39.2 0.067 6.85 3.8 13.84
3/15/2021 2:15:00 PM 4.05 39.29 0.066 6.85 3.73 13.83
3/15/2021 2:30:00 PM 4.11 39.398 0.067 6.84 3.82 13.82
3/15/2021 2:45:00 PM 4.12 39.416 0.066 6.7 3.82 13.81
3/15/2021 3:00:00 PM 4.09 39.362 0.067 6.84 3.88 13.82
3/15/2021 3:15:00 PM 4.07 39.326 0.067 6.83 3.94 13.82
3/15/2021 3:30:00 PM 4.02 39.236 0.066 6.82 3.67 13.82
3/15/2021 3:45:00 PM 3.94 39.092 0.067 6.8 4.22 13.82
3/15/2021 4:00:00 PM 3.85 38.93 0.067 6.82 3.72 13.83
3/15/2021 4:15:00 PM 3.77 38.786 0.067 6.82 3.79 13.83
3/15/2021 4:30:00 PM 3.66 38.588 0.067 6.81 3.71 13.84
3/15/2021 4:45:00 PM 3.54 38.372 0.067 6.82 3.71 13.86
3/15/2021 5:00:00 PM 3.47 38.246 0.067 6.8 3.71 13.86
3/15/2021 5:15:00 PM 3.42 38.156 0.067 6.81 3.75 13.86
3/15/2021 5:30:00 PM 3.37 38.066 0.067 6.81 3.64 13.86
3/15/2021 5:45:00 PM 3.32 37.976 0.067 6.82 3.74 13.86
3/15/2021 6:00:00 PM 3.27 37.886 0.067 6.8 3.68 13.86
3/15/2021 6:15:00 PM 3.22 37.796 0.067 6.8 3.62 13.86
3/15/2021 6:30:00 PM 3.18 37.724 0.067 6.81 3.55 13.86
3/15/2021 6:45:00 PM 3.16 37.688 0.068 6.81 3.76 13.86
3/15/2021 7:00:00 PM 3.14 37.652 0.068 6.81 3.45 13.84
3/15/2021 7:15:00 PM 3.13 37.634 0.068 6.81 3.57 13.82
3/15/2021 7:30:00 PM 3.13 37.634 0.068 6.81 3.43 13.81
3/15/2021 7:45:00 PM 3.11 37.598 0.068 6.8 3.38 13.79
3/15/2021 8:00:00 PM 3.08 37.544 0.068 6.8 3.6 13.79
3/15/2021 8:15:00 PM 3.04 37.472 0.068 6.8 3.55 13.78
3/15/2021 8:30:00 PM 3.01 37.418 0.068 6.78 3.72 13.78
3/15/2021 8:45:00 PM 2.98 37.364 0.068 6.79 3.44 13.78
3/15/2021 9:00:00 PM 3.01 37.418 0.068 6.79 3.47 13.76
3/15/2021 9:15:00 PM 3.1 37.58 0.068 6.8 3.48 13.72
3/15/2021 9:30:00 PM 3.22 37.796 0.068 6.81 3.32 13.67
3/15/2021 9:45:00 PM 3.35 38.03 0.069 6.82 3.46 13.63
3/15/2021 10:00:00 PM 3.45 38.21 0.069 6.82 3.4 13.59
3/15/2021 10:15:00 PM 3.52 38.336 0.069 6.82 3.28 13.57
3/15/2021 10:30:00 PM 3.58 38.444 0.069 6.81 3.27 13.55
3/15/2021 10:45:00 PM 3.62 38.516 0.069 6.76 3.36 13.53
3/15/2021 11:00:00 PM 3.68 38.624 0.069 6.82 3.29 13.51
3/15/2021 11:15:00 PM 3.73 38.714 0.069 6.81 3.24 13.49
3/15/2021 11:30:00 PM 3.76 38.768 0.069 6.81 3.24 13.48
3/15/2021 11:45:00 PM 3.77 38.786 0.069 6.81 3.36 13.48
3/16/2021 12:00:00 AM 3.77 38.786 0.069 6.81 3.26 13.48
3/16/2021 12:15:00 AM 3.76 38.768 0.069 6.8 3.29 13.49
3/16/2021 12:30:00 AM 3.75 38.75 0.069 6.8 3.21 13.48
3/16/2021 12:45:00 AM 3.75 38.75 0.069 6.81 3.28 13.48
3/16/2021 1:00:00 AM 3.75 38.75 0.069 6.75 3.3 13.48
3/16/2021 1:15:00 AM 3.73 38.714 0.069 6.81 3.19 13.48
3/16/2021 1:30:00 AM 3.73 38.714 0.069 6.81 3.16 13.48
3/16/2021 1:45:00 AM 3.72 38.696 0.069 6.8 3.21 13.48
3/16/2021 2:00:00 AM 3.71 38.678 0.07 6.8 3.27 13.48
3/16/2021 2:15:00 AM 3.69 38.642 0.07 6.8 3.2 13.49
3/16/2021 2:30:00 AM 3.68 38.624 0.069 6.8 3.23 13.49
3/16/2021 2:45:00 AM 3.67 38.606 0.069 6.81 3.32 13.49
3/16/2021 3:00:00 AM 3.67 38.606 0.069 6.8 3.22 13.49
3/16/2021 3:15:00 AM 3.65 38.57 0.07 6.8 3.2 13.49
3/16/2021 3:30:00 AM 3.64 38.552 0.07 6.8 3.2 13.49
3/16/2021 3:45:00 AM 3.63 38.534 0.07 6.81 3.26 13.49
3/16/2021 4:00:00 AM 3.61 38.498 0.07 6.8 3.29 13.49
3/16/2021 4:15:00 AM 3.58 38.444 0.07 6.78 3.21 13.5
3/16/2021 4:30:00 AM 3.56 38.408 0.07 6.81 3.11 13.5
3/16/2021 4:45:00 AM 3.54 38.372 0.07 6.81 3.29 13.5
3/16/2021 5:00:00 AM 3.52 38.336 0.07 6.8 3.2 13.51
3/16/2021 5:15:00 AM 3.51 38.318 0.07 6.79 3.3 13.51
3/16/2021 5:30:00 AM 3.5 38.3 0.07 6.8 3.2 13.51
3/16/2021 5:45:00 AM 3.5 38.3 0.07 6.8 3.24 13.51
3/16/2021 6:00:00 AM 3.5 38.3 0.07 6.8 3.42 13.51
3/16/2021 6:15:00 AM 3.48 38.264 0.07 6.8 3.16 13.51
3/16/2021 6:30:00 AM 3.47 38.246 0.07 6.81 3.28 13.52
3/16/2021 6:45:00 AM 3.44 38.192 0.07 6.79 3.27 13.53
3/16/2021 7:00:00 AM 3.4 38.12 0.071 6.8 3.32 13.54
3/16/2021 7:15:00 AM 3.37 38.066 0.071 6.78 3.15 13.55
3/16/2021 7:30:00 AM 3.34 38.012 0.071 6.79 3.11 13.56
3/16/2021 7:45:00 AM 3.29 37.922 0.071 6.73 3.04 13.57
3/16/2021 8:00:00 AM 3.22 37.796 0.071 6.78 3.13 13.58
3/16/2021 8:15:00 AM 3.17 37.706 0.071 6.8 3.08 13.6
3/16/2021 8:30:00 AM 3.15 37.67 0.071 6.8 3.1 13.62
3/16/2021 8:45:00 AM 3.11 37.598 0.071 6.81 3.31 13.63
3/16/2021 9:00:00 AM 3.1 37.58 0.071 6.81 3.11 13.64
3/16/2021 9:15:00 AM 3.09 37.562 0.071 6.81 3.17 13.65
3/16/2021 9:30:00 AM 3.08 37.544 0.071 6.82 3.08 13.66
3/16/2021 9:45:00 AM 3.1 37.58 0.071 6.82 3.12 13.67
3/16/2021 10:00:00 AM 3.12 37.616 0.071 6.82 3.12 13.68
3/16/2021 10:15:00 AM 3.13 37.634 0.071 6.82 3.12 13.71
3/16/2021 10:30:00 AM 3.14 37.652 0.071 6.84 3.18 13.73
3/16/2021 10:45:00 AM 3.14 37.652 0.071 6.8 3.06 13.74
3/16/2021 11:00:00 AM 3.13 37.634 0.071 6.84 3.03 13.76
3/16/2021 11:15:00 AM 3.12 37.616 0.072 6.84 2.96 13.78
3/16/2021 11:30:00 AM 3.11 37.598 0.072 6.81 3.08 13.8
3/16/2021 11:45:00 AM 3.1 37.58 0.072 6.85 2.99 13.83
3/16/2021 12:00:00 PM 3.1 37.58 0.072 6.84 2.96 13.83
3/16/2021 12:15:00 PM 3.12 37.616 0.072 6.84 2.98 13.84
3/16/2021 12:30:00 PM 3.15 37.67 0.072 6.86 3.14 13.84
3/16/2021 12:45:00 PM 3.18 37.724 0.072 6.86 2.93 13.84
3/16/2021 1:00:00 PM 3.21 37.778 0.072 6.87 3.08 13.84
3/16/2021 1:15:00 PM 3.24 37.832 0.072 6.87 3.1 13.84
3/16/2021 1:30:00 PM 3.27 37.886 0.072 6.87 3.01 13.84
3/16/2021 1:45:00 PM 3.29 37.922 0.072 6.86 3.07 13.83
3/16/2021 2:00:00 PM 3.28 37.904 0.072 6.84 2.93 13.83
3/16/2021 2:15:00 PM 3.28 37.904 0.072 6.88 2.92 13.83
3/16/2021 2:30:00 PM 3.28 37.904 0.072 6.87 3 13.82
3/16/2021 2:45:00 PM 3.27 37.886 0.072 6.87 3.07 13.82
3/16/2021 3:00:00 PM 3.26 37.868 0.072 6.87 3.05 13.82
3/16/2021 3:15:00 PM 3.24 37.832 0.072 6.85 2.91 13.81
3/16/2021 3:30:00 PM 3.24 37.832 0.072 6.87 2.94 13.81
3/16/2021 3:45:00 PM 3.22 37.796 0.072 6.87 3.02 13.81
3/16/2021 4:00:00 PM 3.2 37.76 0.073 6.87 2.94 13.81
3/16/2021 4:15:00 PM 3.2 37.76 0.073 6.86 2.98 13.81
3/16/2021 4:30:00 PM 3.19 37.742 0.073 6.87 2.97 13.81
3/16/2021 4:45:00 PM 3.2 37.76 0.073 6.87 2.98 13.81
3/16/2021 5:00:00 PM 3.21 37.778 0.073 6.87 2.95 13.81
3/16/2021 5:15:00 PM 3.21 37.778 0.072 6.87 2.92 13.8
3/16/2021 5:30:00 PM 3.2 37.76 0.072 6.87 3.02 13.79
3/16/2021 5:45:00 PM 3.18 37.724 0.072 6.87 2.91 13.78
3/16/2021 6:00:00 PM 3.16 37.688 0.072 6.86 3 13.78
3/16/2021 6:15:00 PM 3.14 37.652 0.073 6.86 3.01 13.78
3/16/2021 6:30:00 PM 3.11 37.598 0.073 6.86 2.93 13.78
3/16/2021 6:45:00 PM 3.09 37.562 0.073 6.86 2.89 13.77
3/16/2021 7:00:00 PM 3.08 37.544 0.073 6.86 3.27 13.74
3/16/2021 7:15:00 PM 3.06 37.508 0.073 6.85 3.07 13.72
3/16/2021 7:30:00 PM 3.06 37.508 0.073 6.85 2.89 13.71
3/16/2021 7:45:00 PM 3.05 37.49 0.074 6.85 2.96 13.69
3/16/2021 8:00:00 PM 3.04 37.472 0.074 6.84 2.87 13.68
3/16/2021 8:15:00 PM 3.04 37.472 0.074 6.84 2.97 13.67
3/16/2021 8:30:00 PM 3.03 37.454 0.074 6.84 2.88 13.66
3/16/2021 8:45:00 PM 3.02 37.436 0.074 6.83 2.86 13.66
3/16/2021 9:00:00 PM 3.02 37.436 0.074 6.83 2.91 13.66
3/16/2021 9:15:00 PM 3.02 37.436 0.074 6.83 2.84 13.66
3/16/2021 9:30:00 PM 3.02 37.436 0.074 6.83 2.79 13.66
3/16/2021 9:45:00 PM 3.02 37.436 0.074 6.83 3 13.65
3/16/2021 10:00:00 PM 3.03 37.454 0.074 6.83 2.85 13.65
3/16/2021 10:15:00 PM 3.04 37.472 0.075 6.83 2.9 13.65
3/16/2021 10:30:00 PM 3.04 37.472 0.075 6.83 2.78 13.65
3/16/2021 10:45:00 PM 3.04 37.472 0.075 6.83 2.82 13.65
3/16/2021 11:00:00 PM 3.04 37.472 0.075 6.83 2.83 13.65
3/16/2021 11:15:00 PM 3.05 37.49 0.075 6.83 2.92 13.64
3/16/2021 11:30:00 PM 3.05 37.49 0.075 6.83 2.88 13.64
3/16/2021 11:45:00 PM 3.06 37.508 0.075 6.83 2.77 13.63
3/17/2021 12:00:00 AM 3.06 37.508 0.075 6.83 2.8 13.64
3/17/2021 12:15:00 AM 3.07 37.526 0.074 6.83 2.8 13.63
3/17/2021 12:30:00 AM 3.08 37.544 0.075 6.83 2.83 13.63
3/17/2021 12:45:00 AM 3.08 37.544 0.074 6.83 2.8 13.62
3/17/2021 1:00:00 AM 3.09 37.562 0.075 6.83 2.82 13.62
3/17/2021 1:15:00 AM 3.1 37.58 0.075 6.83 2.74 13.62
3/17/2021 1:30:00 AM 3.1 37.58 0.075 6.83 2.88 13.62
3/17/2021 1:45:00 AM 3.1 37.58 0.075 6.83 2.8 13.61
3/17/2021 2:00:00 AM 3.1 37.58 0.075 6.83 2.75 13.61
3/17/2021 2:15:00 AM 3.1 37.58 0.075 6.83 2.71 13.61
3/17/2021 2:30:00 AM 3.1 37.58 0.074 6.8 2.68 13.61
3/17/2021 2:45:00 AM 3.11 37.598 0.074 6.83 2.71 13.6
3/17/2021 3:00:00 AM 3.11 37.598 0.075 6.82 2.76 13.6
3/17/2021 3:15:00 AM 3.12 37.616 0.075 6.83 2.79 13.59
3/17/2021 3:30:00 AM 3.12 37.616 0.075 6.83 2.79 13.59
3/17/2021 3:45:00 AM 3.13 37.634 0.075 6.83 2.73 13.58
3/17/2021 4:00:00 AM 3.13 37.634 0.075 6.82 2.78 13.58
3/17/2021 4:15:00 AM 3.14 37.652 0.075 6.83 2.74 13.58
3/17/2021 4:30:00 AM 3.14 37.652 0.075 6.83 2.86 13.58
3/17/2021 4:45:00 AM 3.14 37.652 0.075 6.83 2.79 13.58
3/17/2021 5:00:00 AM 3.14 37.652 0.075 6.82 2.72 13.57
3/17/2021 5:15:00 AM 3.14 37.652 0.075 6.8 2.69 13.57
3/17/2021 5:30:00 AM 3.15 37.67 0.076 6.83 2.71 13.57
3/17/2021 5:45:00 AM 3.15 37.67 0.076 6.82 2.76 13.57
3/17/2021 6:00:00 AM 3.15 37.67 0.076 6.82 2.77 13.56
3/17/2021 6:15:00 AM 3.15 37.67 0.076 6.82 2.68 13.57
3/17/2021 6:30:00 AM 3.15 37.67 0.076 6.83 2.79 13.57
3/17/2021 6:45:00 AM 3.15 37.67 0.076 6.82 2.78 13.57
3/17/2021 7:00:00 AM 3.15 37.67 0.076 6.82 2.74 13.57
3/17/2021 7:15:00 AM 3.15 37.67 0.076 6.82 2.65 13.57
3/17/2021 7:30:00 AM 3.15 37.67 0.076 6.81 2.82 13.57
3/17/2021 7:45:00 AM 3.15 37.67 0.075 6.83 2.68 13.57
3/17/2021 8:00:00 AM 3.16 37.688 0.076 6.83 2.89 13.58
3/17/2021 8:15:00 AM 3.16 37.688 0.076 6.83 2.88 13.59
3/17/2021 8:30:00 AM 3.17 37.706 0.076 6.84 2.83 13.61
3/17/2021 8:45:00 AM 3.18 37.724 0.076 6.81 2.71 13.62
3/17/2021 9:00:00 AM 3.19 37.742 0.076 6.84 2.7 13.64
3/17/2021 9:15:00 AM 3.21 37.778 0.076 6.84 2.66 13.66
3/17/2021 9:30:00 AM 3.22 37.796 0.076 6.84 2.76 13.67
3/17/2021 9:45:00 AM 3.24 37.832 0.076 6.85 2.67 13.68
3/17/2021 10:00:00 AM 3.26 37.868 0.076 6.85 2.71 13.7
3/17/2021 10:15:00 AM 3.29 37.922 0.077 6.87 2.73 13.71
3/17/2021 10:30:00 AM 3.31 37.958 0.077 6.87 2.69 13.72
3/17/2021 10:45:00 AM 3.34 38.012 0.077 6.88 2.74 13.73
3/17/2021 11:00:00 AM 3.37 38.066 0.077 6.88 2.75 13.74
3/17/2021 11:15:00 AM 3.4 38.12 0.077 6.89 2.66 13.75
3/17/2021 11:30:00 AM 3.45 38.21 0.077 6.8 2.69 13.75
3/17/2021 11:45:00 AM 3.49 38.282 0.077 6.89 2.7 13.74
3/17/2021 12:00:00 PM 3.52 38.336 0.077 6.88 2.63 13.74
3/17/2021 12:15:00 PM 3.55 38.39 0.076 6.9 2.64 13.74
3/17/2021 12:30:00 PM 3.59 38.462 0.076 6.9 2.63 13.73
3/17/2021 12:45:00 PM 3.63 38.534 0.076 6.9 2.72 13.73
3/17/2021 1:00:00 PM 3.67 38.606 0.076 6.9 2.7 13.72
3/17/2021 1:15:00 PM 3.69 38.642 0.076 6.91 2.75 13.72
3/17/2021 1:30:00 PM 3.72 38.696 0.077 6.9 2.78 13.71
3/17/2021 1:45:00 PM 3.75 38.75 0.076 6.89 2.78 13.7
3/17/2021 2:00:00 PM 3.79 38.822 0.076 6.91 2.71 13.69
3/17/2021 2:15:00 PM 3.84 38.912 0.076 6.9 2.68 13.68
3/17/2021 2:30:00 PM 3.89 39.002 0.077 6.91 2.72 13.67
3/17/2021 2:45:00 PM 3.97 39.146 0.077 6.91 2.66 13.66
3/17/2021 3:00:00 PM 4.1 39.38 0.077 6.92 2.67 13.65
3/17/2021 3:15:00 PM 4.18 39.524 0.077 6.91 2.71 13.63
3/17/2021 3:30:00 PM 4.24 39.632 0.077 6.92 2.67 13.61
3/17/2021 3:45:00 PM 4.29 39.722 0.077 6.92 2.6 13.6
3/17/2021 4:00:00 PM 4.3 39.74 0.077 6.91 2.68 13.59
3/17/2021 4:15:00 PM 4.27 39.686 0.077 6.91 2.75 13.58
3/17/2021 4:30:00 PM 4.23 39.614 0.077 6.91 2.66 13.57
3/17/2021 4:45:00 PM 4.18 39.524 0.077 6.9 2.71 13.55
3/17/2021 5:00:00 PM 4.16 39.488 0.077 6.9 2.76 13.54
3/17/2021 5:15:00 PM 4.13 39.434 0.077 6.9 2.74 13.53
3/17/2021 5:30:00 PM 4.09 39.362 0.077 6.89 2.65 13.52
3/17/2021 5:45:00 PM 4.05 39.29 0.078 6.89 2.7 13.51
3/17/2021 6:00:00 PM 4.02 39.236 0.077 6.89 2.76 13.5
3/17/2021 6:15:00 PM 3.99 39.182 0.078 6.89 2.78 13.49
3/17/2021 6:30:00 PM 3.97 39.146 0.078 6.83 2.71 13.47
3/17/2021 6:45:00 PM 3.95 39.11 0.078 6.87 2.64 13.45
3/17/2021 7:00:00 PM 3.93 39.074 0.078 6.89 2.62 13.43
3/17/2021 7:15:00 PM 3.9 39.02 0.078 6.88 2.66 13.41
3/17/2021 7:30:00 PM 3.87 38.966 0.078 6.88 2.64 13.39
3/17/2021 7:45:00 PM 3.86 38.948 0.078 6.83 2.68 13.36
3/17/2021 8:00:00 PM 3.86 38.948 0.078 6.87 2.69 13.34
3/17/2021 8:15:00 PM 3.87 38.966 0.078 6.86 2.66 13.32
3/17/2021 8:30:00 PM 3.86 38.948 0.078 6.86 2.83 13.3
3/17/2021 8:45:00 PM 3.86 38.948 0.078 6.86 2.63 13.29
3/17/2021 9:00:00 PM 3.85 38.93 0.078 6.86 2.73 13.28
3/17/2021 9:15:00 PM 3.84 38.912 0.078 6.84 2.7 13.28
3/17/2021 9:30:00 PM 3.84 38.912 0.078 6.85 2.7 13.27
3/17/2021 9:45:00 PM 3.86 38.948 0.078 6.85 2.73 13.26
3/17/2021 10:00:00 PM 3.89 39.002 0.078 6.85 2.67 13.25
3/17/2021 10:15:00 PM 3.9 39.02 0.078 6.86 2.67 13.25
3/17/2021 10:30:00 PM 3.89 39.002 0.078 6.85 2.62 13.25
3/17/2021 10:45:00 PM 3.87 38.966 0.078 6.84 2.64 13.26
3/17/2021 11:00:00 PM 3.88 38.984 0.078 6.85 2.6 13.26
3/17/2021 11:15:00 PM 3.89 39.002 0.078 6.85 2.65 13.26
3/17/2021 11:30:00 PM 3.92 39.056 0.078 6.85 2.63 13.25
3/17/2021 11:45:00 PM 3.96 39.128 0.078 6.85 2.64 13.23
3/18/2021 12:00:00 AM 4 39.2 0.078 6.86 2.65 13.22
3/18/2021 12:15:00 AM 4.04 39.272 0.079 6.85 2.63 13.2
3/18/2021 12:30:00 AM 4.11 39.398 0.079 6.85 2.63 13.18
3/18/2021 12:45:00 AM 4.18 39.524 0.079 6.85 2.57 13.15
3/18/2021 1:00:00 AM 4.27 39.686 0.079 6.87 2.77 13.12
3/18/2021 1:15:00 AM 4.34 39.812 0.079 6.86 2.64 13.1
3/18/2021 1:30:00 AM 4.39 39.902 0.079 6.84 2.59 13.08
3/18/2021 1:45:00 AM 4.42 39.956 0.079 6.86 2.73 13.07
3/18/2021 2:00:00 AM 4.44 39.992 0.079 6.82 2.6 13.06
3/18/2021 2:15:00 AM 4.46 40.028 0.079 6.87 2.66 13.05
3/18/2021 2:30:00 AM 4.49 40.082 0.079 6.86 2.64 13.04
3/18/2021 2:45:00 AM 4.5 40.1 0.079 6.86 2.66 13.03
3/18/2021 3:00:00 AM 4.5 40.1 0.079 6.86 2.59 13.04
3/18/2021 3:15:00 AM 4.47 40.046 0.079 6.85 2.58 13.05
3/18/2021 3:30:00 AM 4.45 40.01 0.079 6.85 2.61 13.05
3/18/2021 3:45:00 AM 4.46 40.028 0.08 6.85 2.58 13.04
3/18/2021 4:00:00 AM 4.49 40.082 0.079 6.85 2.62 13.03
3/18/2021 4:15:00 AM 4.53 40.154 0.08 6.85 2.62 13.01
3/18/2021 4:30:00 AM 4.55 40.19 0.08 6.84 2.56 13
3/18/2021 4:45:00 AM 4.56 40.208 0.081 6.85 2.61 12.99
3/18/2021 5:00:00 AM 4.57 40.226 0.081 6.85 2.53 12.99
3/18/2021 5:15:00 AM 4.56 40.208 0.081 6.85 2.64 12.99
3/18/2021 5:30:00 AM 4.54 40.172 0.081 6.85 2.64 12.99
3/18/2021 5:45:00 AM 4.54 40.172 0.081 6.85 2.69 12.99
3/18/2021 6:00:00 AM 4.53 40.154 0.081 6.85 2.53 12.99
3/18/2021 6:15:00 AM 4.52 40.136 0.081 6.85 2.6 12.99
3/18/2021 6:30:00 AM 4.51 40.118 0.081 6.85 2.65 12.99
3/18/2021 6:45:00 AM 4.51 40.118 0.082 6.84 2.72 12.99
3/18/2021 7:00:00 AM 4.5 40.1 0.081 6.85 2.65 12.99
3/18/2021 7:15:00 AM 4.49 40.082 0.081 6.84 2.63 12.99
3/18/2021 7:30:00 AM 4.49 40.082 0.082 6.82 2.7 12.99
3/18/2021 7:45:00 AM 4.49 40.082 0.082 6.84 2.72 12.99
3/18/2021 8:00:00 AM 4.49 40.082 0.082 6.83 2.69 12.99
3/18/2021 8:15:00 AM 4.47 40.046 0.082 6.84 2.75 13
3/18/2021 8:30:00 AM 4.45 40.01 0.083 6.84 3.3 13.01
3/18/2021 8:45:00 AM 4.43 39.974 0.083 6.86 4.89 13.02
3/18/2021 9:00:00 AM 4.42 39.956 0.083 6.87 5.04 13.04
3/18/2021 9:15:00 AM 4.41 39.938 0.083 6.86 4.71 13.05
3/18/2021 9:30:00 AM 4.42 39.956 0.083 6.86 4.29 13.07
3/18/2021 9:45:00 AM 4.42 39.956 0.083 6.87 3.81 13.08
3/18/2021 10:00:00 AM 4.43 39.974 0.083 6.87 3.61 13.09
3/18/2021 10:15:00 AM 4.44 39.992 0.083 6.87 3.54 13.09
3/18/2021 10:30:00 AM 4.44 39.992 0.083 6.87 3.7 13.1
3/18/2021 10:45:00 AM 4.45 40.01 0.083 6.88 4.16 13.12
3/18/2021 11:00:00 AM 4.46 40.028 0.082 6.9 4.49 13.14
3/18/2021 11:15:00 AM 4.47 40.046 0.082 6.9 4.44 13.15
3/18/2021 11:30:00 AM 4.48 40.064 0.082 6.9 4.07 13.16
3/18/2021 11:45:00 AM 4.49 40.082 0.082 6.9 3.67 13.17
3/18/2021 12:00:00 PM 4.5 40.1 0.082 6.9 3.64 13.18
3/18/2021 12:15:00 PM 4.52 40.136 0.082 6.9 3.34 13.2
3/18/2021 12:30:00 PM 4.53 40.154 0.082 6.91 3.31 13.21
3/18/2021 12:45:00 PM 4.54 40.172 0.082 6.91 3.27 13.21
3/18/2021 1:00:00 PM 4.56 40.208 0.082 6.91 3.09 13.22
3/18/2021 1:15:00 PM 4.59 40.262 0.082 6.91 3.02 13.23
3/18/2021 1:30:00 PM 4.62 40.316 0.082 6.92 3.03 13.23
3/18/2021 1:45:00 PM 4.63 40.334 0.083 6.92 2.96 13.23
3/18/2021 2:00:00 PM 4.64 40.352 0.083 6.92 2.97 13.22
3/18/2021 2:15:00 PM 4.65 40.37 0.083 6.92 2.97 13.22
3/18/2021 2:30:00 PM 4.65 40.37 0.083 6.92 2.96 13.21
3/18/2021 2:45:00 PM 4.65 40.37 0.083 6.92 2.86 13.21
3/18/2021 3:00:00 PM 4.63 40.334 0.083 6.92 2.91 13.19
3/18/2021 3:15:00 PM 4.62 40.316 0.083 6.92 3 13.18
3/18/2021 3:30:00 PM 4.63 40.334 0.083 6.92 3.1 13.18
3/18/2021 3:45:00 PM 4.63 40.334 0.083 6.92 3.34 13.18
3/18/2021 4:00:00 PM 4.63 40.334 0.083 6.93 3.47 13.18
3/18/2021 4:15:00 PM 4.62 40.316 0.084 6.92 3.35 13.17
3/18/2021 4:30:00 PM 4.62 40.316 0.084 6.92 3.08 13.17
3/18/2021 4:45:00 PM 4.62 40.316 0.084 6.86 3.21 13.17
3/18/2021 5:00:00 PM 4.62 40.316 0.084 6.92 3.15 13.18
3/18/2021 5:15:00 PM 4.62 40.316 0.084 6.92 3.13 13.18
3/18/2021 5:30:00 PM 4.6 40.28 0.084 6.92 3.46 13.18
3/18/2021 5:45:00 PM 4.59 40.262 0.085 6.91 3.31 13.17
3/18/2021 6:00:00 PM 4.58 40.244 0.085 6.91 3.15 13.16
3/18/2021 6:15:00 PM 4.58 40.244 0.085 6.9 3.29 13.15
3/18/2021 6:30:00 PM 4.57 40.226 0.085 6.89 3.49 13.13
3/18/2021 6:45:00 PM 4.58 40.244 0.085 6.88 3.64 13.13
3/18/2021 7:00:00 PM 4.59 40.262 0.086 6.87 3.79 13.12
3/18/2021 7:15:00 PM 4.59 40.262 0.086 6.87 3.79 13.11
3/18/2021 7:30:00 PM 4.6 40.28 0.087 6.88 4.32 13.11
3/18/2021 7:45:00 PM 4.62 40.316 0.087 6.88 4.45 13.12
3/18/2021 8:00:00 PM 4.64 40.352 0.088 6.88 4.98 13.13
3/18/2021 8:15:00 PM 4.66 40.388 0.088 6.88 4.94 13.14
3/18/2021 8:30:00 PM 4.68 40.424 0.088 6.88 5.54 13.14
3/18/2021 8:45:00 PM 4.71 40.478 0.088 6.89 5.34 13.14
3/18/2021 9:00:00 PM 4.73 40.514 0.088 6.89 5.81 13.14
3/18/2021 9:15:00 PM 4.73 40.514 0.087 6.9 5.81 13.15
3/18/2021 9:30:00 PM 4.73 40.514 0.086 6.91 6.36 13.15
3/18/2021 9:45:00 PM 4.73 40.514 0.084 6.88 6.55 13.16
3/18/2021 10:00:00 PM 4.72 40.496 0.083 6.88 7.32 13.16
3/18/2021 10:15:00 PM 4.72 40.496 0.082 6.87 7.59 13.17
3/18/2021 10:30:00 PM 4.71 40.478 0.081 6.88 8.11 13.17
3/18/2021 10:45:00 PM 4.69 40.442 0.081 6.88 8.9 13.17
3/18/2021 11:00:00 PM 4.67 40.406 0.081 6.88 9.72 13.17
3/18/2021 11:15:00 PM 4.63 40.334 0.082 6.88 10.45 13.18
3/18/2021 11:30:00 PM 4.59 40.262 0.082 6.88 11.14 13.2
3/18/2021 11:45:00 PM 4.55 40.19 0.083 6.87 10.22 13.22
3/19/2021 12:00:00 AM 4.5 40.1 0.083 6.87 10.46 13.24
3/19/2021 12:15:00 AM 4.47 40.046 0.083 6.87 11.78 13.25
3/19/2021 12:30:00 AM 4.43 39.974 0.083 6.86 12.42 13.27
3/19/2021 12:45:00 AM 4.39 39.902 0.084 6.87 12.73 13.29
3/19/2021 1:00:00 AM 4.35 39.83 0.084 6.87 13.37 13.3
3/19/2021 1:15:00 AM 4.34 39.812 0.084 6.95 12.39 13.32
3/19/2021 1:30:00 AM 4.33 39.794 0.084 6.87 11.31 13.34
3/19/2021 1:45:00 AM 4.31 39.758 0.085 6.86 11.72 13.35
3/19/2021 2:00:00 AM 4.27 39.686 0.084 6.86 11.73 13.37
3/19/2021 2:15:00 AM 4.22 39.596 0.084 6.86 12.1 13.4
3/19/2021 2:30:00 AM 4.18 39.524 0.084 6.86 11.77 13.43
3/19/2021 2:45:00 AM 4.15 39.47 0.084 6.86 11.71 13.44
3/19/2021 3:00:00 AM 4.11 39.398 0.084 6.86 11.88 13.44
3/19/2021 3:15:00 AM 4.07 39.326 0.084 6.83 11.26 13.46
3/19/2021 3:30:00 AM 4.04 39.272 0.084 6.86 11.79 13.46
3/19/2021 3:45:00 AM 3.99 39.182 0.084 6.86 11.7 13.47
3/19/2021 4:00:00 AM 3.94 39.092 0.084 6.85 12.1 13.48
3/19/2021 4:15:00 AM 3.88 38.984 0.084 6.85 12.05 13.49
3/19/2021 4:30:00 AM 3.84 38.912 0.083 6.85 12.29 13.49
3/19/2021 4:45:00 AM 3.83 38.894 0.083 6.86 11.58 13.49
3/19/2021 5:00:00 AM 3.81 38.858 0.084 6.86 11.57 13.48
3/19/2021 5:15:00 AM 3.78 38.804 0.084 6.85 11.66 13.48
3/19/2021 5:30:00 AM 3.74 38.732 0.083 6.86 11.63 13.5
3/19/2021 5:45:00 AM 3.67 38.606 0.084 6.84 11.16 13.53
3/19/2021 6:00:00 AM 3.62 38.516 0.084 6.85 11.6 13.54
3/19/2021 6:15:00 AM 3.57 38.426 0.084 6.82 11.3 13.57
3/19/2021 6:30:00 AM 3.5 38.3 0.085 6.82 11.17 13.6
3/19/2021 6:45:00 AM 3.48 38.264 0.085 6.85 10.36 13.6
3/19/2021 7:00:00 AM 3.45 38.21 0.085 6.83 10.71 13.62
3/19/2021 7:15:00 AM 3.39 38.102 0.085 6.84 11 13.64
3/19/2021 7:30:00 AM 3.37 38.066 0.085 6.84 10.68 13.65
3/19/2021 7:45:00 AM 3.4 38.12 0.085 6.85 10.21 13.64
3/19/2021 8:00:00 AM 3.35 38.03 0.085 6.84 10.26 13.67
3/19/2021 8:15:00 AM 3.29 37.922 0.085 6.84 10.2 13.71
3/19/2021 8:30:00 AM 3.18 37.724 0.084 6.83 9.69 13.75
3/19/2021 8:45:00 AM 3.08 37.544 0.085 6.83 9.66 13.8
3/19/2021 9:00:00 AM 3.07 37.526 0.085 6.85 10 13.81
3/19/2021 9:15:00 AM 3.15 37.67 0.084 6.86 9.59 13.79
3/19/2021 9:30:00 AM 3.14 37.652 0.084 6.86 9.18 13.8
3/19/2021 9:45:00 AM 3.09 37.562 0.084 6.83 8.95 13.84
3/19/2021 10:00:00 AM 3.06 37.508 0.084 6.86 8.78 13.87
3/19/2021 10:15:00 AM 3.03 37.454 0.084 6.86 8.82 13.92
3/19/2021 10:30:00 AM 2.99 37.382 0.084 6.86 8.38 13.95
3/19/2021 10:45:00 AM 2.99 37.382 0.084 6.87 8.56 13.96
3/19/2021 11:00:00 AM 3.12 37.616 0.084 6.89 8.67 13.93
3/19/2021 11:15:00 AM 3.28 37.904 0.084 6.88 8.35 13.89
3/19/2021 11:30:00 AM 3.36 38.048 0.084 6.89 8.55 13.88
3/19/2021 11:45:00 AM 3.41 38.138 0.084 6.88 8.47 13.89
3/19/2021 12:00:00 PM 3.45 38.21 0.083 6.9 8.6 13.9
3/19/2021 12:15:00 PM 3.44 38.192 0.083 6.89 7.92 13.94
3/19/2021 12:30:00 PM 3.44 38.192 0.083 6.87 8.4 13.99
3/19/2021 12:45:00 PM 3.48 38.264 0.083 6.89 7.75 14.01
3/19/2021 1:00:00 PM 3.55 38.39 0.083 6.89 8.18 14
3/19/2021 1:15:00 PM 3.61 38.498 0.083 6.89 7.76 14
3/19/2021 1:30:00 PM 3.68 38.624 0.083 6.89 7.85 13.99
3/19/2021 1:45:00 PM 3.73 38.714 0.083 6.89 7.75 13.99
3/19/2021 2:00:00 PM 3.76 38.768 0.082 6.89 7.91 13.99
3/19/2021 2:15:00 PM 3.8 38.84 0.082 6.89 7.35 13.99
3/19/2021 2:30:00 PM 3.83 38.894 0.082 6.88 7.5 13.98
3/19/2021 2:45:00 PM 3.89 39.002 0.082 6.89 7.09 13.96
3/19/2021 3:00:00 PM 3.98 39.164 0.082 6.9 7.3 13.92
3/19/2021 3:15:00 PM 4.06 39.308 0.082 6.9 7.52 13.89
3/19/2021 3:30:00 PM 4.06 39.308 0.082 6.89 7.5 13.87
3/19/2021 3:45:00 PM 4.02 39.236 0.082 6.84 7 13.88
3/19/2021 4:00:00 PM 3.95 39.11 0.082 6.89 6.89 13.89
3/19/2021 4:15:00 PM 3.89 39.002 0.081 6.88 6.34 13.89
3/19/2021 4:30:00 PM 3.83 38.894 0.081 6.88 6.14 13.89
3/19/2021 4:45:00 PM 3.76 38.768 0.081 6.87 5.97 13.88
3/19/2021 5:00:00 PM 3.75 38.75 0.081 6.87 6.27 13.85
3/19/2021 5:15:00 PM 3.79 38.822 0.081 6.88 6.48 13.82
3/19/2021 5:30:00 PM 3.81 38.858 0.081 6.88 6.46 13.79
3/19/2021 5:45:00 PM 3.83 38.894 0.081 6.88 6.1 13.76
3/19/2021 6:00:00 PM 3.84 38.912 0.081 6.87 6.22 13.74
3/19/2021 6:15:00 PM 3.86 38.948 0.081 6.87 5.89 13.72
3/19/2021 6:30:00 PM 3.87 38.966 0.081 6.87 5.93 13.7
3/19/2021 6:45:00 PM 3.88 38.984 0.081 6.87 6.21 13.67
3/19/2021 7:00:00 PM 3.91 39.038 0.081 6.87 6.2 13.64
3/19/2021 7:15:00 PM 3.96 39.128 0.081 6.87 5.96 13.62
3/19/2021 7:30:00 PM 4.01 39.218 0.08 6.87 5.74 13.59
3/19/2021 7:45:00 PM 4.05 39.29 0.08 6.87 5.37 13.57
3/19/2021 8:00:00 PM 4.11 39.398 0.08 6.86 5.4 13.53
3/19/2021 8:15:00 PM 4.18 39.524 0.079 6.87 5.29 13.5
3/19/2021 8:30:00 PM 4.23 39.614 0.079 6.87 4.93 13.47
3/19/2021 8:45:00 PM 4.22 39.596 0.079 6.87 5.26 13.47
3/19/2021 9:00:00 PM 4.14 39.452 0.079 6.85 5.38 13.49
3/19/2021 9:15:00 PM 4.06 39.308 0.08 6.84 5.33 13.51
3/19/2021 9:30:00 PM 4.04 39.272 0.08 6.86 5.64 13.51
3/19/2021 9:45:00 PM 4.06 39.308 0.08 6.86 5.19 13.51
3/19/2021 10:00:00 PM 4.08 39.344 0.08 6.85 5.45 13.5
3/19/2021 10:15:00 PM 4.1 39.38 0.079 6.85 5.34 13.49
3/19/2021 10:30:00 PM 4.07 39.326 0.079 6.85 4.93 13.5
3/19/2021 10:45:00 PM 4.03 39.254 0.079 6.85 5.27 13.51
3/19/2021 11:00:00 PM 4 39.2 0.079 6.85 5.3 13.52
3/19/2021 11:15:00 PM 3.97 39.146 0.079 6.84 5.33 13.53
3/19/2021 11:30:00 PM 3.97 39.146 0.079 6.84 5.22 13.53
3/19/2021 11:45:00 PM 3.99 39.182 0.079 6.85 4.94 13.52
3/20/2021 12:00:00 AM 4 39.2 0.079 6.84 5.03 13.51
3/20/2021 12:15:00 AM 3.99 39.182 0.079 6.84 5.07 13.52
3/20/2021 12:30:00 AM 3.96 39.128 0.079 6.83 4.94 13.52
3/20/2021 12:45:00 AM 3.96 39.128 0.079 6.84 4.97 13.52
3/20/2021 1:00:00 AM 3.95 39.11 0.079 6.83 4.99 13.52
3/20/2021 1:15:00 AM 3.93 39.074 0.078 6.83 5.05 13.53
3/20/2021 1:30:00 AM 3.88 38.984 0.079 6.83 5.26 13.55
3/20/2021 1:45:00 AM 3.83 38.894 0.079 6.82 5.31 13.57
3/20/2021 2:00:00 AM 3.81 38.858 0.079 6.83 5.45 13.57
3/20/2021 2:15:00 AM 3.79 38.822 0.079 6.83 5.24 13.58
3/20/2021 2:30:00 AM 3.77 38.786 0.079 6.83 5.1 13.59
3/20/2021 2:45:00 AM 3.75 38.75 0.079 6.83 4.88 13.59
3/20/2021 3:00:00 AM 3.73 38.714 0.078 6.83 5.06 13.59
3/20/2021 3:15:00 AM 3.71 38.678 0.078 6.82 4.9 13.6
3/20/2021 3:30:00 AM 3.69 38.642 0.078 6.82 4.81 13.6
3/20/2021 3:45:00 AM 3.67 38.606 0.079 6.82 5.01 13.61
3/20/2021 4:00:00 AM 3.65 38.57 0.078 6.77 4.93 13.62
3/20/2021 4:15:00 AM 3.62 38.516 0.078 6.82 4.95 13.63
3/20/2021 4:30:00 AM 3.59 38.462 0.079 6.82 4.9 13.64
3/20/2021 4:45:00 AM 3.55 38.39 0.078 6.81 4.71 13.66
3/20/2021 5:00:00 AM 3.5 38.3 0.078 6.81 4.72 13.68
3/20/2021 5:15:00 AM 3.46 38.228 0.078 6.81 4.47 13.69
3/20/2021 5:30:00 AM 3.43 38.174 0.078 6.81 4.53 13.7
3/20/2021 5:45:00 AM 3.4 38.12 0.078 6.81 4.46 13.71
3/20/2021 6:00:00 AM 3.37 38.066 0.078 6.81 4.49 13.72
3/20/2021 6:15:00 AM 3.33 37.994 0.077 6.81 4.37 13.74
3/20/2021 6:30:00 AM 3.27 37.886 0.077 6.8 4.25 13.76
3/20/2021 6:45:00 AM 3.21 37.778 0.077 6.8 4.37 13.78
3/20/2021 7:00:00 AM 3.16 37.688 0.077 6.8 4.36 13.8
3/20/2021 7:15:00 AM 3.14 37.652 0.077 6.8 4.22 13.81
3/20/2021 7:30:00 AM 3.15 37.67 0.077 6.8 4.26 13.81
3/20/2021 7:45:00 AM 3.2 37.76 0.077 6.82 4.31 13.8
3/20/2021 8:00:00 AM 3.25 37.85 0.078 6.83 4.66 13.79
3/20/2021 8:15:00 AM 3.26 37.868 0.078 6.83 4.86 13.79
3/20/2021 8:30:00 AM 3.25 37.85 0.078 6.83 4.79 13.82
3/20/2021 8:45:00 AM 3.21 37.778 0.078 6.82 4.61 13.85
3/20/2021 9:00:00 AM 3.16 37.688 0.078 6.82 4.66 13.9
3/20/2021 9:15:00 AM 3.13 37.634 0.077 6.83 4.52 13.93
3/20/2021 9:30:00 AM 3.11 37.598 0.077 6.84 4.24 13.95
3/20/2021 9:45:00 AM 3.1 37.58 0.077 6.83 4.26 13.98
3/20/2021 10:00:00 AM 3.12 37.616 0.077 6.85 4.4 14
3/20/2021 10:15:00 AM 3.14 37.652 0.077 6.84 4.21 14.01
3/20/2021 10:30:00 AM 3.18 37.724 0.077 6.85 4.36 14.03
3/20/2021 10:45:00 AM 3.2 37.76 0.076 6.86 4.23 14.04
3/20/2021 11:00:00 AM 3.24 37.832 0.077 6.86 4.18 14.06
3/20/2021 11:15:00 AM 3.29 37.922 0.076 6.86 4.14 14.07
3/20/2021 11:30:00 AM 3.34 38.012 0.076 6.87 4.02 14.08
3/20/2021 11:45:00 AM 3.41 38.138 0.076 6.87 4.19 14.08
3/20/2021 12:00:00 PM 3.5 38.3 0.076 6.88 3.94 14.08
3/20/2021 12:15:00 PM 3.6 38.48 0.076 6.84 4.23 14.06
3/20/2021 12:30:00 PM 3.72 38.696 0.076 6.88 4.03 14.04
3/20/2021 12:45:00 PM 3.84 38.912 0.076 6.89 4.17 14.02
3/20/2021 1:00:00 PM 3.95 39.11 0.076 6.89 3.95 14
3/20/2021 1:15:00 PM 4.05 39.29 0.076 6.89 3.94 13.99
3/20/2021 1:30:00 PM 4.13 39.434 0.076 6.89 3.93 13.98
3/20/2021 1:45:00 PM 4.19 39.542 0.076 6.88 3.95 13.98
3/20/2021 2:00:00 PM 4.24 39.632 0.076 6.88 3.92 13.97
3/20/2021 2:15:00 PM 4.28 39.704 0.076 6.88 3.97 13.96
3/20/2021 2:30:00 PM 4.3 39.74 0.076 6.88 3.81 13.96
3/20/2021 2:45:00 PM 4.33 39.794 0.076 6.88 3.88 13.95
3/20/2021 3:00:00 PM 4.34 39.812 0.076 6.88 4.01 13.94
3/20/2021 3:15:00 PM 4.35 39.83 0.076 6.88 3.96 13.93
3/20/2021 3:30:00 PM 4.33 39.794 0.076 6.88 3.94 13.92
3/20/2021 3:45:00 PM 4.3 39.74 0.076 6.86 3.88 13.9
3/20/2021 4:00:00 PM 4.26 39.668 0.076 6.87 4.01 13.89
3/20/2021 4:15:00 PM 4.22 39.596 0.076 6.87 3.96 13.87
3/20/2021 4:30:00 PM 4.17 39.506 0.076 6.85 4.06 13.84
3/20/2021 4:45:00 PM 4.11 39.398 0.076 6.86 4.02 13.82
3/20/2021 5:00:00 PM 4.08 39.344 0.076 6.87 3.97 13.81
3/20/2021 5:15:00 PM 4.06 39.308 0.076 6.86 3.98 13.79
3/20/2021 5:30:00 PM 4.04 39.272 0.076 6.87 3.88 13.77
3/20/2021 5:45:00 PM 4.04 39.272 0.076 6.86 3.84 13.75
3/20/2021 6:00:00 PM 4.04 39.272 0.076 6.86 3.77 13.73
3/20/2021 6:15:00 PM 4.03 39.254 0.076 6.86 3.76 13.71
3/20/2021 6:30:00 PM 3.98 39.164 0.076 6.85 3.81 13.7
3/20/2021 6:45:00 PM 3.93 39.074 0.075 6.85 3.68 13.71
3/20/2021 7:00:00 PM 3.91 39.038 0.075 6.84 3.69 13.7
3/20/2021 7:15:00 PM 3.89 39.002 0.075 6.84 3.74 13.68
3/20/2021 7:30:00 PM 3.89 39.002 0.076 6.84 3.71 13.65
3/20/2021 7:45:00 PM 3.94 39.092 0.076 6.83 3.88 13.6
3/20/2021 8:00:00 PM 4.02 39.236 0.076 6.84 3.66 13.56
3/20/2021 8:15:00 PM 4.08 39.344 0.076 6.84 3.76 13.53
3/20/2021 8:30:00 PM 4.12 39.416 0.076 6.83 3.7 13.5
3/20/2021 8:45:00 PM 4.17 39.506 0.076 6.83 3.67 13.48
3/20/2021 9:00:00 PM 4.25 39.65 0.075 6.84 3.52 13.45
3/20/2021 9:15:00 PM 4.33 39.794 0.075 6.84 3.42 13.42
3/20/2021 9:30:00 PM 4.39 39.902 0.075 6.84 3.56 13.4
3/20/2021 9:45:00 PM 4.43 39.974 0.075 6.84 3.5 13.38
3/20/2021 10:00:00 PM 4.48 40.064 0.075 6.84 3.44 13.36
3/20/2021 10:15:00 PM 4.53 40.154 0.075 6.84 3.4 13.34
3/20/2021 10:30:00 PM 4.58 40.244 0.076 6.84 3.46 13.32
3/20/2021 10:45:00 PM 4.62 40.316 0.075 6.84 3.65 13.31
3/20/2021 11:00:00 PM 4.66 40.388 0.075 6.81 3.43 13.29
3/20/2021 11:15:00 PM 4.69 40.442 0.075 6.84 3.4 13.28
3/20/2021 11:30:00 PM 4.71 40.478 0.075 6.84 3.43 13.27
3/20/2021 11:45:00 PM 4.73 40.514 0.075 6.84 3.5 13.26
3/21/2021 12:00:00 AM 4.74 40.532 0.075 6.83 3.45 13.26
3/21/2021 12:15:00 AM 4.74 40.532 0.075 6.84 3.51 13.25
3/21/2021 12:30:00 AM 4.75 40.55 0.075 6.84 3.33 13.25
3/21/2021 12:45:00 AM 4.75 40.55 0.075 6.84 3.28 13.25
3/21/2021 1:00:00 AM 4.75 40.55 0.075 6.84 3.48 13.24
3/21/2021 1:15:00 AM 4.73 40.514 0.075 6.81 3.33 13.25
3/21/2021 1:30:00 AM 4.72 40.496 0.075 6.83 3.41 13.25
3/21/2021 1:45:00 AM 4.71 40.478 0.075 6.83 3.27 13.25
3/21/2021 2:00:00 AM 4.71 40.478 0.075 6.83 3.38 13.24
3/21/2021 2:15:00 AM 4.71 40.478 0.075 6.83 3.38 13.24
3/21/2021 2:30:00 AM 4.7 40.46 0.075 6.82 3.34 13.24
3/21/2021 2:45:00 AM 4.7 40.46 0.075 6.83 3.36 13.23
3/21/2021 3:00:00 AM 4.7 40.46 0.075 6.83 3.31 13.23
3/21/2021 3:15:00 AM 4.7 40.46 0.075 6.83 3.32 13.22
3/21/2021 3:30:00 AM 4.7 40.46 0.075 6.82 3.16 13.22
3/21/2021 3:45:00 AM 4.7 40.46 0.075 6.82 3.35 13.22
3/21/2021 4:00:00 AM 4.7 40.46 0.075 6.83 3.29 13.21
3/21/2021 4:15:00 AM 4.71 40.478 0.075 6.82 3.38 13.2
3/21/2021 4:30:00 AM 4.7 40.46 0.075 6.82 3.31 13.2
3/21/2021 4:45:00 AM 4.69 40.442 0.075 6.82 3.36 13.21
3/21/2021 5:00:00 AM 4.66 40.388 0.075 6.81 3.26 13.22
3/21/2021 5:15:00 AM 4.62 40.316 0.075 6.81 3.34 13.23
3/21/2021 5:30:00 AM 4.59 40.262 0.075 6.81 3.33 13.24
3/21/2021 5:45:00 AM 4.56 40.208 0.075 6.81 3.31 13.24
3/21/2021 6:00:00 AM 4.52 40.136 0.075 6.81 3.26 13.26
3/21/2021 6:15:00 AM 4.48 40.064 0.074 6.81 3.2 13.27
3/21/2021 6:30:00 AM 4.45 40.01 0.075 6.81 3.31 13.28
3/21/2021 6:45:00 AM 4.44 39.992 0.075 6.81 3.42 13.29
3/21/2021 7:00:00 AM 4.43 39.974 0.075 6.78 3.22 13.29
3/21/2021 7:15:00 AM 4.41 39.938 0.075 6.81 3.32 13.3
3/21/2021 7:30:00 AM 4.38 39.884 0.075 6.81 3.32 13.33
3/21/2021 7:45:00 AM 4.31 39.758 0.075 6.81 3.21 13.37
3/21/2021 8:00:00 AM 4.24 39.632 0.075 6.8 3.31 13.4
3/21/2021 8:15:00 AM 4.16 39.488 0.075 6.81 3.23 13.44
3/21/2021 8:30:00 AM 4.11 39.398 0.075 6.82 3.22 13.47
3/21/2021 8:45:00 AM 4.09 39.362 0.075 6.82 3.21 13.5
3/21/2021 9:00:00 AM 4.08 39.344 0.075 6.83 3.2 13.52
3/21/2021 9:15:00 AM 4.08 39.344 0.075 6.83 3.27 13.55
3/21/2021 9:30:00 AM 4.08 39.344 0.075 6.84 3.17 13.58
3/21/2021 9:45:00 AM 4.09 39.362 0.075 6.82 3.25 13.6
3/21/2021 10:00:00 AM 4.11 39.398 0.075 6.86 3.19 13.61
3/21/2021 10:15:00 AM 4.15 39.47 0.075 6.86 3.21 13.62
3/21/2021 10:30:00 AM 4.2 39.56 0.075 6.87 3.12 13.64
3/21/2021 10:45:00 AM 4.23 39.614 0.075 6.87 3.22 13.65
3/21/2021 11:00:00 AM 4.25 39.65 0.075 6.87 3.18 13.68
3/21/2021 11:15:00 AM 4.29 39.722 0.075 6.88 3.11 13.69
3/21/2021 11:30:00 AM 4.37 39.866 0.075 6.88 3.08 13.7
3/21/2021 11:45:00 AM 4.5 40.1 0.075 6.9 3.17 13.68
3/21/2021 12:00:00 PM 4.68 40.424 0.075 6.91 3.17 13.65
3/21/2021 12:15:00 PM 4.82 40.676 0.075 6.91 3.19 13.63
3/21/2021 12:30:00 PM 4.94 40.892 0.075 6.91 3.07 13.61
3/21/2021 12:45:00 PM 5.05 41.09 0.075 6.91 3.17 13.6
3/21/2021 1:00:00 PM 5.12 41.216 0.075 6.92 3.19 13.6
3/21/2021 1:15:00 PM 5.18 41.324 0.075 6.91 3.07 13.61
3/21/2021 1:30:00 PM 5.23 41.414 0.075 6.92 3.08 13.61
3/21/2021 1:45:00 PM 5.28 41.504 0.075 6.92 3.19 13.6
3/21/2021 2:00:00 PM 5.33 41.594 0.075 6.91 3.13 13.6
3/21/2021 2:15:00 PM 5.38 41.684 0.075 6.91 3.12 13.58
3/21/2021 2:30:00 PM 5.45 41.81 0.075 6.92 3.18 13.56
3/21/2021 2:45:00 PM 5.51 41.918 0.075 6.92 3.04 13.54
3/21/2021 3:00:00 PM 5.54 41.972 0.075 6.92 3.06 13.53
3/21/2021 3:15:00 PM 5.51 41.918 0.075 6.92 2.97 13.53
3/21/2021 3:30:00 PM 5.43 41.774 0.075 6.91 3.18 13.54
3/21/2021 3:45:00 PM 5.3 41.54 0.075 6.9 2.98 13.57
3/21/2021 4:00:00 PM 5.17 41.306 0.075 6.9 3.14 13.58
3/21/2021 4:15:00 PM 5.07 41.126 0.075 6.89 3.05 13.57
3/21/2021 4:30:00 PM 5 41 0.075 6.88 3.12 13.56
3/21/2021 4:45:00 PM 4.92 40.856 0.074 6.89 3.08 13.54
3/21/2021 5:00:00 PM 4.88 40.784 0.075 6.89 2.97 13.52
3/21/2021 5:15:00 PM 4.87 40.766 0.075 6.89 2.98 13.5
3/21/2021 5:30:00 PM 4.86 40.748 0.075 6.9 3.04 13.46
3/21/2021 5:45:00 PM 4.86 40.748 0.075 6.89 3.14 13.44
3/21/2021 6:00:00 PM 4.83 40.694 0.075 6.89 3.13 13.42
3/21/2021 6:15:00 PM 4.81 40.658 0.075 6.89 3.12 13.4
3/21/2021 6:30:00 PM 4.79 40.622 0.075 6.88 3.04 13.38
3/21/2021 6:45:00 PM 4.77 40.586 0.075 6.88 3.14 13.36
3/21/2021 7:00:00 PM 4.75 40.55 0.075 6.87 3.09 13.34
3/21/2021 7:15:00 PM 4.74 40.532 0.075 6.87 3.07 13.32
3/21/2021 7:30:00 PM 4.73 40.514 0.075 6.87 3.06 13.3
3/21/2021 7:45:00 PM 4.73 40.514 0.075 6.86 3.03 13.28
3/21/2021 8:00:00 PM 4.73 40.514 0.075 6.86 3.1 13.26
3/21/2021 8:15:00 PM 4.73 40.514 0.075 6.86 3.1 13.25
3/21/2021 8:30:00 PM 4.74 40.532 0.075 6.85 3.01 13.23
3/21/2021 8:45:00 PM 4.76 40.568 0.075 6.86 3.03 13.21
3/21/2021 9:00:00 PM 4.78 40.604 0.075 6.85 3 13.2
3/21/2021 9:15:00 PM 4.83 40.694 0.075 6.85 3.05 13.18
3/21/2021 9:30:00 PM 4.88 40.784 0.075 6.84 3 13.15
3/21/2021 9:45:00 PM 4.93 40.874 0.075 6.86 3 13.13
3/21/2021 10:00:00 PM 4.99 40.982 0.075 6.86 2.97 13.11
3/21/2021 10:15:00 PM 5.04 41.072 0.075 6.86 3 13.09
3/21/2021 10:30:00 PM 5.11 41.198 0.075 6.86 2.92 13.06
3/21/2021 10:45:00 PM 5.18 41.324 0.075 6.87 3.04 13.03
3/21/2021 11:00:00 PM 5.25 41.45 0.075 6.87 2.97 13
3/21/2021 11:15:00 PM 5.31 41.558 0.075 6.85 2.93 12.98
3/21/2021 11:30:00 PM 5.36 41.648 0.075 6.87 2.89 12.96
3/21/2021 11:45:00 PM 5.39 41.702 0.075 6.86 2.94 12.95
3/22/2021 12:00:00 AM 5.41 41.738 0.075 6.85 2.88 12.94
3/22/2021 12:15:00 AM 5.43 41.774 0.075 6.86 3 12.93
3/22/2021 12:30:00 AM 5.44 41.792 0.075 6.86 2.97 12.92
3/22/2021 12:45:00 AM 5.45 41.81 0.075 6.86 2.86 12.92
3/22/2021 1:00:00 AM 5.45 41.81 0.075 6.85 2.86 12.91
3/22/2021 1:15:00 AM 5.46 41.828 0.075 6.86 2.81 12.91
3/22/2021 1:30:00 AM 5.47 41.846 0.075 6.86 2.92 12.91
3/22/2021 1:45:00 AM 5.47 41.846 0.075 6.86 2.92 12.9
3/22/2021 2:00:00 AM 5.47 41.846 0.075 6.85 2.97 12.9
3/22/2021 2:15:00 AM 5.47 41.846 0.075 6.86 2.9 12.9
3/22/2021 2:30:00 AM 5.46 41.828 0.075 6.86 2.85 12.9
3/22/2021 2:45:00 AM 5.46 41.828 0.075 6.85 3 12.89
3/22/2021 3:00:00 AM 5.46 41.828 0.075 6.86 2.87 12.89
3/22/2021 3:15:00 AM 5.46 41.828 0.075 6.85 2.96 12.88
3/22/2021 3:30:00 AM 5.46 41.828 0.075 6.85 2.88 12.88
3/22/2021 3:45:00 AM 5.46 41.828 0.075 6.85 2.92 12.88
3/22/2021 4:00:00 AM 5.46 41.828 0.075 6.86 2.88 12.88
3/22/2021 4:15:00 AM 5.44 41.792 0.075 6.84 2.93 12.88
3/22/2021 4:30:00 AM 5.41 41.738 0.075 6.84 2.88 12.89
3/22/2021 4:45:00 AM 5.38 41.684 0.075 6.85 2.97 12.9
3/22/2021 5:00:00 AM 5.36 41.648 0.075 6.84 2.92 12.9
3/22/2021 5:15:00 AM 5.34 41.612 0.075 6.85 2.89 12.9
3/22/2021 5:30:00 AM 5.33 41.594 0.075 6.85 2.84 12.9
3/22/2021 5:45:00 AM 5.32 41.576 0.075 6.84 2.88 12.91
3/22/2021 6:00:00 AM 5.29 41.522 0.075 6.84 2.89 12.91
3/22/2021 6:15:00 AM 5.28 41.504 0.075 6.84 2.95 12.91
3/22/2021 6:30:00 AM 5.26 41.468 0.075 6.84 2.92 12.92
3/22/2021 6:45:00 AM 5.25 41.45 0.075 6.84 2.97 12.92
3/22/2021 7:00:00 AM 5.22 41.396 0.076 6.83 2.95 12.92
3/22/2021 7:15:00 AM 5.2 41.36 0.076 6.83 2.9 12.94
3/22/2021 7:30:00 AM 5.17 41.306 0.076 6.84 2.99 12.96
3/22/2021 7:45:00 AM 5.14 41.252 0.075 6.84 2.92 12.98
3/22/2021 8:00:00 AM 5.12 41.216 0.075 6.85 2.85 13
3/22/2021 8:15:00 AM 5.1 41.18 0.075 6.85 2.98 13.03
3/22/2021 8:30:00 AM 5.09 41.162 0.075 6.85 2.99 13.05
3/22/2021 8:45:00 AM 5.08 41.144 0.075 6.85 2.88 13.08
3/22/2021 9:00:00 AM 5.08 41.144 0.075 6.87 3.01 13.11
3/22/2021 9:15:00 AM 5.07 41.126 0.075 6.88 2.9 13.14
3/22/2021 9:30:00 AM 5.08 41.144 0.075 6.87 2.9 13.17
3/22/2021 9:45:00 AM 5.09 41.162 0.075 6.89 2.84 13.19
3/22/2021 10:00:00 AM 5.1 41.18 0.075 6.89 2.83 13.21
3/22/2021 10:15:00 AM 5.11 41.198 0.075 6.9 2.81 13.24
3/22/2021 10:30:00 AM 5.15 41.27 0.075 6.91 2.89 13.25
3/22/2021 10:45:00 AM 5.21 41.378 0.075 6.91 2.79 13.26
3/22/2021 11:00:00 AM 5.31 41.558 0.075 6.92 2.87 13.25
3/22/2021 11:15:00 AM 5.42 41.756 0.075 6.93 2.9 13.25
3/22/2021 11:30:00 AM 5.54 41.972 0.075 6.93 2.79 13.24
3/22/2021 11:45:00 AM 5.65 42.17 0.075 6.94 2.86 13.24
3/22/2021 12:00:00 PM 5.76 42.368 0.075 6.94 2.78 13.23
3/22/2021 12:15:00 PM 5.87 42.566 0.075 6.95 2.89 13.23
3/22/2021 12:30:00 PM 5.96 42.728 0.075 6.95 2.8 13.22
3/22/2021 12:45:00 PM 6.05 42.89 0.075 6.95 2.88 13.22
3/22/2021 1:00:00 PM 6.14 43.052 0.075 6.95 2.84 13.21
3/22/2021 1:15:00 PM 6.23 43.214 0.075 6.95 2.81 13.2
3/22/2021 1:30:00 PM 6.31 43.358 0.075 6.96 2.86 13.19
3/22/2021 1:45:00 PM 6.39 43.502 0.075 6.93 2.82 13.17
3/22/2021 2:00:00 PM 6.48 43.664 0.075 6.95 2.89 13.15
3/22/2021 2:15:00 PM 6.55 43.79 0.075 6.97 2.88 13.13
3/22/2021 2:30:00 PM 6.57 43.826 0.075 6.96 2.82 13.13
3/22/2021 2:45:00 PM 6.54 43.772 0.076 6.96 2.82 13.14
3/22/2021 3:00:00 PM 6.48 43.664 0.075 6.95 2.86 13.15
3/22/2021 3:15:00 PM 6.41 43.538 0.075 6.94 2.87 13.17
3/22/2021 3:30:00 PM 6.33 43.394 0.075 6.92 2.86 13.18
3/22/2021 3:45:00 PM 6.22 43.196 0.075 6.93 2.96 13.19
3/22/2021 4:00:00 PM 6.1 42.98 0.076 6.92 2.91 13.21
3/22/2021 4:15:00 PM 5.98 42.764 0.076 6.92 2.78 13.22
3/22/2021 4:30:00 PM 5.88 42.584 0.076 6.91 2.78 13.21
3/22/2021 4:45:00 PM 5.77 42.386 0.075 6.9 2.87 13.2
3/22/2021 5:00:00 PM 5.71 42.278 0.075 6.92 2.87 13.18
3/22/2021 5:15:00 PM 5.66 42.188 0.075 6.92 2.85 13.17
3/22/2021 5:30:00 PM 5.6 42.08 0.076 6.92 2.82 13.16
3/22/2021 5:45:00 PM 5.54 41.972 0.075 6.91 2.89 13.16
3/22/2021 6:00:00 PM 5.48 41.864 0.076 6.91 2.83 13.15
3/22/2021 6:15:00 PM 5.43 41.774 0.076 6.91 2.75 13.14
3/22/2021 6:30:00 PM 5.39 41.702 0.076 6.91 2.8 13.12
3/22/2021 6:45:00 PM 5.36 41.648 0.076 6.91 2.79 13.1
3/22/2021 7:00:00 PM 5.35 41.63 0.076 6.89 2.84 13.07
3/22/2021 7:15:00 PM 5.33 41.594 0.076 6.91 2.83 13.05
3/22/2021 7:30:00 PM 5.32 41.576 0.076 6.89 2.77 13.02
3/22/2021 7:45:00 PM 5.31 41.558 0.076 6.89 2.84 12.99
3/22/2021 8:00:00 PM 5.31 41.558 0.076 6.88 2.85 12.97
3/22/2021 8:15:00 PM 5.3 41.54 0.076 6.88 2.84 12.95
3/22/2021 8:30:00 PM 5.29 41.522 0.076 6.88 2.77 12.94
3/22/2021 8:45:00 PM 5.3 41.54 0.076 6.87 2.8 12.92
3/22/2021 9:00:00 PM 5.31 41.558 0.076 6.87 2.81 12.9
3/22/2021 9:15:00 PM 5.34 41.612 0.076 6.85 2.79 12.88
3/22/2021 9:30:00 PM 5.36 41.648 0.076 6.87 2.78 12.87
3/22/2021 9:45:00 PM 5.39 41.702 0.076 6.87 2.85 12.86
3/22/2021 10:00:00 PM 5.42 41.756 0.076 6.87 2.8 12.84
3/22/2021 10:15:00 PM 5.47 41.846 0.076 6.87 2.71 12.82
3/22/2021 10:30:00 PM 5.52 41.936 0.076 6.81 2.78 12.81
3/22/2021 10:45:00 PM 5.58 42.044 0.076 6.88 2.7 12.79
3/22/2021 11:00:00 PM 5.63 42.134 0.076 6.88 2.77 12.77
3/22/2021 11:15:00 PM 5.68 42.224 0.076 6.88 2.77 12.75
3/22/2021 11:30:00 PM 5.72 42.296 0.076 6.87 2.71 12.73
3/22/2021 11:45:00 PM 5.76 42.368 0.076 6.87 2.77 12.72
3/23/2021 12:00:00 AM 5.8 42.44 0.076 6.87 2.69 12.7
3/23/2021 12:15:00 AM 5.82 42.476 0.076 6.87 2.79 12.69
3/23/2021 12:30:00 AM 5.84 42.512 0.076 6.87 2.7 12.68
3/23/2021 12:45:00 AM 5.84 42.512 0.076 6.87 2.82 12.68
3/23/2021 1:00:00 AM 5.84 42.512 0.076 6.87 2.81 12.68
3/23/2021 1:15:00 AM 5.84 42.512 0.076 6.86 2.79 12.68
3/23/2021 1:30:00 AM 5.85 42.53 0.077 6.87 2.75 12.68
3/23/2021 1:45:00 AM 5.85 42.53 0.077 6.87 2.66 12.67
3/23/2021 2:00:00 AM 5.86 42.548 0.076 6.86 2.75 12.67
3/23/2021 2:15:00 AM 5.86 42.548 0.076 6.87 3.08 12.67
3/23/2021 2:30:00 AM 5.85 42.53 0.077 6.87 2.67 12.67
3/23/2021 2:45:00 AM 5.85 42.53 0.076 6.86 2.77 12.67
3/23/2021 3:00:00 AM 5.85 42.53 0.076 6.87 2.7 12.66
3/23/2021 3:15:00 AM 5.84 42.512 0.076 6.87 2.63 12.66
3/23/2021 3:30:00 AM 5.85 42.53 0.076 6.85 2.71 12.66
3/23/2021 3:45:00 AM 5.86 42.548 0.076 6.87 2.68 12.65
3/23/2021 4:00:00 AM 5.86 42.548 0.076 6.87 2.73 12.65
3/23/2021 4:15:00 AM 5.86 42.548 0.076 6.86 2.7 12.65
3/23/2021 4:30:00 AM 5.86 42.548 0.076 6.87 2.77 12.64
3/23/2021 4:45:00 AM 5.85 42.53 0.076 6.86 2.66 12.64
3/23/2021 5:00:00 AM 5.84 42.512 0.076 6.85 2.73 12.65
3/23/2021 5:15:00 AM 5.82 42.476 0.076 6.86 2.73 12.64
3/23/2021 5:30:00 AM 5.8 42.44 0.076 6.86 2.79 12.65
3/23/2021 5:45:00 AM 5.79 42.422 0.076 6.86 2.84 12.65
3/23/2021 6:00:00 AM 5.77 42.386 0.076 6.86 2.69 12.66
3/23/2021 6:15:00 AM 5.75 42.35 0.076 6.85 2.7 12.66
3/23/2021 6:30:00 AM 5.73 42.314 0.076 6.86 2.77 12.66
3/23/2021 6:45:00 AM 5.71 42.278 0.076 6.85 2.86 12.67
3/23/2021 7:00:00 AM 5.69 42.242 0.076 6.85 2.76 12.68
3/23/2021 7:15:00 AM 5.66 42.188 0.076 6.85 2.81 12.69
3/23/2021 7:30:00 AM 5.64 42.152 0.076 6.85 2.79 12.71
3/23/2021 7:45:00 AM 5.61 42.098 0.076 6.86 2.76 12.74
3/23/2021 8:00:00 AM 5.59 42.062 0.076 6.86 2.72 12.77
3/23/2021 8:15:00 AM 5.58 42.044 0.076 6.87 2.77 12.8
3/23/2021 8:30:00 AM 5.57 42.026 0.076 6.87 2.7 12.82
3/23/2021 8:45:00 AM 5.57 42.026 0.076 6.88 2.8 12.85
3/23/2021 9:00:00 AM 5.58 42.044 0.076 6.89 2.8 12.88
3/23/2021 9:15:00 AM 5.6 42.08 0.076 6.9 2.69 12.91
3/23/2021 9:30:00 AM 5.63 42.134 0.076 6.91 2.7 12.93
3/23/2021 9:45:00 AM 5.66 42.188 0.076 6.91 2.68 12.96
3/23/2021 10:00:00 AM 5.69 42.242 0.076 6.92 2.65 12.98
3/23/2021 10:15:00 AM 5.73 42.314 0.076 6.92 2.7 13
3/23/2021 10:30:00 AM 5.78 42.404 0.076 6.93 2.68 13.01
3/23/2021 10:45:00 AM 5.86 42.548 0.076 6.94 2.65 13.02
3/23/2021 11:00:00 AM 5.95 42.71 0.076 6.95 2.71 13.02
3/23/2021 11:15:00 AM 6.06 42.908 0.076 6.96 2.68 13.01
3/23/2021 11:30:00 AM 6.17 43.106 0.076 6.96 2.78 13.01
3/23/2021 11:45:00 AM 6.29 43.322 0.076 6.97 2.69 13
3/23/2021 12:00:00 PM 6.42 43.556 0.076 6.97 2.75 12.99
3/23/2021 12:15:00 PM 6.53 43.754 0.076 6.98 2.66 12.98
3/23/2021 12:30:00 PM 6.64 43.952 0.076 6.98 2.7 12.97
3/23/2021 12:45:00 PM 6.72 44.096 0.076 6.99 2.66 12.96
3/23/2021 1:00:00 PM 6.83 44.294 0.076 6.99 2.83 12.95
3/23/2021 1:15:00 PM 6.92 44.456 0.076 6.99 2.67 12.93
3/23/2021 1:30:00 PM 7.01 44.618 0.076 6.99 2.69 12.91
3/23/2021 1:45:00 PM 7.02 44.636 0.076 6.99 2.7 12.91
3/23/2021 2:00:00 PM 6.99 44.582 0.076 6.98 2.69 12.9
3/23/2021 2:15:00 PM 6.96 44.528 0.076 6.98 2.68 12.91
3/23/2021 2:30:00 PM 6.95 44.51 0.076 6.98 2.73 12.92
3/23/2021 2:45:00 PM 6.88 44.384 0.076 6.98 2.78 12.93
3/23/2021 3:00:00 PM 6.83 44.294 0.076 6.97 2.81 12.94
3/23/2021 3:15:00 PM 6.75 44.15 0.076 6.98 2.78 12.95
3/23/2021 3:30:00 PM 6.64 43.952 0.076 6.97 3.09 12.97
3/23/2021 3:45:00 PM 6.54 43.772 0.077 6.97 2.71 12.98
3/23/2021 4:00:00 PM 6.45 43.61 0.077 6.96 2.81 12.99
3/23/2021 4:15:00 PM 6.39 43.502 0.077 6.97 2.95 13
3/23/2021 4:30:00 PM 6.33 43.394 0.077 6.98 2.86 13
3/23/2021 4:45:00 PM 6.26 43.268 0.077 6.96 2.75 13
3/23/2021 5:00:00 PM 6.2 43.16 0.077 6.97 2.7 13
3/23/2021 5:15:00 PM 6.15 43.07 0.077 6.97 2.65 13.01
3/23/2021 5:30:00 PM 6.11 42.998 0.077 6.95 2.79 13.01
3/23/2021 5:45:00 PM 6.07 42.926 0.077 6.97 2.63 13
3/23/2021 6:00:00 PM 6.04 42.872 0.077 6.97 2.81 12.98
3/23/2021 6:15:00 PM 6.02 42.836 0.077 6.97 2.64 12.98
3/23/2021 6:30:00 PM 5.99 42.782 0.077 6.97 2.68 12.96
3/23/2021 6:45:00 PM 5.97 42.746 0.077 6.96 2.77 12.94
3/23/2021 7:00:00 PM 5.96 42.728 0.077 6.96 2.69 12.91
3/23/2021 7:15:00 PM 5.94 42.692 0.077 6.95 2.77 12.87
3/23/2021 7:30:00 PM 5.92 42.656 0.077 6.94 2.71 12.83
3/23/2021 7:45:00 PM 5.89 42.602 0.078 6.93 2.74 12.8
3/23/2021 8:00:00 PM 5.86 42.548 0.078 6.92 2.72 12.77
3/23/2021 8:15:00 PM 5.85 42.53 0.078 6.91 2.68 12.75
3/23/2021 8:30:00 PM 5.85 42.53 0.078 6.91 2.72 12.73
3/23/2021 8:45:00 PM 5.85 42.53 0.077 6.91 2.66 12.7
3/23/2021 9:00:00 PM 5.85 42.53 0.078 6.9 2.67 12.69
3/23/2021 9:15:00 PM 5.84 42.512 0.078 6.88 2.7 12.68
3/23/2021 9:30:00 PM 5.84 42.512 0.078 6.89 2.63 12.67
3/23/2021 9:45:00 PM 5.85 42.53 0.077 6.89 2.73 12.66
3/23/2021 10:00:00 PM 5.86 42.548 0.077 6.89 2.71 12.65
3/23/2021 10:15:00 PM 5.88 42.584 0.077 6.88 2.81 12.64
3/23/2021 10:30:00 PM 5.9 42.62 0.078 6.88 2.81 12.63
3/23/2021 10:45:00 PM 5.94 42.692 0.077 6.88 2.73 12.61
3/23/2021 11:00:00 PM 5.97 42.746 0.077 6.89 2.7 12.6
3/23/2021 11:15:00 PM 6 42.8 0.077 6.89 2.7 12.59
3/23/2021 11:30:00 PM 6.03 42.854 0.077 6.89 2.75 12.57
3/23/2021 11:45:00 PM 6.06 42.908 0.077 6.86 2.69 12.56
3/24/2021 12:00:00 AM 6.08 42.944 0.077 6.89 2.69 12.55
3/24/2021 12:15:00 AM 6.1 42.98 0.077 6.89 2.69 12.54
3/24/2021 12:30:00 AM 6.12 43.016 0.077 6.88 2.66 12.53
3/24/2021 12:45:00 AM 6.14 43.052 0.077 6.89 2.58 12.53
3/24/2021 1:00:00 AM 6.17 43.106 0.077 6.89 2.72 12.52
3/24/2021 1:15:00 AM 6.2 43.16 0.077 6.89 2.76 12.51
3/24/2021 1:30:00 AM 6.22 43.196 0.077 6.89 2.76 12.51
3/24/2021 1:45:00 AM 6.23 43.214 0.077 6.89 2.71 12.5
3/24/2021 2:00:00 AM 6.24 43.232 0.077 6.88 2.69 12.49
3/24/2021 2:15:00 AM 6.26 43.268 0.077 6.87 2.77 12.49
3/24/2021 2:30:00 AM 6.27 43.286 0.077 6.86 2.67 12.48
3/24/2021 2:45:00 AM 6.29 43.322 0.077 6.89 2.66 12.48
3/24/2021 3:00:00 AM 6.3 43.34 0.077 6.89 2.72 12.47
3/24/2021 3:15:00 AM 6.32 43.376 0.077 6.89 2.81 12.47
3/24/2021 3:30:00 AM 6.34 43.412 0.077 6.89 2.67 12.46
3/24/2021 3:45:00 AM 6.35 43.43 0.077 6.89 2.65 12.45
3/24/2021 4:00:00 AM 6.37 43.466 0.077 6.88 2.66 12.45
3/24/2021 4:15:00 AM 6.39 43.502 0.077 6.89 2.6 12.44
3/24/2021 4:30:00 AM 6.4 43.52 0.077 6.89 2.64 12.44
3/24/2021 4:45:00 AM 6.42 43.556 0.077 6.89 2.63 12.43
3/24/2021 5:00:00 AM 6.44 43.592 0.077 6.89 2.58 12.42
3/24/2021 5:15:00 AM 6.46 43.628 0.077 6.88 2.69 12.41
3/24/2021 5:30:00 AM 6.49 43.682 0.077 6.89 2.71 12.41
3/24/2021 5:45:00 AM 6.51 43.718 0.077 6.89 2.64 12.4
3/24/2021 6:00:00 AM 6.52 43.736 0.077 6.89 2.63 12.39
3/24/2021 6:15:00 AM 6.54 43.772 0.077 6.88 2.56 12.39
3/24/2021 6:30:00 AM 6.55 43.79 0.076 6.88 2.61 12.38
3/24/2021 6:45:00 AM 6.55 43.79 0.076 6.88 2.66 12.37
3/24/2021 7:00:00 AM 6.55 43.79 0.076 6.88 2.69 12.37
3/24/2021 7:15:00 AM 6.55 43.79 0.076 6.88 2.7 12.37
3/24/2021 7:30:00 AM 6.55 43.79 0.076 6.87 2.65 12.37
3/24/2021 7:45:00 AM 6.54 43.772 0.076 6.87 2.71 12.37
3/24/2021 8:00:00 AM 6.54 43.772 0.076 6.8 2.73 12.38
3/24/2021 8:15:00 AM 6.53 43.754 0.076 6.87 2.65 12.39
3/24/2021 8:30:00 AM 6.54 43.772 0.076 6.87 2.84 12.39
3/24/2021 8:45:00 AM 6.54 43.772 0.076 6.88 3.3 12.4
3/24/2021 9:00:00 AM 6.55 43.79 0.076 6.89 4.29 12.41
3/24/2021 9:15:00 AM 6.56 43.808 0.076 6.9 4.68 12.42
3/24/2021 9:30:00 AM 6.56 43.808 0.076 6.89 4.15 12.43
3/24/2021 9:45:00 AM 6.55 43.79 0.076 6.9 4.28 12.44
3/24/2021 10:00:00 AM 6.55 43.79 0.076 6.9 4.32 12.46
3/24/2021 10:15:00 AM 6.55 43.79 0.076 6.89 3.84 12.5
3/24/2021 10:30:00 AM 6.56 43.808 0.076 6.9 3.9 12.53
3/24/2021 10:45:00 AM 6.57 43.826 0.075 6.91 3.8 12.56
3/24/2021 11:00:00 AM 6.57 43.826 0.075 6.92 3.34 12.58
3/24/2021 11:15:00 AM 6.58 43.844 0.076 6.92 3.14 12.6
3/24/2021 11:30:00 AM 6.59 43.862 0.076 6.93 3.2 12.62
3/24/2021 11:45:00 AM 6.61 43.898 0.075 6.94 3.29 12.64
3/24/2021 12:00:00 PM 6.63 43.934 0.075 6.95 2.84 12.66
3/24/2021 12:15:00 PM 6.65 43.97 0.076 6.95 2.96 12.68
3/24/2021 12:30:00 PM 6.66 43.988 0.076 6.96 2.88 12.69
3/24/2021 12:45:00 PM 6.67 44.006 0.076 6.96 2.93 12.69
3/24/2021 1:00:00 PM 6.68 44.024 0.076 6.96 2.89 12.69
3/24/2021 1:15:00 PM 6.68 44.024 0.076 6.97 2.96 12.69
3/24/2021 1:30:00 PM 6.69 44.042 0.076 6.97 2.81 12.68
3/24/2021 1:45:00 PM 6.69 44.042 0.075 6.97 2.82 12.67
3/24/2021 2:00:00 PM 6.69 44.042 0.075 6.96 2.88 12.67
3/24/2021 2:15:00 PM 6.69 44.042 0.075 6.96 3.61 12.66
3/24/2021 2:30:00 PM 6.68 44.024 0.075 6.96 2.84 12.65
3/24/2021 2:45:00 PM 6.68 44.024 0.075 6.96 2.84 12.65
3/24/2021 3:00:00 PM 6.69 44.042 0.075 6.96 2.72 12.66
3/24/2021 3:15:00 PM 6.71 44.078 0.075 6.97 2.84 12.67
3/24/2021 3:30:00 PM 6.74 44.132 0.075 6.97 2.85 12.67
3/24/2021 3:45:00 PM 6.76 44.168 0.076 6.98 2.74 12.67
3/24/2021 4:00:00 PM 6.77 44.186 0.076 6.96 2.81 12.67
3/24/2021 4:15:00 PM 6.77 44.186 0.076 6.98 2.81 12.66
3/24/2021 4:30:00 PM 6.79 44.222 0.075 6.97 2.84 12.66
3/24/2021 4:45:00 PM 6.77 44.186 0.076 6.97 2.76 12.65
3/24/2021 5:00:00 PM 6.76 44.168 0.075 6.96 2.82 12.63
3/24/2021 5:15:00 PM 6.73 44.114 0.076 6.96 2.74 12.61
3/24/2021 5:30:00 PM 6.71 44.078 0.076 6.95 2.81 12.59
3/24/2021 5:45:00 PM 6.7 44.06 0.076 6.94 2.81 12.58
3/24/2021 6:00:00 PM 6.68 44.024 0.076 6.94 2.81 12.57
3/24/2021 6:15:00 PM 6.68 44.024 0.076 6.93 2.81 12.55
3/24/2021 6:30:00 PM 6.67 44.006 0.077 6.93 2.9 12.55
3/24/2021 6:45:00 PM 6.66 43.988 0.077 6.93 2.77 12.54
3/24/2021 7:00:00 PM 6.65 43.97 0.077 6.92 2.83 12.53
3/24/2021 7:15:00 PM 6.64 43.952 0.077 6.92 2.83 12.52
3/24/2021 7:30:00 PM 6.64 43.952 0.077 6.91 2.85 12.5
3/24/2021 7:45:00 PM 6.64 43.952 0.078 6.91 2.92 12.48
3/24/2021 8:00:00 PM 6.65 43.97 0.077 6.9 2.84 12.47
3/24/2021 8:15:00 PM 6.65 43.97 0.078 6.9 2.92 12.46
3/24/2021 8:30:00 PM 6.66 43.988 0.078 6.89 2.98 12.45
3/24/2021 8:45:00 PM 6.67 44.006 0.079 6.89 3.13 12.43
3/24/2021 9:00:00 PM 6.68 44.024 0.079 6.89 3.03 12.42
3/24/2021 9:15:00 PM 6.69 44.042 0.079 6.89 3.14 12.42
3/24/2021 9:30:00 PM 6.7 44.06 0.079 6.89 3.09 12.41
3/24/2021 9:45:00 PM 6.71 44.078 0.079 6.89 3.05 12.41
3/24/2021 10:00:00 PM 6.73 44.114 0.079 6.89 2.98 12.41
3/24/2021 10:15:00 PM 6.73 44.114 0.079 6.89 3.23 12.41
3/24/2021 10:30:00 PM 6.73 44.114 0.079 6.88 3.06 12.41
3/24/2021 10:45:00 PM 6.74 44.132 0.079 6.88 3.11 12.41
3/24/2021 11:00:00 PM 6.74 44.132 0.078 6.88 3.13 12.41
3/24/2021 11:15:00 PM 6.74 44.132 0.078 6.88 3.03 12.41
3/24/2021 11:30:00 PM 6.75 44.15 0.078 6.87 3.2 12.4
3/24/2021 11:45:00 PM 6.77 44.186 0.077 6.88 3.14 12.4
3/25/2021 12:00:00 AM 6.79 44.222 0.077 6.88 3.18 12.39
3/25/2021 12:15:00 AM 6.8 44.24 0.077 6.88 3.32 12.38
3/25/2021 12:30:00 AM 6.82 44.276 0.077 6.87 3.19 12.38
3/25/2021 12:45:00 AM 6.84 44.312 0.076 6.88 3.28 12.37
3/25/2021 1:00:00 AM 6.85 44.33 0.076 6.86 3.41 12.37
3/25/2021 1:15:00 AM 6.86 44.348 0.076 6.87 3.23 12.37
3/25/2021 1:30:00 AM 6.87 44.366 0.076 6.87 3.46 12.36
3/25/2021 1:45:00 AM 6.87 44.366 0.076 6.86 3.51 12.36
3/25/2021 2:00:00 AM 6.88 44.384 0.075 6.86 3.4 12.36
3/25/2021 2:15:00 AM 6.88 44.384 0.076 6.86 3.44 12.35
3/25/2021 2:30:00 AM 6.88 44.384 0.076 6.86 3.37 12.35
3/25/2021 2:45:00 AM 6.89 44.402 0.075 6.86 3.44 12.34
3/25/2021 3:00:00 AM 6.9 44.42 0.075 6.86 3.48 12.34
3/25/2021 3:15:00 AM 6.91 44.438 0.075 6.86 3.5 12.33
3/25/2021 3:30:00 AM 6.91 44.438 0.075 6.86 3.39 12.33
3/25/2021 3:45:00 AM 6.92 44.456 0.075 6.86 3.53 12.32
3/25/2021 4:00:00 AM 6.93 44.474 0.075 6.86 3.62 12.32
3/25/2021 4:15:00 AM 6.93 44.474 0.075 6.86 3.69 12.31
3/25/2021 4:30:00 AM 6.94 44.492 0.075 6.86 3.62 12.31
3/25/2021 4:45:00 AM 6.93 44.474 0.075 6.85 3.66 12.31
3/25/2021 5:00:00 AM 6.93 44.474 0.075 6.85 3.59 12.31
3/25/2021 5:15:00 AM 6.93 44.474 0.075 6.85 3.73 12.31
3/25/2021 5:30:00 AM 6.93 44.474 0.076 6.85 3.63 12.31
3/25/2021 5:45:00 AM 6.94 44.492 0.076 6.85 3.77 12.31
3/25/2021 6:00:00 AM 6.94 44.492 0.076 6.85 3.63 12.3
3/25/2021 6:15:00 AM 6.95 44.51 0.076 6.85 3.79 12.3
3/25/2021 6:30:00 AM 6.96 44.528 0.076 6.85 3.85 12.3
3/25/2021 6:45:00 AM 6.97 44.546 0.076 6.85 3.88 12.29
3/25/2021 7:00:00 AM 6.97 44.546 0.076 6.84 3.86 12.29
3/25/2021 7:15:00 AM 6.98 44.564 0.076 6.85 3.89 12.29
3/25/2021 7:30:00 AM 6.98 44.564 0.076 6.85 3.78 12.3
3/25/2021 7:45:00 AM 6.98 44.564 0.076 6.85 3.83 12.32
3/25/2021 8:00:00 AM 6.98 44.564 0.076 6.85 3.76 12.34
3/25/2021 8:15:00 AM 6.99 44.582 0.076 6.86 3.8 12.36
3/25/2021 8:30:00 AM 7 44.6 0.076 6.85 4.02 12.38
3/25/2021 8:45:00 AM 7.01 44.618 0.076 6.86 3.9 12.4
3/25/2021 9:00:00 AM 7.03 44.654 0.076 6.87 3.93 12.43
3/25/2021 9:15:00 AM 7.06 44.708 0.076 6.89 4.02 12.46
3/25/2021 9:30:00 AM 7.09 44.762 0.076 6.89 3.93 12.49
3/25/2021 9:45:00 AM 7.13 44.834 0.076 6.9 3.96 12.52
3/25/2021 10:00:00 AM 7.16 44.888 0.076 6.91 3.88 12.54
3/25/2021 10:15:00 AM 7.19 44.942 0.076 6.92 3.78 12.56
3/25/2021 10:30:00 AM 7.24 45.032 0.076 6.93 3.8 12.58
3/25/2021 10:45:00 AM 7.29 45.122 0.076 6.95 3.91 12.59
3/25/2021 11:00:00 AM 7.35 45.23 0.076 6.96 3.69 12.6
3/25/2021 11:15:00 AM 7.4 45.32 0.076 6.96 4.04 12.6
3/25/2021 11:30:00 AM 7.46 45.428 0.076 6.97 3.75 12.61
3/25/2021 11:45:00 AM 7.58 45.644 0.076 6.98 3.75 12.61
3/25/2021 12:00:00 PM 7.72 45.896 0.076 6.99 3.84 12.6
3/25/2021 12:15:00 PM 7.79 46.022 0.076 6.99 3.73 12.6
3/25/2021 12:30:00 PM 7.88 46.184 0.076 7 3.77 12.58
3/25/2021 12:45:00 PM 7.97 46.346 0.076 7 3.69 12.57
3/25/2021 1:00:00 PM 8.07 46.526 0.076 7 3.79 12.56
3/25/2021 1:15:00 PM 8.17 46.706 0.076 7.01 3.54 12.55
3/25/2021 1:30:00 PM 8.25 46.85 0.076 7 3.55 12.54
3/25/2021 1:45:00 PM 8.32 46.976 0.076 7.01 3.55 12.52
3/25/2021 2:00:00 PM 8.37 47.066 0.076 7 3.68 12.51
3/25/2021 2:15:00 PM 8.41 47.138 0.077 7 3.56 12.51
3/25/2021 2:30:00 PM 8.43 47.174 0.077 7 3.62 12.5
3/25/2021 2:45:00 PM 8.44 47.192 0.077 7 3.69 12.49
3/25/2021 3:00:00 PM 8.41 47.138 0.078 7 3.48 12.48
3/25/2021 3:15:00 PM 8.37 47.066 0.077 6.99 3.9 12.47
3/25/2021 3:30:00 PM 8.32 46.976 0.076 6.99 3.52 12.46
3/25/2021 3:45:00 PM 8.27 46.886 0.076 7 3.75 12.45
3/25/2021 4:00:00 PM 8.24 46.832 0.077 6.99 4.03 12.45
3/25/2021 4:15:00 PM 8.21 46.778 0.076 6.99 3.42 12.44
3/25/2021 4:30:00 PM 8.17 46.706 0.077 7 3.38 12.43
3/25/2021 4:45:00 PM 8.13 46.634 0.077 6.99 3.43 12.43
3/25/2021 5:00:00 PM 8.06 46.508 0.077 6.98 3.53 12.42
3/25/2021 5:15:00 PM 8.01 46.418 0.077 6.98 3.38 12.41
3/25/2021 5:30:00 PM 7.96 46.328 0.077 6.98 3.48 12.4
3/25/2021 5:45:00 PM 7.93 46.274 0.077 6.97 3.53 12.38
3/25/2021 6:00:00 PM 7.91 46.238 0.077 6.98 3.5 12.35
3/25/2021 6:15:00 PM 7.92 46.256 0.077 6.97 3.54 12.32
3/25/2021 6:30:00 PM 7.93 46.274 0.077 6.97 3.41 12.29
3/25/2021 6:45:00 PM 7.91 46.238 0.077 6.96 3.39 12.25
3/25/2021 7:00:00 PM 7.88 46.184 0.077 6.94 3.37 12.22
3/25/2021 7:15:00 PM 7.87 46.166 0.077 6.94 3.43 12.18
3/25/2021 7:30:00 PM 7.9 46.22 0.077 6.93 3.48 12.14
3/25/2021 7:45:00 PM 7.96 46.328 0.077 6.94 3.42 12.09
3/25/2021 8:00:00 PM 8.02 46.436 0.077 6.93 3.41 12.05
3/25/2021 8:15:00 PM 8.09 46.562 0.077 6.93 3.44 12.01
3/25/2021 8:30:00 PM 8.17 46.706 0.077 6.93 3.44 11.97
3/25/2021 8:45:00 PM 8.27 46.886 0.078 6.93 3.43 11.92
3/25/2021 9:00:00 PM 8.37 47.066 0.077 6.93 3.38 11.89
3/25/2021 9:15:00 PM 8.46 47.228 0.078 6.93 3.27 11.85
3/25/2021 9:30:00 PM 8.53 47.354 0.077 6.92 3.35 11.82
3/25/2021 9:45:00 PM 8.58 47.444 0.077 6.89 3.25 11.8
3/25/2021 10:00:00 PM 8.61 47.498 0.077 6.91 3.27 11.79
3/25/2021 10:15:00 PM 8.65 47.57 0.077 6.91 3.28 11.77
3/25/2021 10:30:00 PM 8.69 47.642 0.077 6.91 3.26 11.76
3/25/2021 10:45:00 PM 8.71 47.678 0.077 6.91 3.3 11.75
3/25/2021 11:00:00 PM 8.74 47.732 0.077 6.91 3.26 11.73
3/25/2021 11:15:00 PM 8.79 47.822 0.077 6.84 3.15 11.71
3/25/2021 11:30:00 PM 8.85 47.93 0.077 6.91 3.26 11.7
3/25/2021 11:45:00 PM 8.9 48.02 0.077 6.9 3.12 11.68
3/26/2021 12:00:00 AM 8.94 48.092 0.077 6.91 3.08 11.67
3/26/2021 12:15:00 AM 8.97 48.146 0.077 6.91 3.15 11.66
3/26/2021 12:30:00 AM 8.99 48.182 0.077 6.91 3.14 11.65
3/26/2021 12:45:00 AM 8.98 48.164 0.077 6.9 3.18 11.65
3/26/2021 1:00:00 AM 8.98 48.164 0.077 6.88 3.19 11.64
3/26/2021 1:15:00 AM 8.98 48.164 0.076 6.9 3.05 11.64
3/26/2021 1:30:00 AM 8.98 48.164 0.076 6.89 3.08 11.63
3/26/2021 1:45:00 AM 8.98 48.164 0.077 6.89 3.07 11.63
3/26/2021 2:00:00 AM 8.98 48.164 0.077 6.89 3.1 11.63
3/26/2021 2:15:00 AM 8.98 48.164 0.076 6.89 3.11 11.63
3/26/2021 2:30:00 AM 8.98 48.164 0.077 6.89 3.03 11.62
3/26/2021 2:45:00 AM 8.97 48.146 0.077 6.89 3.15 11.62
3/26/2021 3:00:00 AM 8.98 48.164 0.077 6.89 3.1 11.61
3/26/2021 3:15:00 AM 9 48.2 0.076 6.89 3.09 11.61
3/26/2021 3:30:00 AM 9.02 48.236 0.077 6.9 3.04 11.59
3/26/2021 3:45:00 AM 9.04 48.272 0.076 6.89 3.11 11.58
3/26/2021 4:00:00 AM 9.07 48.326 0.076 6.88 3.12 11.57
3/26/2021 4:15:00 AM 9.06 48.308 0.076 6.89 3.01 11.56
3/26/2021 4:30:00 AM 9.07 48.326 0.076 6.88 3.12 11.55
3/26/2021 4:45:00 AM 9.09 48.362 0.076 6.88 3.13 11.53
3/26/2021 5:00:00 AM 9.11 48.398 0.076 6.88 2.99 11.52
3/26/2021 5:15:00 AM 9.12 48.416 0.076 6.88 3.09 11.51
3/26/2021 5:30:00 AM 9.13 48.434 0.076 6.87 2.98 11.5
3/26/2021 5:45:00 AM 9.11 48.398 0.076 6.87 3.04 11.5
3/26/2021 6:00:00 AM 9.11 48.398 0.076 6.87 3.09 11.49
3/26/2021 6:15:00 AM 9.1 48.38 0.076 6.87 3.11 11.49
3/26/2021 6:30:00 AM 9.1 48.38 0.076 6.86 2.93 11.49
3/26/2021 6:45:00 AM 9.1 48.38 0.076 6.87 3.13 11.49
3/26/2021 7:00:00 AM 9.1 48.38 0.076 6.87 3.14 11.49
3/26/2021 7:15:00 AM 9.1 48.38 0.076 6.87 3.16 11.49
3/26/2021 7:30:00 AM 9.09 48.362 0.076 6.87 3.11 11.5
3/26/2021 7:45:00 AM 9.09 48.362 0.076 6.88 3.12 11.52
3/26/2021 8:00:00 AM 9.12 48.416 0.076 6.89 3.1 11.54
3/26/2021 8:15:00 AM 9.13 48.434 0.076 6.89 3.14 11.55
3/26/2021 8:30:00 AM 9.14 48.452 0.076 6.89 3 11.57
3/26/2021 8:45:00 AM 9.18 48.524 0.076 6.9 3.06 11.59
3/26/2021 9:00:00 AM 9.24 48.632 0.076 6.93 3.18 11.63
3/26/2021 9:15:00 AM 9.33 48.794 0.076 6.93 3 11.66
3/26/2021 9:30:00 AM 9.4 48.92 0.076 6.95 3 11.68
3/26/2021 9:45:00 AM 9.48 49.064 0.076 6.97 3 11.7
3/26/2021 10:00:00 AM 9.53 49.154 0.076 6.98 2.97 11.71
3/26/2021 10:15:00 AM 9.61 49.298 0.076 6.99 2.99 11.73
3/26/2021 10:30:00 AM 9.69 49.442 0.076 7 3.01 11.73
3/26/2021 10:45:00 AM 9.73 49.514 0.076 7 3.14 11.75
3/26/2021 11:00:00 AM 9.75 49.55 0.076 7.01 3.17 11.76
3/26/2021 11:15:00 AM 9.76 49.568 0.076 7.01 3.29 11.76
3/26/2021 11:30:00 AM 9.76 49.568 0.076 7.01 3.4 11.78
3/26/2021 11:45:00 AM 9.73 49.514 0.076 7 4.28 11.8
3/26/2021 12:00:00 PM 9.77 49.586 0.076 7.02 3.2 11.8
3/26/2021 12:15:00 PM 9.9 49.82 0.076 7.02 3.19 11.8
3/26/2021 12:30:00 PM 10.01 50.018 0.076 7.03 3.2 11.79
3/26/2021 12:45:00 PM 9.99 49.982 0.076 7.02 3.14 11.77
3/26/2021 1:00:00 PM 9.97 49.946 0.076 7.03 3.14 11.77
3/26/2021 1:15:00 PM 9.94 49.892 0.077 7.03 3.26 11.75
3/26/2021 1:30:00 PM 9.88 49.784 0.077 7.03 3.63 11.75
3/26/2021 1:45:00 PM 9.86 49.748 0.077 7.05 3.08 11.76
3/26/2021 2:00:00 PM 9.95 49.91 0.077 7.05 3.12 11.78
3/26/2021 2:15:00 PM 10.02 50.036 0.077 7.04 3.3 11.77
3/26/2021 2:30:00 PM 10.01 50.018 0.077 7.05 3.08 11.76
3/26/2021 2:45:00 PM 9.93 49.874 0.077 7.04 3.06 11.76
3/26/2021 3:00:00 PM 9.9 49.82 0.077 7.05 3.12 11.76
3/26/2021 3:15:00 PM 9.89 49.802 0.077 7.05 3.34 11.77
3/26/2021 3:30:00 PM 9.94 49.892 0.077 7.01 3.11 11.77
3/26/2021 3:45:00 PM 9.9 49.82 0.077 7.05 3.14 11.77
3/26/2021 4:00:00 PM 9.88 49.784 0.077 7.04 3.18 11.78
3/26/2021 4:15:00 PM 9.83 49.694 0.077 7.02 3.16 11.78
3/26/2021 4:30:00 PM 9.78 49.604 0.077 7.02 3 11.76
3/26/2021 4:45:00 PM 9.77 49.586 0.077 7.02 3.22 11.76
3/26/2021 5:00:00 PM 9.77 49.586 0.077 7.03 3.06 11.76
3/26/2021 5:15:00 PM 9.76 49.568 0.077 7.03 3.04 11.76
3/26/2021 5:30:00 PM 9.73 49.514 0.077 7.02 3.21 11.75
3/26/2021 5:45:00 PM 9.69 49.442 0.077 7.01 3.25 11.72
3/26/2021 6:00:00 PM 9.67 49.406 0.077 7 3.14 11.71
3/26/2021 6:15:00 PM 9.64 49.352 0.077 7 3.42 11.69
3/26/2021 6:30:00 PM 9.63 49.334 0.077 6.99 3.23 11.67
3/26/2021 6:45:00 PM 9.61 49.298 0.077 6.92 3.23 11.65
3/26/2021 7:00:00 PM 9.59 49.262 0.077 6.99 3.26 11.62
3/26/2021 7:15:00 PM 9.59 49.262 0.077 6.97 3.13 11.59
3/26/2021 7:30:00 PM 9.58 49.244 0.077 6.97 3.14 11.56
3/26/2021 7:45:00 PM 9.58 49.244 0.077 6.95 3.18 11.52
3/26/2021 8:00:00 PM 9.57 49.226 0.077 6.94 3.54 11.5
3/26/2021 8:15:00 PM 9.57 49.226 0.077 6.92 3.21 11.47
3/26/2021 8:30:00 PM 9.56 49.208 0.077 6.9 3.16 11.47
3/26/2021 8:45:00 PM 9.54 49.172 0.077 6.92 3.27 11.45
3/26/2021 9:00:00 PM 9.53 49.154 0.077 6.91 3.51 11.44
3/26/2021 9:15:00 PM 9.54 49.172 0.077 6.91 3.2 11.44
3/26/2021 9:30:00 PM 9.56 49.208 0.077 6.91 3.15 11.44
3/26/2021 9:45:00 PM 9.59 49.262 0.077 6.91 3.19 11.42
3/26/2021 10:00:00 PM 9.62 49.316 0.077 6.91 3.39 11.42
3/26/2021 10:15:00 PM 9.66 49.388 0.077 6.91 3.27 11.42
3/26/2021 10:30:00 PM 9.71 49.478 0.078 6.92 3.4 11.4
3/26/2021 10:45:00 PM 9.76 49.568 0.078 6.92 3.32 11.38
3/26/2021 11:00:00 PM 9.81 49.658 0.078 6.93 3.14 11.38
3/26/2021 11:15:00 PM 9.85 49.73 0.078 6.93 3.22 11.37
3/26/2021 11:30:00 PM 9.89 49.802 0.078 6.93 3.3 11.36
3/26/2021 11:45:00 PM 9.91 49.838 0.078 6.93 3.21 11.35
3/27/2021 12:00:00 AM 9.92 49.856 0.078 6.93 3.4 11.35
3/27/2021 12:15:00 AM 9.92 49.856 0.078 6.93 3.27 11.34
3/27/2021 12:30:00 AM 9.92 49.856 0.078 6.94 3.08 11.34
3/27/2021 12:45:00 AM 9.92 49.856 0.077 6.93 3.13 11.34
3/27/2021 1:00:00 AM 9.92 49.856 0.077 6.93 3.12 11.35
3/27/2021 1:15:00 AM 9.9 49.82 0.077 6.93 3.05 11.35
3/27/2021 1:30:00 AM 9.89 49.802 0.077 6.92 3.04 11.36
3/27/2021 1:45:00 AM 9.87 49.766 0.078 6.92 3.09 11.36
3/27/2021 2:00:00 AM 9.85 49.73 0.077 6.92 3.13 11.37
3/27/2021 2:15:00 AM 9.84 49.712 0.077 6.92 3.16 11.37
3/27/2021 2:30:00 AM 9.82 49.676 0.077 6.92 3.08 11.37
3/27/2021 2:45:00 AM 9.81 49.658 0.078 6.91 3.01 11.37
3/27/2021 3:00:00 AM 9.8 49.64 0.078 6.91 3.03 11.38
3/27/2021 3:15:00 AM 9.79 49.622 0.078 6.91 3.17 11.38
3/27/2021 3:30:00 AM 9.78 49.604 0.077 6.91 3.2 11.38
3/27/2021 3:45:00 AM 9.77 49.586 0.077 6.91 3.04 11.38
3/27/2021 4:00:00 AM 9.77 49.586 0.078 6.91 3.05 11.38
3/27/2021 4:15:00 AM 9.75 49.55 0.078 6.91 3.19 11.38
3/27/2021 4:30:00 AM 9.73 49.514 0.078 6.91 2.98 11.39
3/27/2021 4:45:00 AM 9.71 49.478 0.078 6.91 3.08 11.39
3/27/2021 5:00:00 AM 9.68 49.424 0.078 6.91 3.03 11.39
3/27/2021 5:15:00 AM 9.65 49.37 0.077 6.9 3.28 11.4
3/27/2021 5:30:00 AM 9.61 49.298 0.077 6.9 2.9 11.41
3/27/2021 5:45:00 AM 9.58 49.244 0.077 6.9 2.99 11.42
3/27/2021 6:00:00 AM 9.55 49.19 0.077 6.9 3.33 11.42
3/27/2021 6:15:00 AM 9.51 49.118 0.077 6.9 3.09 11.43
3/27/2021 6:30:00 AM 9.47 49.046 0.077 6.89 3.14 11.44
3/27/2021 6:45:00 AM 9.44 48.992 0.077 6.89 3.17 11.44
3/27/2021 7:00:00 AM 9.41 48.938 0.077 6.89 3.08 11.45
3/27/2021 7:15:00 AM 9.38 48.884 0.077 6.89 3.19 11.47
3/27/2021 7:30:00 AM 9.35 48.83 0.077 6.9 2.96 11.5
3/27/2021 7:45:00 AM 9.32 48.776 0.077 6.89 3.13 11.53
3/27/2021 8:00:00 AM 9.29 48.722 0.077 6.91 3.43 11.57
3/27/2021 8:15:00 AM 9.26 48.668 0.077 6.92 3.17 11.6
3/27/2021 8:30:00 AM 9.24 48.632 0.077 6.92 3.06 11.63
3/27/2021 8:45:00 AM 9.24 48.632 0.077 6.94 3.19 11.68
3/27/2021 9:00:00 AM 9.24 48.632 0.077 6.95 3.14 11.72
3/27/2021 9:15:00 AM 9.25 48.65 0.077 6.95 3.16 11.75
3/27/2021 9:30:00 AM 9.26 48.668 0.077 6.96 3.08 11.78
3/27/2021 9:45:00 AM 9.27 48.686 0.077 6.97 3.17 11.81
3/27/2021 10:00:00 AM 9.28 48.704 0.077 6.98 3.06 11.84
3/27/2021 10:15:00 AM 9.31 48.758 0.077 6.99 3.14 11.87
3/27/2021 10:30:00 AM 9.35 48.83 0.077 6.94 2.99 11.89
3/27/2021 10:45:00 AM 9.43 48.974 0.077 7.01 3 11.91
3/27/2021 11:00:00 AM 9.52 49.136 0.077 7.02 3.05 11.92
3/27/2021 11:15:00 AM 9.54 49.172 0.077 7.03 3.09 11.93
3/27/2021 11:30:00 AM 9.65 49.37 0.077 7.04 2.99 11.94
3/27/2021 11:45:00 AM 9.78 49.604 0.077 7.05 3.07 11.94
3/27/2021 12:00:00 PM 9.89 49.802 0.077 7.05 3.14 11.93
3/27/2021 12:15:00 PM 10.02 50.036 0.077 7.05 3.12 11.92
3/27/2021 12:30:00 PM 10.13 50.234 0.077 7.06 2.99 11.91
3/27/2021 12:45:00 PM 10.2 50.36 0.077 7.06 2.95 11.91
3/27/2021 1:00:00 PM 10.3 50.54 0.077 7.06 3.06 11.9
3/27/2021 1:15:00 PM 10.36 50.648 0.077 7.06 3.01 11.89
3/27/2021 1:30:00 PM 10.39 50.702 0.078 7.06 2.89 11.89
3/27/2021 1:45:00 PM 10.43 50.774 0.078 7.06 3.01 11.89
3/27/2021 2:00:00 PM 10.48 50.864 0.077 7.06 3.05 11.89
3/27/2021 2:15:00 PM 10.49 50.882 0.077 7.06 3.07 11.9
3/27/2021 2:30:00 PM 10.46 50.828 0.078 7.06 3.07 11.9
3/27/2021 2:45:00 PM 10.45 50.81 0.077 7.06 3.09 11.9
3/27/2021 3:00:00 PM 10.4 50.72 0.078 7.06 2.93 11.9
3/27/2021 3:15:00 PM 10.3 50.54 0.078 7.05 2.98 11.9
3/27/2021 3:30:00 PM 10.21 50.378 0.078 7.05 3.04 11.91
3/27/2021 3:45:00 PM 10.1 50.18 0.078 7.04 2.91 11.91
3/27/2021 4:00:00 PM 9.98 49.964 0.078 7.05 2.94 11.93
3/27/2021 4:15:00 PM 9.86 49.748 0.078 7.04 3.13 11.94
3/27/2021 4:30:00 PM 9.75 49.55 0.078 7.04 2.95 11.95
3/27/2021 4:45:00 PM 9.66 49.388 0.078 7.04 3.06 11.96
3/27/2021 5:00:00 PM 9.58 49.244 0.078 7.04 2.91 11.96
3/27/2021 5:15:00 PM 9.51 49.118 0.078 7.04 3 11.97
3/27/2021 5:30:00 PM 9.41 48.938 0.078 7.03 2.97 11.98
3/27/2021 5:45:00 PM 9.33 48.794 0.078 7.03 3.09 11.98
3/27/2021 6:00:00 PM 9.27 48.686 0.078 7.04 2.92 11.98
3/27/2021 6:15:00 PM 9.2 48.56 0.078 7.03 2.98 11.96
3/27/2021 6:30:00 PM 9.14 48.452 0.079 7.02 3.02 11.93
3/27/2021 6:45:00 PM 9.09 48.362 0.079 7.01 2.99 11.91
3/27/2021 7:00:00 PM 9.05 48.29 0.079 6.99 2.84 11.87
3/27/2021 7:15:00 PM 9.01 48.218 0.079 7 3.01 11.83
3/27/2021 7:30:00 PM 8.98 48.164 0.079 6.99 2.84 11.79
3/27/2021 7:45:00 PM 8.96 48.128 0.079 6.97 2.99 11.74
3/27/2021 8:00:00 PM 8.93 48.074 0.079 6.96 2.95 11.71
3/27/2021 8:15:00 PM 8.91 48.038 0.079 6.95 2.89 11.68
3/27/2021 8:30:00 PM 8.91 48.038 0.079 6.95 2.97 11.65
3/27/2021 8:45:00 PM 8.93 48.074 0.079 6.94 3.15 11.62
3/27/2021 9:00:00 PM 8.97 48.146 0.079 6.94 2.94 11.58
3/27/2021 9:15:00 PM 9.01 48.218 0.079 6.93 3 11.56
3/27/2021 9:30:00 PM 9.06 48.308 0.079 6.93 2.97 11.53
3/27/2021 9:45:00 PM 9.1 48.38 0.079 6.93 2.81 11.51
3/27/2021 10:00:00 PM 9.15 48.47 0.079 6.93 3.2 11.49
3/27/2021 10:15:00 PM 9.21 48.578 0.079 6.93 2.91 11.47
3/27/2021 10:30:00 PM 9.26 48.668 0.079 6.9 2.83 11.45
3/27/2021 10:45:00 PM 9.31 48.758 0.079 6.93 2.84 11.44
3/27/2021 11:00:00 PM 9.35 48.83 0.079 6.92 2.81 11.42
3/27/2021 11:15:00 PM 9.4 48.92 0.079 6.92 2.88 11.4
3/27/2021 11:30:00 PM 9.46 49.028 0.079 6.92 2.83 11.38
3/27/2021 11:45:00 PM 9.51 49.118 0.079 6.92 2.81 11.36
3/28/2021 12:00:00 AM 9.56 49.208 0.08 6.92 2.9 11.35
3/28/2021 12:15:00 AM 9.59 49.262 0.08 6.93 2.72 11.33
3/28/2021 12:30:00 AM 9.61 49.298 0.08 6.92 2.88 11.32
3/28/2021 12:45:00 AM 9.63 49.334 0.08 6.92 3.25 11.31
3/28/2021 1:00:00 AM 9.63 49.334 0.08 6.91 2.9 11.31
3/28/2021 1:15:00 AM 9.63 49.334 0.08 6.92 2.81 11.31
3/28/2021 1:30:00 AM 9.62 49.316 0.08 6.92 2.84 11.31
3/28/2021 1:45:00 AM 9.61 49.298 0.08 6.91 2.88 11.31
3/28/2021 2:00:00 AM 9.61 49.298 0.08 6.9 2.86 11.31
3/28/2021 2:15:00 AM 9.6 49.28 0.08 6.91 2.75 11.31
3/28/2021 2:30:00 AM 9.59 49.262 0.08 6.91 2.97 11.31
3/28/2021 2:45:00 AM 9.57 49.226 0.08 6.9 2.66 11.3
3/28/2021 3:00:00 AM 9.56 49.208 0.08 6.91 2.73 11.31
3/28/2021 3:15:00 AM 9.55 49.19 0.08 6.92 2.8 11.3
3/28/2021 3:30:00 AM 9.54 49.172 0.08 6.92 2.87 11.31
3/28/2021 3:45:00 AM 9.53 49.154 0.08 6.92 2.66 11.31
3/28/2021 4:00:00 AM 9.52 49.136 0.08 6.92 2.76 11.31
3/28/2021 4:15:00 AM 9.51 49.118 0.08 6.92 2.87 11.31
3/28/2021 4:30:00 AM 9.51 49.118 0.08 6.91 2.68 11.31
3/28/2021 4:45:00 AM 9.5 49.1 0.08 6.92 2.6 11.31
3/28/2021 5:00:00 AM 9.49 49.082 0.08 6.92 2.68 11.31
3/28/2021 5:15:00 AM 9.48 49.064 0.08 6.91 2.88 11.31
3/28/2021 5:30:00 AM 9.48 49.064 0.08 6.91 2.77 11.31
3/28/2021 5:45:00 AM 9.47 49.046 0.08 6.91 2.64 11.31
3/28/2021 6:00:00 AM 9.49 49.082 0.08 6.91 2.73 11.31
3/28/2021 6:15:00 AM 9.5 49.1 0.08 6.91 2.89 11.3
3/28/2021 6:30:00 AM 9.52 49.136 0.08 6.91 2.79 11.3
3/28/2021 6:45:00 AM 9.53 49.154 0.08 6.91 2.92 11.29
3/28/2021 7:00:00 AM 9.54 49.172 0.08 6.91 2.81 11.29
3/28/2021 7:15:00 AM 9.55 49.19 0.08 6.91 2.87 11.29
3/28/2021 7:30:00 AM 9.56 49.208 0.08 6.91 2.71 11.29
3/28/2021 7:45:00 AM 9.58 49.244 0.08 6.91 2.83 11.3
3/28/2021 8:00:00 AM 9.58 49.244 0.081 6.91 2.82 11.31
3/28/2021 8:15:00 AM 9.58 49.244 0.081 6.92 2.85 11.32
3/28/2021 8:30:00 AM 9.57 49.226 0.082 6.92 2.86 11.34
3/28/2021 8:45:00 AM 9.57 49.226 0.081 6.93 2.7 11.37
3/28/2021 9:00:00 AM 9.58 49.244 0.08 6.94 2.8 11.39
3/28/2021 9:15:00 AM 9.57 49.226 0.081 6.94 2.72 11.39
3/28/2021 9:30:00 AM 9.57 49.226 0.081 6.94 2.7 11.4
3/28/2021 9:45:00 AM 9.57 49.226 0.081 6.95 2.7 11.41
3/28/2021 10:00:00 AM 9.56 49.208 0.081 6.96 2.85 11.44
3/28/2021 10:15:00 AM 9.57 49.226 0.081 6.95 2.87 11.49
3/28/2021 10:30:00 AM 9.56 49.208 0.081 6.97 2.89 11.51
3/28/2021 10:45:00 AM 9.54 49.172 0.081 6.97 2.74 11.52
3/28/2021 11:00:00 AM 9.54 49.172 0.081 6.98 2.88 11.55
3/28/2021 11:15:00 AM 9.52 49.136 0.081 7 2.93 11.57
3/28/2021 11:30:00 AM 9.49 49.082 0.081 6.98 2.88 11.57
3/28/2021 11:45:00 AM 9.47 49.046 0.081 6.98 3.04 11.59
3/28/2021 12:00:00 PM 9.46 49.028 0.081 6.99 2.88 11.62
3/28/2021 12:15:00 PM 9.45 49.01 0.081 7 2.81 11.65
3/28/2021 12:30:00 PM 9.43 48.974 0.081 7.01 2.85 11.66
3/28/2021 12:45:00 PM 9.42 48.956 0.082 7.02 2.8 11.69
3/28/2021 1:00:00 PM 9.42 48.956 0.082 7.02 2.96 11.7
3/28/2021 1:15:00 PM 9.42 48.956 0.082 7.02 2.84 11.72
3/28/2021 1:30:00 PM 9.4 48.92 0.082 7.01 3.3 11.73
3/28/2021 1:45:00 PM 9.39 48.902 0.082 7.03 2.82 11.75
3/28/2021 2:00:00 PM 9.34 48.812 0.082 7.03 2.78 11.73
3/28/2021 2:15:00 PM 9.29 48.722 0.082 7.02 2.81 11.7
3/28/2021 2:30:00 PM 9.25 48.65 0.082 7.01 2.76 11.68
3/28/2021 2:45:00 PM 9.23 48.614 0.082 6.99 2.82 11.69
3/28/2021 3:00:00 PM 9.23 48.614 0.083 7.03 2.79 11.7
3/28/2021 3:15:00 PM 9.22 48.596 0.082 7.02 2.79 11.69
3/28/2021 3:30:00 PM 9.23 48.614 0.082 7.02 2.91 11.66
3/28/2021 3:45:00 PM 9.2 48.56 0.082 7.01 3.22 11.66
3/28/2021 4:00:00 PM 9.15 48.47 0.083 7.02 3.17 11.64
3/28/2021 4:15:00 PM 9.12 48.416 0.083 7.02 3.74 11.65
3/28/2021 4:30:00 PM 9.1 48.38 0.083 7.03 3.9 11.65
3/28/2021 4:45:00 PM 9.06 48.308 0.083 7.01 3.44 11.63
3/28/2021 5:00:00 PM 9.01 48.218 0.083 7 3.12 11.65
3/28/2021 5:15:00 PM 8.98 48.164 0.082 7 3.47 11.66
3/28/2021 5:30:00 PM 8.97 48.146 0.083 7.01 3.02 11.71
3/28/2021 5:45:00 PM 8.94 48.092 0.083 6.98 3.03 11.74
3/28/2021 6:00:00 PM 8.92 48.056 0.083 7.02 2.99 11.75
3/28/2021 6:15:00 PM 8.87 47.966 0.083 7 2.95 11.75
3/28/2021 6:30:00 PM 8.85 47.93 0.083 7.02 2.79 11.73
3/28/2021 6:45:00 PM 8.84 47.912 0.083 7.02 2.89 11.72
3/28/2021 7:00:00 PM 8.83 47.894 0.083 7.02 2.74 11.69
3/28/2021 7:15:00 PM 8.81 47.858 0.083 7.01 2.83 11.66
3/28/2021 7:30:00 PM 8.76 47.768 0.083 7 2.72 11.63
3/28/2021 7:45:00 PM 8.71 47.678 0.083 6.98 2.8 11.61
3/28/2021 8:00:00 PM 8.69 47.642 0.083 6.98 2.8 11.58
3/28/2021 8:15:00 PM 8.67 47.606 0.083 6.97 2.77 11.55
3/28/2021 8:30:00 PM 8.66 47.588 0.083 6.96 2.74 11.53
3/28/2021 8:45:00 PM 8.65 47.57 0.083 6.97 2.84 11.52
3/28/2021 9:00:00 PM 8.63 47.534 0.083 6.96 2.86 11.51
3/28/2021 9:15:00 PM 8.61 47.498 0.083 6.96 2.77 11.51
3/28/2021 9:30:00 PM 8.59 47.462 0.083 6.95 3.03 11.51
3/28/2021 9:45:00 PM 8.57 47.426 0.083 6.95 2.79 11.51
3/28/2021 10:00:00 PM 8.54 47.372 0.083 6.92 2.89 11.52
3/28/2021 10:15:00 PM 8.53 47.354 0.083 6.96 2.85 11.53
3/28/2021 10:30:00 PM 8.51 47.318 0.083 6.95 2.87 11.53
3/28/2021 10:45:00 PM 8.5 47.3 0.083 6.95 2.75 11.54
3/28/2021 11:00:00 PM 8.5 47.3 0.083 6.95 2.8 11.55
3/28/2021 11:15:00 PM 8.51 47.318 0.083 6.88 2.71 11.55
3/28/2021 11:30:00 PM 8.52 47.336 0.083 6.96 2.63 11.55
3/28/2021 11:45:00 PM 8.53 47.354 0.083 6.95 2.88 11.54
3/29/2021 12:00:00 AM 8.51 47.318 0.083 6.95 2.7 11.55
3/29/2021 12:15:00 AM 8.51 47.318 0.083 6.95 2.79 11.55
3/29/2021 12:30:00 AM 8.5 47.3 0.083 6.95 2.7 11.56
3/29/2021 12:45:00 AM 8.5 47.3 0.083 6.95 2.75 11.56
3/29/2021 1:00:00 AM 8.49 47.282 0.083 6.95 2.82 11.56
3/29/2021 1:15:00 AM 8.47 47.246 0.083 6.95 2.75 11.57
3/29/2021 1:30:00 AM 8.45 47.21 0.083 6.95 2.7 11.58
3/29/2021 1:45:00 AM 8.43 47.174 0.083 6.95 2.84 11.59
3/29/2021 2:00:00 AM 8.43 47.174 0.083 6.95 2.79 11.59
3/29/2021 2:15:00 AM 8.42 47.156 0.083 6.95 2.82 11.6
3/29/2021 2:30:00 AM 8.42 47.156 0.083 6.94 2.79 11.59
3/29/2021 2:45:00 AM 8.41 47.138 0.083 6.95 2.75 11.6
3/29/2021 3:00:00 AM 8.42 47.156 0.083 6.95 2.81 11.59
3/29/2021 3:15:00 AM 8.44 47.192 0.083 6.95 2.72 11.6
3/29/2021 3:30:00 AM 8.45 47.21 0.083 6.94 2.69 11.59
3/29/2021 3:45:00 AM 8.47 47.246 0.083 6.95 2.7 11.58
3/29/2021 4:00:00 AM 8.49 47.282 0.082 6.95 2.76 11.58
3/29/2021 4:15:00 AM 8.49 47.282 0.082 6.94 2.8 11.59
3/29/2021 4:30:00 AM 8.48 47.264 0.083 6.94 2.87 11.59
3/29/2021 4:45:00 AM 8.48 47.264 0.083 6.94 2.66 11.6
3/29/2021 5:00:00 AM 8.47 47.246 0.083 6.93 2.91 11.6
3/29/2021 5:15:00 AM 8.45 47.21 0.083 6.94 2.83 11.62
3/29/2021 5:30:00 AM 8.4 47.12 0.083 6.94 2.76 11.64
3/29/2021 5:45:00 AM 8.36 47.048 0.083 6.94 2.75 11.66
3/29/2021 6:00:00 AM 8.31 46.958 0.083 6.94 2.92 11.67
3/29/2021 6:15:00 AM 8.28 46.904 0.083 6.95 2.84 11.69
3/29/2021 6:30:00 AM 8.25 46.85 0.083 6.94 2.92 11.7
3/29/2021 6:45:00 AM 8.21 46.778 0.083 6.94 2.94 11.72
3/29/2021 7:00:00 AM 8.19 46.742 0.083 6.95 2.84 11.73
3/29/2021 7:15:00 AM 8.15 46.67 0.084 6.94 3.02 11.75
3/29/2021 7:30:00 AM 8.11 46.598 0.084 6.95 3.83 11.78
3/29/2021 7:45:00 AM 8.04 46.472 0.084 6.95 2.92 11.81
3/29/2021 8:00:00 AM 8 46.4 0.084 6.96 2.92 11.85
3/29/2021 8:15:00 AM 7.95 46.31 0.084 6.9 3.45 11.9
3/29/2021 8:30:00 AM 7.92 46.256 0.084 6.97 3.12 11.95
3/29/2021 8:45:00 AM 7.9 46.22 0.084 6.99 2.89 11.99
3/29/2021 9:00:00 AM 7.87 46.166 0.085 7 2.82 12.03
3/29/2021 9:15:00 AM 7.87 46.166 0.085 7 2.97 12.07
3/29/2021 9:30:00 AM 7.87 46.166 0.084 7.01 3.1 12.12
3/29/2021 9:45:00 AM 7.88 46.184 0.084 7.03 3.02 12.16
3/29/2021 10:00:00 AM 7.9 46.22 0.085 7.04 2.88 12.2
3/29/2021 10:15:00 AM 7.91 46.238 0.084 7.06 2.81 12.23
3/29/2021 10:30:00 AM 7.94 46.292 0.084 7.07 2.81 12.26
3/29/2021 10:45:00 AM 7.96 46.328 0.084 7.06 2.84 12.29
3/29/2021 11:00:00 AM 7.99 46.382 0.084 7.07 3.38 12.31
3/29/2021 11:15:00 AM 8.05 46.49 0.084 7.08 2.82 12.34
3/29/2021 11:30:00 AM 8.1 46.58 0.084 7.08 2.89 12.35
3/29/2021 11:45:00 AM 8.18 46.724 0.084 7.1 2.88 12.35
3/29/2021 12:00:00 PM 8.25 46.85 0.084 7.1 2.92 12.36
3/29/2021 12:15:00 PM 8.32 46.976 0.085 7.1 2.86 12.36
3/29/2021 12:30:00 PM 8.35 47.03 0.084 7.09 2.74 12.36
3/29/2021 12:45:00 PM 8.41 47.138 0.084 7.1 2.9 12.36
3/29/2021 1:00:00 PM 8.49 47.282 0.084 7.11 2.85 12.35
3/29/2021 1:15:00 PM 8.61 47.498 0.085 7.11 2.91 12.33
3/29/2021 1:30:00 PM 8.76 47.768 0.085 7.11 2.86 12.32
3/29/2021 1:45:00 PM 8.9 48.02 0.085 7.11 2.88 12.3
3/29/2021 2:00:00 PM 9 48.2 0.085 7.11 2.91 12.28
3/29/2021 2:15:00 PM 9.07 48.326 0.085 7.11 2.82 12.27
3/29/2021 2:30:00 PM 9.13 48.434 0.085 7.1 2.9 12.26
3/29/2021 2:45:00 PM 9.15 48.47 0.085 7.1 2.87 12.25
3/29/2021 3:00:00 PM 9.17 48.506 0.085 7.11 2.92 12.24
3/29/2021 3:15:00 PM 9.17 48.506 0.085 7.1 2.91 12.23
3/29/2021 3:30:00 PM 9.14 48.452 0.085 7.09 2.88 12.23
3/29/2021 3:45:00 PM 9.08 48.344 0.085 7.09 2.86 12.22
3/29/2021 4:00:00 PM 9 48.2 0.085 7.08 2.91 12.21
3/29/2021 4:15:00 PM 8.89 48.002 0.085 7.08 2.9 12.21
3/29/2021 4:30:00 PM 8.75 47.75 0.085 7.07 2.84 12.2
3/29/2021 4:45:00 PM 8.6 47.48 0.085 7.06 3.04 12.19
3/29/2021 5:00:00 PM 8.46 47.228 0.085 7.05 2.88 12.19
3/29/2021 5:15:00 PM 8.36 47.048 0.085 7.05 3.08 12.19
3/29/2021 5:30:00 PM 8.27 46.886 0.085 7.04 3.03 12.18
3/29/2021 5:45:00 PM 8.2 46.76 0.085 7.04 3.05 12.17
3/29/2021 6:00:00 PM 8.13 46.634 0.085 7.03 3.21 12.16
3/29/2021 6:15:00 PM 8.06 46.508 0.085 7.03 2.97 12.16
3/29/2021 6:30:00 PM 7.99 46.382 0.085 7.03 2.89 12.15
3/29/2021 6:45:00 PM 7.91 46.238 0.085 7.02 3.05 12.13
3/29/2021 7:00:00 PM 7.83 46.094 0.086 7.02 2.94 12.13
3/29/2021 7:15:00 PM 7.77 45.986 0.086 7.02 2.87 12.12
3/29/2021 7:30:00 PM 7.7 45.86 0.086 7 2.87 12.11
3/29/2021 7:45:00 PM 7.64 45.752 0.085 7 2.99 12.1
3/29/2021 8:00:00 PM 7.58 45.644 0.085 6.99 2.88 12.08
3/29/2021 8:15:00 PM 7.52 45.536 0.086 6.98 2.91 12.07
3/29/2021 8:30:00 PM 7.47 45.446 0.086 6.98 2.97 12.06
3/29/2021 8:45:00 PM 7.43 45.374 0.086 6.97 2.99 12.06
3/29/2021 9:00:00 PM 7.39 45.302 0.086 6.98 3 12.06
3/29/2021 9:15:00 PM 7.35 45.23 0.086 6.96 2.94 12.06
3/29/2021 9:30:00 PM 7.32 45.176 0.086 6.97 3.13 12.06
3/29/2021 9:45:00 PM 7.28 45.104 0.086 6.97 2.98 12.07
3/29/2021 10:00:00 PM 7.25 45.05 0.086 6.96 2.92 12.07
3/29/2021 10:15:00 PM 7.22 44.996 0.086 6.97 2.88 12.08
3/29/2021 10:30:00 PM 7.2 44.96 0.086 6.97 3.03 12.08
3/29/2021 10:45:00 PM 7.18 44.924 0.086 6.96 2.98 12.09
3/29/2021 11:00:00 PM 7.17 44.906 0.086 6.96 3.04 12.09
3/29/2021 11:15:00 PM 7.15 44.87 0.086 6.96 3.14 12.09
3/29/2021 11:30:00 PM 7.14 44.852 0.086 6.96 2.93 12.09
3/29/2021 11:45:00 PM 7.13 44.834 0.086 6.96 2.88 12.1
3/30/2021 12:00:00 AM 7.12 44.816 0.086 6.97 2.89 12.1
3/30/2021 12:15:00 AM 7.12 44.816 0.087 6.96 2.96 12.1
3/30/2021 12:30:00 AM 7.12 44.816 0.087 6.97 2.8 12.1
3/30/2021 12:45:00 AM 7.11 44.798 0.087 6.97 2.88 12.1
3/30/2021 1:00:00 AM 7.11 44.798 0.087 6.97 2.81 12.1
3/30/2021 1:15:00 AM 7.11 44.798 0.087 6.96 2.84 12.1
3/30/2021 1:30:00 AM 7.1 44.78 0.087 6.97 2.82 12.1
3/30/2021 1:45:00 AM 7.1 44.78 0.087 6.97 2.86 12.1
3/30/2021 2:00:00 AM 7.1 44.78 0.087 6.97 2.85 12.1
3/30/2021 2:15:00 AM 7.1 44.78 0.087 6.97 2.87 12.09
3/30/2021 2:30:00 AM 7.11 44.798 0.087 6.97 2.79 12.09
3/30/2021 2:45:00 AM 7.11 44.798 0.087 6.97 2.91 12.09
3/30/2021 3:00:00 AM 7.11 44.798 0.087 6.97 2.84 12.09
3/30/2021 3:15:00 AM 7.11 44.798 0.087 6.97 2.87 12.09
3/30/2021 3:30:00 AM 7.11 44.798 0.087 6.97 2.81 12.09
3/30/2021 3:45:00 AM 7.11 44.798 0.087 6.97 2.8 12.08
3/30/2021 4:00:00 AM 7.11 44.798 0.087 6.97 2.82 12.08
3/30/2021 4:15:00 AM 7.1 44.78 0.087 6.97 2.8 12.09
3/30/2021 4:30:00 AM 7.09 44.762 0.087 6.97 2.72 12.09
3/30/2021 4:45:00 AM 7.07 44.726 0.087 6.97 2.68 12.09
3/30/2021 5:00:00 AM 7.06 44.708 0.087 6.97 2.75 12.1
3/30/2021 5:15:00 AM 7.04 44.672 0.087 6.97 2.67 12.1
3/30/2021 5:30:00 AM 7.01 44.618 0.087 6.97 2.8 12.11
3/30/2021 5:45:00 AM 6.99 44.582 0.087 6.96 2.8 12.11
3/30/2021 6:00:00 AM 6.97 44.546 0.087 6.97 2.95 12.12
3/30/2021 6:15:00 AM 6.94 44.492 0.087 6.96 2.7 12.12
3/30/2021 6:30:00 AM 6.92 44.456 0.087 6.96 2.88 12.13
3/30/2021 6:45:00 AM 6.9 44.42 0.087 6.96 2.78 12.13
3/30/2021 7:00:00 AM 6.89 44.402 0.087 6.96 2.84 12.14
3/30/2021 7:15:00 AM 6.88 44.384 0.087 6.97 2.78 12.15
3/30/2021 7:30:00 AM 6.86 44.348 0.087 6.97 2.75 12.17
3/30/2021 7:45:00 AM 6.85 44.33 0.087 6.98 3.42 12.2
3/30/2021 8:00:00 AM 6.84 44.312 0.087 6.98 2.64 12.23
3/30/2021 8:15:00 AM 6.83 44.294 0.087 6.98 2.82 12.25
3/30/2021 8:30:00 AM 6.82 44.276 0.087 6.99 2.69 12.28
3/30/2021 8:45:00 AM 6.84 44.312 0.087 7 3 12.31
3/30/2021 9:00:00 AM 6.87 44.366 0.087 7.01 2.82 12.35
3/30/2021 9:15:00 AM 6.9 44.42 0.087 7.01 2.66 12.37
3/30/2021 9:30:00 AM 6.93 44.474 0.087 7.02 2.68 12.4
3/30/2021 9:45:00 AM 6.98 44.564 0.087 7.03 2.72 12.42
3/30/2021 10:00:00 AM 7.02 44.636 0.087 7.03 2.71 12.44
3/30/2021 10:15:00 AM 7.1 44.78 0.087 7.04 2.75 12.46
3/30/2021 10:30:00 AM 7.19 44.942 0.087 7.05 2.75 12.47
3/30/2021 10:45:00 AM 7.29 45.122 0.087 7.06 2.79 12.47
3/30/2021 11:00:00 AM 7.41 45.338 0.087 7.07 2.79 12.48
3/30/2021 11:15:00 AM 7.54 45.572 0.087 7.08 2.79 12.48
3/30/2021 11:30:00 AM 7.69 45.842 0.087 7.08 2.7 12.46
3/30/2021 11:45:00 AM 7.86 46.148 0.087 7.09 2.76 12.46
3/30/2021 12:00:00 PM 8.05 46.49 0.087 7.09 2.71 12.44
3/30/2021 12:15:00 PM 8.23 46.814 0.086 7.1 2.78 12.43
3/30/2021 12:30:00 PM 8.42 47.156 0.087 7.11 2.66 12.41
3/30/2021 12:45:00 PM 8.59 47.462 0.087 7.11 2.64 12.38
3/30/2021 1:00:00 PM 8.76 47.768 0.087 7.09 2.68 12.35
3/30/2021 1:15:00 PM 8.92 48.056 0.087 7.11 2.67 12.33
3/30/2021 1:30:00 PM 9.06 48.308 0.087 7.11 2.62 12.31
3/30/2021 1:45:00 PM 9.17 48.506 0.087 7.11 2.58 12.3
3/30/2021 2:00:00 PM 9.25 48.65 0.088 7.11 2.69 12.29
3/30/2021 2:15:00 PM 9.32 48.776 0.087 7.11 2.65 12.28
3/30/2021 2:30:00 PM 9.34 48.812 0.088 7.11 2.59 12.28
3/30/2021 2:45:00 PM 9.33 48.794 0.088 7.1 2.58 12.28
3/30/2021 3:00:00 PM 9.27 48.686 0.088 7.1 2.65 12.3
3/30/2021 3:15:00 PM 9.18 48.524 0.089 7.09 2.55 12.32
3/30/2021 3:30:00 PM 9.05 48.29 0.089 7.08 2.74 12.34
3/30/2021 3:45:00 PM 8.89 48.002 0.089 7.08 2.55 12.35
3/30/2021 4:00:00 PM 8.76 47.768 0.089 7.08 2.59 12.36
3/30/2021 4:15:00 PM 8.61 47.498 0.089 7.08 2.56 12.37
3/30/2021 4:30:00 PM 8.49 47.282 0.089 7.08 2.74 12.36
3/30/2021 4:45:00 PM 8.35 47.03 0.089 7.05 2.64 12.35
3/30/2021 5:00:00 PM 8.28 46.904 0.089 7.07 2.82 12.35
3/30/2021 5:15:00 PM 8.17 46.706 0.089 7.07 2.63 12.34
3/30/2021 5:30:00 PM 8.09 46.562 0.089 7.09 2.67 12.33
3/30/2021 5:45:00 PM 8.04 46.472 0.089 7.07 2.66 12.33
3/30/2021 6:00:00 PM 7.98 46.364 0.089 7.07 2.7 12.32
3/30/2021 6:15:00 PM 7.9 46.22 0.089 7.07 2.75 12.31
3/30/2021 6:30:00 PM 7.81 46.058 0.089 7.06 2.68 12.28
3/30/2021 6:45:00 PM 7.74 45.932 0.089 7.06 2.74 12.26
3/30/2021 7:00:00 PM 7.68 45.824 0.089 7.05 2.64 12.24
3/30/2021 7:15:00 PM 7.62 45.716 0.089 6.96 2.61 12.21
3/30/2021 7:30:00 PM 7.56 45.608 0.089 7.04 2.72 12.18
3/30/2021 7:45:00 PM 7.52 45.536 0.089 7.03 2.72 12.15
3/30/2021 8:00:00 PM 7.47 45.446 0.089 7.02 2.87 12.12
3/30/2021 8:15:00 PM 7.42 45.356 0.089 7.01 2.71 12.1
3/30/2021 8:30:00 PM 7.39 45.302 0.089 7.01 2.79 12.08
3/30/2021 8:45:00 PM 7.35 45.23 0.09 6.99 2.75 12.06
3/30/2021 9:00:00 PM 7.34 45.212 0.09 6.99 2.72 12.05
3/30/2021 9:15:00 PM 7.34 45.212 0.09 6.99 2.84 12.03
3/30/2021 9:30:00 PM 7.35 45.23 0.09 6.99 2.71 12.02
3/30/2021 9:45:00 PM 7.36 45.248 0.089 6.99 2.79 12
3/30/2021 10:00:00 PM 7.36 45.248 0.089 6.99 2.81 12
3/30/2021 10:15:00 PM 7.37 45.266 0.09 6.98 2.87 11.99
3/30/2021 10:30:00 PM 7.37 45.266 0.089 6.98 2.76 11.99
3/30/2021 10:45:00 PM 7.37 45.266 0.09 6.98 2.8 11.99
3/30/2021 11:00:00 PM 7.37 45.266 0.089 6.98 2.84 11.99
3/30/2021 11:15:00 PM 7.37 45.266 0.089 6.93 2.83 11.99
3/30/2021 11:30:00 PM 7.36 45.248 0.089 6.97 2.69 11.98
3/30/2021 11:45:00 PM 7.36 45.248 0.089 6.97 2.83 11.98
3/31/2021 12:00:00 AM 7.36 45.248 0.089 6.96 3.03 11.98
3/31/2021 12:15:00 AM 7.37 45.266 0.089 6.97 2.82 11.97
3/31/2021 12:30:00 AM 7.39 45.302 0.089 6.97 2.75 11.96
3/31/2021 12:45:00 AM 7.4 45.32 0.089 6.96 2.76 11.96
3/31/2021 1:00:00 AM 7.41 45.338 0.089 6.97 2.7 11.95
3/31/2021 1:15:00 AM 7.42 45.356 0.089 6.95 2.73 11.94
3/31/2021 1:30:00 AM 7.44 45.392 0.089 6.96 2.74 11.93
3/31/2021 1:45:00 AM 7.46 45.428 0.089 6.96 2.72 11.92
3/31/2021 2:00:00 AM 7.48 45.464 0.089 6.96 2.67 11.92
3/31/2021 2:15:00 AM 7.51 45.518 0.089 6.96 2.78 11.91
3/31/2021 2:30:00 AM 7.54 45.572 0.089 6.96 2.89 11.89
3/31/2021 2:45:00 AM 7.58 45.644 0.089 6.96 2.82 11.88
3/31/2021 3:00:00 AM 7.61 45.698 0.089 6.96 2.68 11.86
3/31/2021 3:15:00 AM 7.63 45.734 0.089 6.96 2.81 11.85
3/31/2021 3:30:00 AM 7.65 45.77 0.089 6.96 2.66 11.85
3/31/2021 3:45:00 AM 7.66 45.788 0.089 6.95 2.67 11.84
3/31/2021 4:00:00 AM 7.67 45.806 0.089 6.95 2.74 11.83
3/31/2021 4:15:00 AM 7.69 45.842 0.09 6.96 2.83 11.82
3/31/2021 4:30:00 AM 7.71 45.878 0.089 6.96 2.84 11.82
3/31/2021 4:45:00 AM 7.73 45.914 0.089 6.96 2.8 11.81
3/31/2021 5:00:00 AM 7.75 45.95 0.089 6.96 2.69 11.8
3/31/2021 5:15:00 AM 7.78 46.004 0.09 6.96 2.77 11.79
3/31/2021 5:30:00 AM 7.81 46.058 0.089 6.96 2.9 11.77
3/31/2021 5:45:00 AM 7.84 46.112 0.089 6.96 2.74 11.76
3/31/2021 6:00:00 AM 7.88 46.184 0.09 6.96 2.81 11.75
3/31/2021 6:15:00 AM 7.91 46.238 0.09 6.96 2.73 11.73
3/31/2021 6:30:00 AM 7.94 46.292 0.09 6.96 2.67 11.73
3/31/2021 6:45:00 AM 7.97 46.346 0.09 6.96 2.68 11.72
3/31/2021 7:00:00 AM 7.99 46.382 0.089 6.96 2.76 11.71
3/31/2021 7:15:00 AM 8.02 46.436 0.089 6.96 2.65 11.71
3/31/2021 7:30:00 AM 8.04 46.472 0.09 6.96 2.69 11.72
3/31/2021 7:45:00 AM 8.07 46.526 0.089 6.98 2.96 11.75
3/31/2021 8:00:00 AM 8.11 46.598 0.089 6.98 2.66 11.78
3/31/2021 8:15:00 AM 8.14 46.652 0.089 6.99 2.77 11.81
3/31/2021 8:30:00 AM 8.17 46.706 0.089 7 2.66 11.84
3/31/2021 8:45:00 AM 8.2 46.76 0.089 7.01 3.05 11.86
3/31/2021 9:00:00 AM 8.23 46.814 0.089 7.02 2.56 11.89
3/31/2021 9:15:00 AM 8.27 46.886 0.089 7.03 2.58 11.92
3/31/2021 9:30:00 AM 8.3 46.94 0.089 7.03 2.54 11.95
3/31/2021 9:45:00 AM 8.32 46.976 0.089 7.04 2.58 11.96
3/31/2021 10:00:00 AM 8.33 46.994 0.09 7.04 2.66 11.96
3/31/2021 10:15:00 AM 8.34 47.012 0.089 7.05 2.53 11.96
3/31/2021 10:30:00 AM 8.34 47.012 0.089 6.97 2.88 11.96
3/31/2021 10:45:00 AM 8.34 47.012 0.09 7.05 2.84 11.94
3/31/2021 11:00:00 AM 8.34 47.012 0.09 7.04 3.02 11.91
3/31/2021 11:15:00 AM 8.36 47.048 0.09 7.04 3.56 11.88
3/31/2021 11:30:00 AM 8.37 47.066 0.09 7.04 3.25 11.86
3/31/2021 11:45:00 AM 8.38 47.084 0.089 7.04 3.08 11.84
3/31/2021 12:00:00 PM 8.39 47.102 0.09 7.03 3.03 11.84
3/31/2021 12:15:00 PM 8.41 47.138 0.089 7.04 2.74 11.87
3/31/2021 12:30:00 PM 8.43 47.174 0.089